<?xml version="1.0" encoding="UTF-8" standalone="no" ?>
<gpx xmlns="http://www.topografix.com/GPX/1/1" xmlns:xsi="http://www.w3.org/2001/XMLSchema-instance" xsi:schemaLocation="http://www.topografix.com/GPX/1/1 http://www.topografix.com/GPX/1/1/gpx.xsd" version="1.1" creator="VisuGPX - https://www.visugpx.com">
  <metadata>
    <name>IVV Hargarten aux mines </name>
    <desc><![CDATA[Belle marche avec un bon dénivelé et un beau point de vue sur les hauteurs de Tromborn]]></desc>
  </metadata>
  <trk>
    <name><![CDATA[2019-09-01 08:23:19]]></name>
    <trkseg>
      <trkpt lat="49.22406" lon="6.6064">
        <ele>232</ele>
        <time>2019-09-01T06:24:20.000Z</time>
      </trkpt>
      <trkpt lat="49.22405" lon="6.6064">
        <ele>232</ele>
        <time>2019-09-01T06:24:31.000Z</time>
      </trkpt>
      <trkpt lat="49.22404" lon="6.60644">
        <ele>232</ele>
        <time>2019-09-01T06:24:41.000Z</time>
      </trkpt>
      <trkpt lat="49.22398" lon="6.60654">
        <ele>232</ele>
        <time>2019-09-01T06:25:47.000Z</time>
      </trkpt>
      <trkpt lat="49.2239" lon="6.60654">
        <ele>233</ele>
        <time>2019-09-01T06:26:56.000Z</time>
      </trkpt>
      <trkpt lat="49.22383" lon="6.60654">
        <ele>233</ele>
        <time>2019-09-01T06:27:06.000Z</time>
      </trkpt>
      <trkpt lat="49.22384" lon="6.60652">
        <ele>233</ele>
        <time>2019-09-01T06:27:16.000Z</time>
      </trkpt>
      <trkpt lat="49.22395" lon="6.60646">
        <ele>233</ele>
        <time>2019-09-01T06:27:26.000Z</time>
      </trkpt>
      <trkpt lat="49.22388" lon="6.60654">
        <ele>233</ele>
        <time>2019-09-01T06:27:49.000Z</time>
      </trkpt>
      <trkpt lat="49.22389" lon="6.60655">
        <ele>233</ele>
        <time>2019-09-01T06:27:59.000Z</time>
      </trkpt>
      <trkpt lat="49.22398" lon="6.60658">
        <ele>232</ele>
        <time>2019-09-01T06:28:11.000Z</time>
      </trkpt>
      <trkpt lat="49.224" lon="6.6066">
        <ele>232</ele>
        <time>2019-09-01T06:28:21.000Z</time>
      </trkpt>
      <trkpt lat="49.22409" lon="6.60657">
        <ele>232</ele>
        <time>2019-09-01T06:28:56.000Z</time>
      </trkpt>
      <trkpt lat="49.22412" lon="6.60655">
        <ele>232</ele>
        <time>2019-09-01T06:29:06.000Z</time>
      </trkpt>
      <trkpt lat="49.22403" lon="6.60656">
        <ele>232</ele>
        <time>2019-09-01T06:29:22.000Z</time>
      </trkpt>
      <trkpt lat="49.22402" lon="6.60641">
        <ele>232</ele>
        <time>2019-09-01T06:29:46.000Z</time>
      </trkpt>
      <trkpt lat="49.22401" lon="6.60638">
        <ele>232</ele>
        <time>2019-09-01T06:29:56.000Z</time>
      </trkpt>
      <trkpt lat="49.22393" lon="6.6065">
        <ele>233</ele>
        <time>2019-09-01T06:30:06.000Z</time>
      </trkpt>
      <trkpt lat="49.22384" lon="6.60645">
        <ele>233</ele>
        <time>2019-09-01T06:30:20.000Z</time>
      </trkpt>
      <trkpt lat="49.22373" lon="6.60652">
        <ele>234</ele>
        <time>2019-09-01T06:30:30.000Z</time>
      </trkpt>
      <trkpt lat="49.22367" lon="6.60648">
        <ele>234</ele>
        <time>2019-09-01T06:30:40.000Z</time>
      </trkpt>
      <trkpt lat="49.22369" lon="6.60634">
        <ele>234</ele>
        <time>2019-09-01T06:31:35.000Z</time>
      </trkpt>
      <trkpt lat="49.22361" lon="6.60635">
        <ele>234</ele>
        <time>2019-09-01T06:35:28.000Z</time>
      </trkpt>
      <trkpt lat="49.22352" lon="6.60635">
        <ele>234</ele>
        <time>2019-09-01T06:35:38.000Z</time>
      </trkpt>
      <trkpt lat="49.22348" lon="6.60652">
        <ele>235</ele>
        <time>2019-09-01T06:35:48.000Z</time>
      </trkpt>
      <trkpt lat="49.22346" lon="6.60673">
        <ele>235</ele>
        <time>2019-09-01T06:35:58.000Z</time>
      </trkpt>
      <trkpt lat="49.22343" lon="6.60688">
        <ele>234</ele>
        <time>2019-09-01T06:36:08.000Z</time>
      </trkpt>
      <trkpt lat="49.22336" lon="6.60699">
        <ele>234</ele>
        <time>2019-09-01T06:36:18.000Z</time>
      </trkpt>
      <trkpt lat="49.22325" lon="6.60709">
        <ele>238</ele>
        <time>2019-09-01T06:36:28.000Z</time>
      </trkpt>
      <trkpt lat="49.22312" lon="6.60709">
        <ele>239</ele>
        <time>2019-09-01T06:36:38.000Z</time>
      </trkpt>
      <trkpt lat="49.223" lon="6.60712">
        <ele>240</ele>
        <time>2019-09-01T06:36:48.000Z</time>
      </trkpt>
      <trkpt lat="49.22288" lon="6.60715">
        <ele>240</ele>
        <time>2019-09-01T06:36:58.000Z</time>
      </trkpt>
      <trkpt lat="49.22273" lon="6.60716">
        <ele>241</ele>
        <time>2019-09-01T06:37:08.000Z</time>
      </trkpt>
      <trkpt lat="49.22261" lon="6.60716">
        <ele>242</ele>
        <time>2019-09-01T06:37:18.000Z</time>
      </trkpt>
      <trkpt lat="49.22252" lon="6.60714">
        <ele>242</ele>
        <time>2019-09-01T06:37:28.000Z</time>
      </trkpt>
      <trkpt lat="49.22244" lon="6.60717">
        <ele>251</ele>
        <time>2019-09-01T06:37:38.000Z</time>
      </trkpt>
      <trkpt lat="49.2223" lon="6.60724">
        <ele>252</ele>
        <time>2019-09-01T06:37:48.000Z</time>
      </trkpt>
      <trkpt lat="49.22219" lon="6.60729">
        <ele>253</ele>
        <time>2019-09-01T06:37:58.000Z</time>
      </trkpt>
      <trkpt lat="49.2221" lon="6.60733">
        <ele>255</ele>
        <time>2019-09-01T06:38:08.000Z</time>
      </trkpt>
      <trkpt lat="49.22201" lon="6.60732">
        <ele>256</ele>
        <time>2019-09-01T06:38:18.000Z</time>
      </trkpt>
      <trkpt lat="49.22192" lon="6.60737">
        <ele>258</ele>
        <time>2019-09-01T06:38:28.000Z</time>
      </trkpt>
      <trkpt lat="49.22193" lon="6.60742">
        <ele>258</ele>
        <time>2019-09-01T06:38:38.000Z</time>
      </trkpt>
      <trkpt lat="49.22194" lon="6.60758">
        <ele>259</ele>
        <time>2019-09-01T06:38:48.000Z</time>
      </trkpt>
      <trkpt lat="49.22193" lon="6.60774">
        <ele>259</ele>
        <time>2019-09-01T06:38:58.000Z</time>
      </trkpt>
      <trkpt lat="49.22193" lon="6.60794">
        <ele>259</ele>
        <time>2019-09-01T06:39:08.000Z</time>
      </trkpt>
      <trkpt lat="49.22192" lon="6.60814">
        <ele>260</ele>
        <time>2019-09-01T06:39:18.000Z</time>
      </trkpt>
      <trkpt lat="49.22186" lon="6.60837">
        <ele>261</ele>
        <time>2019-09-01T06:39:28.000Z</time>
      </trkpt>
      <trkpt lat="49.2218" lon="6.6086">
        <ele>260</ele>
        <time>2019-09-01T06:39:38.000Z</time>
      </trkpt>
      <trkpt lat="49.22175" lon="6.60881">
        <ele>259</ele>
        <time>2019-09-01T06:39:48.000Z</time>
      </trkpt>
      <trkpt lat="49.22176" lon="6.60903">
        <ele>260</ele>
        <time>2019-09-01T06:39:58.000Z</time>
      </trkpt>
      <trkpt lat="49.22172" lon="6.60917">
        <ele>261</ele>
        <time>2019-09-01T06:40:08.000Z</time>
      </trkpt>
      <trkpt lat="49.22172" lon="6.60935">
        <ele>259</ele>
        <time>2019-09-01T06:40:18.000Z</time>
      </trkpt>
      <trkpt lat="49.2217" lon="6.60954">
        <ele>257</ele>
        <time>2019-09-01T06:40:28.000Z</time>
      </trkpt>
      <trkpt lat="49.22169" lon="6.60971">
        <ele>257</ele>
        <time>2019-09-01T06:40:38.000Z</time>
      </trkpt>
      <trkpt lat="49.22174" lon="6.60993">
        <ele>259</ele>
        <time>2019-09-01T06:40:48.000Z</time>
      </trkpt>
      <trkpt lat="49.22179" lon="6.61013">
        <ele>260</ele>
        <time>2019-09-01T06:40:58.000Z</time>
      </trkpt>
      <trkpt lat="49.22182" lon="6.61032">
        <ele>260</ele>
        <time>2019-09-01T06:41:08.000Z</time>
      </trkpt>
      <trkpt lat="49.22183" lon="6.61056">
        <ele>262</ele>
        <time>2019-09-01T06:41:18.000Z</time>
      </trkpt>
      <trkpt lat="49.22179" lon="6.61083">
        <ele>267</ele>
        <time>2019-09-01T06:41:28.000Z</time>
      </trkpt>
      <trkpt lat="49.22182" lon="6.61099">
        <ele>270</ele>
        <time>2019-09-01T06:41:38.000Z</time>
      </trkpt>
      <trkpt lat="49.22187" lon="6.61112">
        <ele>269</ele>
        <time>2019-09-01T06:41:48.000Z</time>
      </trkpt>
      <trkpt lat="49.22184" lon="6.61125">
        <ele>270</ele>
        <time>2019-09-01T06:41:58.000Z</time>
      </trkpt>
      <trkpt lat="49.22181" lon="6.61121">
        <ele>270</ele>
        <time>2019-09-01T06:42:08.000Z</time>
      </trkpt>
      <trkpt lat="49.22173" lon="6.61111">
        <ele>270</ele>
        <time>2019-09-01T06:42:18.000Z</time>
      </trkpt>
      <trkpt lat="49.22167" lon="6.61102">
        <ele>271</ele>
        <time>2019-09-01T06:42:28.000Z</time>
      </trkpt>
      <trkpt lat="49.22159" lon="6.61093">
        <ele>281</ele>
        <time>2019-09-01T06:42:38.000Z</time>
      </trkpt>
      <trkpt lat="49.22148" lon="6.61079">
        <ele>279</ele>
        <time>2019-09-01T06:42:48.000Z</time>
      </trkpt>
      <trkpt lat="49.22141" lon="6.61067">
        <ele>281</ele>
        <time>2019-09-01T06:42:58.000Z</time>
      </trkpt>
      <trkpt lat="49.22132" lon="6.61055">
        <ele>282</ele>
        <time>2019-09-01T06:43:08.000Z</time>
      </trkpt>
      <trkpt lat="49.22129" lon="6.61042">
        <ele>281</ele>
        <time>2019-09-01T06:43:18.000Z</time>
      </trkpt>
      <trkpt lat="49.22131" lon="6.61027">
        <ele>280</ele>
        <time>2019-09-01T06:43:28.000Z</time>
      </trkpt>
      <trkpt lat="49.22132" lon="6.61012">
        <ele>278</ele>
        <time>2019-09-01T06:43:38.000Z</time>
      </trkpt>
      <trkpt lat="49.22126" lon="6.60987">
        <ele>277</ele>
        <time>2019-09-01T06:43:48.000Z</time>
      </trkpt>
      <trkpt lat="49.22121" lon="6.60965">
        <ele>279</ele>
        <time>2019-09-01T06:43:58.000Z</time>
      </trkpt>
      <trkpt lat="49.22124" lon="6.60938">
        <ele>279</ele>
        <time>2019-09-01T06:44:08.000Z</time>
      </trkpt>
      <trkpt lat="49.22134" lon="6.60917">
        <ele>276</ele>
        <time>2019-09-01T06:44:18.000Z</time>
      </trkpt>
      <trkpt lat="49.22146" lon="6.609">
        <ele>277</ele>
        <time>2019-09-01T06:44:28.000Z</time>
      </trkpt>
      <trkpt lat="49.2215" lon="6.60879">
        <ele>278</ele>
        <time>2019-09-01T06:44:38.000Z</time>
      </trkpt>
      <trkpt lat="49.2215" lon="6.6086">
        <ele>278</ele>
        <time>2019-09-01T06:44:48.000Z</time>
      </trkpt>
      <trkpt lat="49.22152" lon="6.60841">
        <ele>276</ele>
        <time>2019-09-01T06:44:58.000Z</time>
      </trkpt>
      <trkpt lat="49.22152" lon="6.60814">
        <ele>279</ele>
        <time>2019-09-01T06:45:08.000Z</time>
      </trkpt>
      <trkpt lat="49.22158" lon="6.60793">
        <ele>280</ele>
        <time>2019-09-01T06:45:18.000Z</time>
      </trkpt>
      <trkpt lat="49.22158" lon="6.60773">
        <ele>279</ele>
        <time>2019-09-01T06:45:28.000Z</time>
      </trkpt>
      <trkpt lat="49.22158" lon="6.60753">
        <ele>273</ele>
        <time>2019-09-01T06:45:38.000Z</time>
      </trkpt>
      <trkpt lat="49.22155" lon="6.60735">
        <ele>276</ele>
        <time>2019-09-01T06:45:48.000Z</time>
      </trkpt>
      <trkpt lat="49.2215" lon="6.60716">
        <ele>279</ele>
        <time>2019-09-01T06:45:58.000Z</time>
      </trkpt>
      <trkpt lat="49.22144" lon="6.60695">
        <ele>279</ele>
        <time>2019-09-01T06:46:08.000Z</time>
      </trkpt>
      <trkpt lat="49.22142" lon="6.60675">
        <ele>278</ele>
        <time>2019-09-01T06:46:18.000Z</time>
      </trkpt>
      <trkpt lat="49.22139" lon="6.60653">
        <ele>275</ele>
        <time>2019-09-01T06:46:28.000Z</time>
      </trkpt>
      <trkpt lat="49.2213" lon="6.60635">
        <ele>278</ele>
        <time>2019-09-01T06:46:38.000Z</time>
      </trkpt>
      <trkpt lat="49.22125" lon="6.60625">
        <ele>279</ele>
        <time>2019-09-01T06:46:48.000Z</time>
      </trkpt>
      <trkpt lat="49.22121" lon="6.60612">
        <ele>279</ele>
        <time>2019-09-01T06:46:58.000Z</time>
      </trkpt>
      <trkpt lat="49.22113" lon="6.60593">
        <ele>281</ele>
        <time>2019-09-01T06:47:08.000Z</time>
      </trkpt>
      <trkpt lat="49.22107" lon="6.60562">
        <ele>279</ele>
        <time>2019-09-01T06:47:18.000Z</time>
      </trkpt>
      <trkpt lat="49.22108" lon="6.6054">
        <ele>278</ele>
        <time>2019-09-01T06:47:28.000Z</time>
      </trkpt>
      <trkpt lat="49.22104" lon="6.60522">
        <ele>279</ele>
        <time>2019-09-01T06:47:38.000Z</time>
      </trkpt>
      <trkpt lat="49.22107" lon="6.60495">
        <ele>281</ele>
        <time>2019-09-01T06:47:48.000Z</time>
      </trkpt>
      <trkpt lat="49.22116" lon="6.60471">
        <ele>279</ele>
        <time>2019-09-01T06:47:58.000Z</time>
      </trkpt>
      <trkpt lat="49.22121" lon="6.6045">
        <ele>279</ele>
        <time>2019-09-01T06:48:08.000Z</time>
      </trkpt>
      <trkpt lat="49.22125" lon="6.60438">
        <ele>279</ele>
        <time>2019-09-01T06:48:18.000Z</time>
      </trkpt>
      <trkpt lat="49.22129" lon="6.60431">
        <ele>279</ele>
        <time>2019-09-01T06:48:28.000Z</time>
      </trkpt>
      <trkpt lat="49.2214" lon="6.60422">
        <ele>277</ele>
        <time>2019-09-01T06:48:38.000Z</time>
      </trkpt>
      <trkpt lat="49.22156" lon="6.60421">
        <ele>274</ele>
        <time>2019-09-01T06:48:48.000Z</time>
      </trkpt>
      <trkpt lat="49.22168" lon="6.60419">
        <ele>270</ele>
        <time>2019-09-01T06:48:58.000Z</time>
      </trkpt>
      <trkpt lat="49.22179" lon="6.60406">
        <ele>269</ele>
        <time>2019-09-01T06:49:08.000Z</time>
      </trkpt>
      <trkpt lat="49.2219" lon="6.60389">
        <ele>269</ele>
        <time>2019-09-01T06:49:18.000Z</time>
      </trkpt>
      <trkpt lat="49.22198" lon="6.6037">
        <ele>269</ele>
        <time>2019-09-01T06:49:28.000Z</time>
      </trkpt>
      <trkpt lat="49.222" lon="6.60355">
        <ele>270</ele>
        <time>2019-09-01T06:49:38.000Z</time>
      </trkpt>
      <trkpt lat="49.22228" lon="6.60344">
        <ele>265</ele>
        <time>2019-09-01T06:49:48.000Z</time>
      </trkpt>
      <trkpt lat="49.22236" lon="6.60328">
        <ele>266</ele>
        <time>2019-09-01T06:49:58.000Z</time>
      </trkpt>
      <trkpt lat="49.22245" lon="6.60308">
        <ele>267</ele>
        <time>2019-09-01T06:50:08.000Z</time>
      </trkpt>
      <trkpt lat="49.22247" lon="6.60287">
        <ele>268</ele>
        <time>2019-09-01T06:50:18.000Z</time>
      </trkpt>
      <trkpt lat="49.22246" lon="6.60264">
        <ele>265</ele>
        <time>2019-09-01T06:50:28.000Z</time>
      </trkpt>
      <trkpt lat="49.22241" lon="6.60241">
        <ele>263</ele>
        <time>2019-09-01T06:50:38.000Z</time>
      </trkpt>
      <trkpt lat="49.22235" lon="6.6022">
        <ele>265</ele>
        <time>2019-09-01T06:50:48.000Z</time>
      </trkpt>
      <trkpt lat="49.22223" lon="6.60202">
        <ele>266</ele>
        <time>2019-09-01T06:50:58.000Z</time>
      </trkpt>
      <trkpt lat="49.22211" lon="6.60189">
        <ele>267</ele>
        <time>2019-09-01T06:51:08.000Z</time>
      </trkpt>
      <trkpt lat="49.22204" lon="6.60172">
        <ele>267</ele>
        <time>2019-09-01T06:51:18.000Z</time>
      </trkpt>
      <trkpt lat="49.22205" lon="6.60155">
        <ele>265</ele>
        <time>2019-09-01T06:51:28.000Z</time>
      </trkpt>
      <trkpt lat="49.22202" lon="6.60128">
        <ele>265</ele>
        <time>2019-09-01T06:51:38.000Z</time>
      </trkpt>
      <trkpt lat="49.22203" lon="6.6011">
        <ele>265</ele>
        <time>2019-09-01T06:51:48.000Z</time>
      </trkpt>
      <trkpt lat="49.22207" lon="6.60086">
        <ele>264</ele>
        <time>2019-09-01T06:51:58.000Z</time>
      </trkpt>
      <trkpt lat="49.2221" lon="6.60066">
        <ele>266</ele>
        <time>2019-09-01T06:52:08.000Z</time>
      </trkpt>
      <trkpt lat="49.22218" lon="6.60053">
        <ele>265</ele>
        <time>2019-09-01T06:52:18.000Z</time>
      </trkpt>
      <trkpt lat="49.22224" lon="6.60037">
        <ele>264</ele>
        <time>2019-09-01T06:52:28.000Z</time>
      </trkpt>
      <trkpt lat="49.22224" lon="6.60016">
        <ele>264</ele>
        <time>2019-09-01T06:52:38.000Z</time>
      </trkpt>
      <trkpt lat="49.22228" lon="6.59996">
        <ele>263</ele>
        <time>2019-09-01T06:52:48.000Z</time>
      </trkpt>
      <trkpt lat="49.22229" lon="6.5998">
        <ele>264</ele>
        <time>2019-09-01T06:52:58.000Z</time>
      </trkpt>
      <trkpt lat="49.22231" lon="6.59966">
        <ele>265</ele>
        <time>2019-09-01T06:53:08.000Z</time>
      </trkpt>
      <trkpt lat="49.22236" lon="6.5995">
        <ele>264</ele>
        <time>2019-09-01T06:53:18.000Z</time>
      </trkpt>
      <trkpt lat="49.22244" lon="6.59931">
        <ele>260</ele>
        <time>2019-09-01T06:53:28.000Z</time>
      </trkpt>
      <trkpt lat="49.2225" lon="6.59914">
        <ele>256</ele>
        <time>2019-09-01T06:53:38.000Z</time>
      </trkpt>
      <trkpt lat="49.2226" lon="6.59904">
        <ele>253</ele>
        <time>2019-09-01T06:53:48.000Z</time>
      </trkpt>
      <trkpt lat="49.22265" lon="6.59889">
        <ele>253</ele>
        <time>2019-09-01T06:53:58.000Z</time>
      </trkpt>
      <trkpt lat="49.22259" lon="6.5987">
        <ele>254</ele>
        <time>2019-09-01T06:54:08.000Z</time>
      </trkpt>
      <trkpt lat="49.22253" lon="6.59853">
        <ele>255</ele>
        <time>2019-09-01T06:54:18.000Z</time>
      </trkpt>
      <trkpt lat="49.22247" lon="6.59843">
        <ele>261</ele>
        <time>2019-09-01T06:54:28.000Z</time>
      </trkpt>
      <trkpt lat="49.22238" lon="6.59826">
        <ele>262</ele>
        <time>2019-09-01T06:54:38.000Z</time>
      </trkpt>
      <trkpt lat="49.22228" lon="6.59816">
        <ele>264</ele>
        <time>2019-09-01T06:54:48.000Z</time>
      </trkpt>
      <trkpt lat="49.22221" lon="6.59807">
        <ele>265</ele>
        <time>2019-09-01T06:54:58.000Z</time>
      </trkpt>
      <trkpt lat="49.22213" lon="6.59789">
        <ele>266</ele>
        <time>2019-09-01T06:55:08.000Z</time>
      </trkpt>
      <trkpt lat="49.22211" lon="6.59774">
        <ele>266</ele>
        <time>2019-09-01T06:55:18.000Z</time>
      </trkpt>
      <trkpt lat="49.22205" lon="6.59749">
        <ele>270</ele>
        <time>2019-09-01T06:55:28.000Z</time>
      </trkpt>
      <trkpt lat="49.222" lon="6.59728">
        <ele>271</ele>
        <time>2019-09-01T06:55:38.000Z</time>
      </trkpt>
      <trkpt lat="49.22194" lon="6.59711">
        <ele>272</ele>
        <time>2019-09-01T06:55:48.000Z</time>
      </trkpt>
      <trkpt lat="49.22193" lon="6.59696">
        <ele>273</ele>
        <time>2019-09-01T06:55:58.000Z</time>
      </trkpt>
      <trkpt lat="49.22192" lon="6.59679">
        <ele>274</ele>
        <time>2019-09-01T06:56:08.000Z</time>
      </trkpt>
      <trkpt lat="49.22187" lon="6.59666">
        <ele>279</ele>
        <time>2019-09-01T06:56:18.000Z</time>
      </trkpt>
      <trkpt lat="49.2218" lon="6.59654">
        <ele>279</ele>
        <time>2019-09-01T06:56:28.000Z</time>
      </trkpt>
      <trkpt lat="49.22172" lon="6.59642">
        <ele>279</ele>
        <time>2019-09-01T06:56:38.000Z</time>
      </trkpt>
      <trkpt lat="49.22164" lon="6.5963">
        <ele>282</ele>
        <time>2019-09-01T06:56:48.000Z</time>
      </trkpt>
      <trkpt lat="49.22155" lon="6.59617">
        <ele>283</ele>
        <time>2019-09-01T06:56:58.000Z</time>
      </trkpt>
      <trkpt lat="49.22147" lon="6.59602">
        <ele>284</ele>
        <time>2019-09-01T06:57:08.000Z</time>
      </trkpt>
      <trkpt lat="49.22142" lon="6.59588">
        <ele>284</ele>
        <time>2019-09-01T06:57:18.000Z</time>
      </trkpt>
      <trkpt lat="49.22135" lon="6.59571">
        <ele>288</ele>
        <time>2019-09-01T06:57:28.000Z</time>
      </trkpt>
      <trkpt lat="49.22128" lon="6.59555">
        <ele>288</ele>
        <time>2019-09-01T06:57:38.000Z</time>
      </trkpt>
      <trkpt lat="49.22118" lon="6.59539">
        <ele>289</ele>
        <time>2019-09-01T06:57:48.000Z</time>
      </trkpt>
      <trkpt lat="49.22108" lon="6.59528">
        <ele>290</ele>
        <time>2019-09-01T06:57:58.000Z</time>
      </trkpt>
      <trkpt lat="49.22098" lon="6.59521">
        <ele>291</ele>
        <time>2019-09-01T06:58:08.000Z</time>
      </trkpt>
      <trkpt lat="49.22086" lon="6.59509">
        <ele>293</ele>
        <time>2019-09-01T06:58:18.000Z</time>
      </trkpt>
      <trkpt lat="49.22075" lon="6.59497">
        <ele>298</ele>
        <time>2019-09-01T06:58:28.000Z</time>
      </trkpt>
      <trkpt lat="49.22064" lon="6.59485">
        <ele>301</ele>
        <time>2019-09-01T06:58:38.000Z</time>
      </trkpt>
      <trkpt lat="49.22054" lon="6.59476">
        <ele>303</ele>
        <time>2019-09-01T06:58:48.000Z</time>
      </trkpt>
      <trkpt lat="49.22044" lon="6.59469">
        <ele>304</ele>
        <time>2019-09-01T06:58:58.000Z</time>
      </trkpt>
      <trkpt lat="49.22032" lon="6.59463">
        <ele>305</ele>
        <time>2019-09-01T06:59:08.000Z</time>
      </trkpt>
      <trkpt lat="49.22019" lon="6.59463">
        <ele>306</ele>
        <time>2019-09-01T06:59:18.000Z</time>
      </trkpt>
      <trkpt lat="49.22008" lon="6.59465">
        <ele>306</ele>
        <time>2019-09-01T06:59:28.000Z</time>
      </trkpt>
      <trkpt lat="49.21997" lon="6.59462">
        <ele>312</ele>
        <time>2019-09-01T06:59:38.000Z</time>
      </trkpt>
      <trkpt lat="49.21987" lon="6.59454">
        <ele>313</ele>
        <time>2019-09-01T06:59:48.000Z</time>
      </trkpt>
      <trkpt lat="49.21976" lon="6.59449">
        <ele>313</ele>
        <time>2019-09-01T06:59:58.000Z</time>
      </trkpt>
      <trkpt lat="49.21963" lon="6.59447">
        <ele>314</ele>
        <time>2019-09-01T07:00:08.000Z</time>
      </trkpt>
      <trkpt lat="49.21951" lon="6.59451">
        <ele>314</ele>
        <time>2019-09-01T07:00:18.000Z</time>
      </trkpt>
      <trkpt lat="49.21937" lon="6.59452">
        <ele>315</ele>
        <time>2019-09-01T07:00:28.000Z</time>
      </trkpt>
      <trkpt lat="49.21924" lon="6.5945">
        <ele>315</ele>
        <time>2019-09-01T07:00:38.000Z</time>
      </trkpt>
      <trkpt lat="49.21909" lon="6.59449">
        <ele>318</ele>
        <time>2019-09-01T07:00:48.000Z</time>
      </trkpt>
      <trkpt lat="49.21896" lon="6.59445">
        <ele>318</ele>
        <time>2019-09-01T07:00:58.000Z</time>
      </trkpt>
      <trkpt lat="49.21881" lon="6.59441">
        <ele>319</ele>
        <time>2019-09-01T07:01:08.000Z</time>
      </trkpt>
      <trkpt lat="49.21867" lon="6.59435">
        <ele>319</ele>
        <time>2019-09-01T07:01:18.000Z</time>
      </trkpt>
      <trkpt lat="49.21855" lon="6.59426">
        <ele>320</ele>
        <time>2019-09-01T07:01:28.000Z</time>
      </trkpt>
      <trkpt lat="49.21845" lon="6.59418">
        <ele>322</ele>
        <time>2019-09-01T07:01:38.000Z</time>
      </trkpt>
      <trkpt lat="49.21832" lon="6.5941">
        <ele>325</ele>
        <time>2019-09-01T07:01:48.000Z</time>
      </trkpt>
      <trkpt lat="49.21821" lon="6.59403">
        <ele>326</ele>
        <time>2019-09-01T07:01:58.000Z</time>
      </trkpt>
      <trkpt lat="49.21809" lon="6.59393">
        <ele>327</ele>
        <time>2019-09-01T07:02:08.000Z</time>
      </trkpt>
      <trkpt lat="49.21797" lon="6.59383">
        <ele>328</ele>
        <time>2019-09-01T07:02:18.000Z</time>
      </trkpt>
      <trkpt lat="49.21785" lon="6.59377">
        <ele>328</ele>
        <time>2019-09-01T07:02:28.000Z</time>
      </trkpt>
      <trkpt lat="49.21775" lon="6.59366">
        <ele>329</ele>
        <time>2019-09-01T07:02:38.000Z</time>
      </trkpt>
      <trkpt lat="49.21767" lon="6.5935">
        <ele>330</ele>
        <time>2019-09-01T07:02:48.000Z</time>
      </trkpt>
      <trkpt lat="49.2176" lon="6.59332">
        <ele>333</ele>
        <time>2019-09-01T07:02:58.000Z</time>
      </trkpt>
      <trkpt lat="49.21754" lon="6.59314">
        <ele>333</ele>
        <time>2019-09-01T07:03:08.000Z</time>
      </trkpt>
      <trkpt lat="49.21748" lon="6.59295">
        <ele>335</ele>
        <time>2019-09-01T07:03:18.000Z</time>
      </trkpt>
      <trkpt lat="49.21743" lon="6.59276">
        <ele>336</ele>
        <time>2019-09-01T07:03:28.000Z</time>
      </trkpt>
      <trkpt lat="49.21736" lon="6.59257">
        <ele>337</ele>
        <time>2019-09-01T07:03:38.000Z</time>
      </trkpt>
      <trkpt lat="49.21727" lon="6.59239">
        <ele>339</ele>
        <time>2019-09-01T07:03:48.000Z</time>
      </trkpt>
      <trkpt lat="49.2172" lon="6.59221">
        <ele>339</ele>
        <time>2019-09-01T07:03:58.000Z</time>
      </trkpt>
      <trkpt lat="49.21712" lon="6.59203">
        <ele>339</ele>
        <time>2019-09-01T07:04:08.000Z</time>
      </trkpt>
      <trkpt lat="49.21704" lon="6.59185">
        <ele>340</ele>
        <time>2019-09-01T07:04:18.000Z</time>
      </trkpt>
      <trkpt lat="49.21696" lon="6.59167">
        <ele>340</ele>
        <time>2019-09-01T07:04:28.000Z</time>
      </trkpt>
      <trkpt lat="49.2169" lon="6.5915">
        <ele>342</ele>
        <time>2019-09-01T07:04:38.000Z</time>
      </trkpt>
      <trkpt lat="49.21683" lon="6.59131">
        <ele>342</ele>
        <time>2019-09-01T07:04:48.000Z</time>
      </trkpt>
      <trkpt lat="49.21676" lon="6.59113">
        <ele>342</ele>
        <time>2019-09-01T07:04:58.000Z</time>
      </trkpt>
      <trkpt lat="49.21671" lon="6.59093">
        <ele>343</ele>
        <time>2019-09-01T07:05:08.000Z</time>
      </trkpt>
      <trkpt lat="49.21666" lon="6.59073">
        <ele>343</ele>
        <time>2019-09-01T07:05:18.000Z</time>
      </trkpt>
      <trkpt lat="49.21663" lon="6.59056">
        <ele>342</ele>
        <time>2019-09-01T07:05:28.000Z</time>
      </trkpt>
      <trkpt lat="49.21656" lon="6.59038">
        <ele>342</ele>
        <time>2019-09-01T07:05:38.000Z</time>
      </trkpt>
      <trkpt lat="49.21649" lon="6.59018">
        <ele>342</ele>
        <time>2019-09-01T07:05:48.000Z</time>
      </trkpt>
      <trkpt lat="49.21642" lon="6.58997">
        <ele>342</ele>
        <time>2019-09-01T07:05:58.000Z</time>
      </trkpt>
      <trkpt lat="49.21636" lon="6.58978">
        <ele>342</ele>
        <time>2019-09-01T07:06:08.000Z</time>
      </trkpt>
      <trkpt lat="49.2163" lon="6.5896">
        <ele>342</ele>
        <time>2019-09-01T07:06:18.000Z</time>
      </trkpt>
      <trkpt lat="49.21625" lon="6.5894">
        <ele>342</ele>
        <time>2019-09-01T07:06:28.000Z</time>
      </trkpt>
      <trkpt lat="49.21619" lon="6.5892">
        <ele>342</ele>
        <time>2019-09-01T07:06:38.000Z</time>
      </trkpt>
      <trkpt lat="49.21613" lon="6.58901">
        <ele>343</ele>
        <time>2019-09-01T07:06:48.000Z</time>
      </trkpt>
      <trkpt lat="49.21605" lon="6.58878">
        <ele>343</ele>
        <time>2019-09-01T07:06:58.000Z</time>
      </trkpt>
      <trkpt lat="49.21598" lon="6.58858">
        <ele>343</ele>
        <time>2019-09-01T07:07:08.000Z</time>
      </trkpt>
      <trkpt lat="49.21592" lon="6.58842">
        <ele>343</ele>
        <time>2019-09-01T07:07:18.000Z</time>
      </trkpt>
      <trkpt lat="49.21584" lon="6.58821">
        <ele>343</ele>
        <time>2019-09-01T07:07:28.000Z</time>
      </trkpt>
      <trkpt lat="49.21577" lon="6.58801">
        <ele>343</ele>
        <time>2019-09-01T07:07:38.000Z</time>
      </trkpt>
      <trkpt lat="49.2157" lon="6.58781">
        <ele>343</ele>
        <time>2019-09-01T07:07:48.000Z</time>
      </trkpt>
      <trkpt lat="49.21563" lon="6.58762">
        <ele>343</ele>
        <time>2019-09-01T07:07:58.000Z</time>
      </trkpt>
      <trkpt lat="49.21557" lon="6.58742">
        <ele>344</ele>
        <time>2019-09-01T07:08:08.000Z</time>
      </trkpt>
      <trkpt lat="49.2156" lon="6.5872">
        <ele>344</ele>
        <time>2019-09-01T07:08:18.000Z</time>
      </trkpt>
      <trkpt lat="49.21569" lon="6.58712">
        <ele>344</ele>
        <time>2019-09-01T07:08:28.000Z</time>
      </trkpt>
      <trkpt lat="49.21579" lon="6.58702">
        <ele>345</ele>
        <time>2019-09-01T07:08:38.000Z</time>
      </trkpt>
      <trkpt lat="49.21591" lon="6.5869">
        <ele>345</ele>
        <time>2019-09-01T07:08:48.000Z</time>
      </trkpt>
      <trkpt lat="49.21605" lon="6.58678">
        <ele>345</ele>
        <time>2019-09-01T07:08:58.000Z</time>
      </trkpt>
      <trkpt lat="49.21619" lon="6.58669">
        <ele>344</ele>
        <time>2019-09-01T07:09:08.000Z</time>
      </trkpt>
      <trkpt lat="49.21632" lon="6.58658">
        <ele>343</ele>
        <time>2019-09-01T07:09:18.000Z</time>
      </trkpt>
      <trkpt lat="49.21645" lon="6.58649">
        <ele>343</ele>
        <time>2019-09-01T07:09:28.000Z</time>
      </trkpt>
      <trkpt lat="49.21657" lon="6.58641">
        <ele>343</ele>
        <time>2019-09-01T07:09:38.000Z</time>
      </trkpt>
      <trkpt lat="49.2167" lon="6.58632">
        <ele>340</ele>
        <time>2019-09-01T07:09:48.000Z</time>
      </trkpt>
      <trkpt lat="49.21684" lon="6.58624">
        <ele>339</ele>
        <time>2019-09-01T07:09:58.000Z</time>
      </trkpt>
      <trkpt lat="49.21696" lon="6.58615">
        <ele>339</ele>
        <time>2019-09-01T07:10:08.000Z</time>
      </trkpt>
      <trkpt lat="49.21713" lon="6.58605">
        <ele>338</ele>
        <time>2019-09-01T07:10:18.000Z</time>
      </trkpt>
      <trkpt lat="49.21726" lon="6.58596">
        <ele>337</ele>
        <time>2019-09-01T07:10:28.000Z</time>
      </trkpt>
      <trkpt lat="49.21739" lon="6.58585">
        <ele>336</ele>
        <time>2019-09-01T07:10:38.000Z</time>
      </trkpt>
      <trkpt lat="49.21753" lon="6.58574">
        <ele>333</ele>
        <time>2019-09-01T07:10:48.000Z</time>
      </trkpt>
      <trkpt lat="49.21766" lon="6.58562">
        <ele>333</ele>
        <time>2019-09-01T07:10:58.000Z</time>
      </trkpt>
      <trkpt lat="49.2178" lon="6.58553">
        <ele>332</ele>
        <time>2019-09-01T07:11:08.000Z</time>
      </trkpt>
      <trkpt lat="49.21795" lon="6.58542">
        <ele>332</ele>
        <time>2019-09-01T07:11:18.000Z</time>
      </trkpt>
      <trkpt lat="49.21809" lon="6.58531">
        <ele>332</ele>
        <time>2019-09-01T07:11:28.000Z</time>
      </trkpt>
      <trkpt lat="49.21824" lon="6.58517">
        <ele>331</ele>
        <time>2019-09-01T07:11:38.000Z</time>
      </trkpt>
      <trkpt lat="49.21838" lon="6.58508">
        <ele>330</ele>
        <time>2019-09-01T07:11:48.000Z</time>
      </trkpt>
      <trkpt lat="49.21851" lon="6.585">
        <ele>329</ele>
        <time>2019-09-01T07:11:58.000Z</time>
      </trkpt>
      <trkpt lat="49.21864" lon="6.58492">
        <ele>328</ele>
        <time>2019-09-01T07:12:08.000Z</time>
      </trkpt>
      <trkpt lat="49.21877" lon="6.58485">
        <ele>328</ele>
        <time>2019-09-01T07:12:18.000Z</time>
      </trkpt>
      <trkpt lat="49.21891" lon="6.58474">
        <ele>327</ele>
        <time>2019-09-01T07:12:28.000Z</time>
      </trkpt>
      <trkpt lat="49.21907" lon="6.58464">
        <ele>327</ele>
        <time>2019-09-01T07:12:38.000Z</time>
      </trkpt>
      <trkpt lat="49.21921" lon="6.58452">
        <ele>325</ele>
        <time>2019-09-01T07:12:48.000Z</time>
      </trkpt>
      <trkpt lat="49.21939" lon="6.58443">
        <ele>325</ele>
        <time>2019-09-01T07:12:58.000Z</time>
      </trkpt>
      <trkpt lat="49.21954" lon="6.58442">
        <ele>324</ele>
        <time>2019-09-01T07:13:08.000Z</time>
      </trkpt>
      <trkpt lat="49.21968" lon="6.58456">
        <ele>324</ele>
        <time>2019-09-01T07:13:18.000Z</time>
      </trkpt>
      <trkpt lat="49.21976" lon="6.58473">
        <ele>324</ele>
        <time>2019-09-01T07:13:28.000Z</time>
      </trkpt>
      <trkpt lat="49.21986" lon="6.58491">
        <ele>324</ele>
        <time>2019-09-01T07:13:38.000Z</time>
      </trkpt>
      <trkpt lat="49.21998" lon="6.58503">
        <ele>323</ele>
        <time>2019-09-01T07:13:48.000Z</time>
      </trkpt>
      <trkpt lat="49.22011" lon="6.58498">
        <ele>322</ele>
        <time>2019-09-01T07:13:58.000Z</time>
      </trkpt>
      <trkpt lat="49.22024" lon="6.5849">
        <ele>321</ele>
        <time>2019-09-01T07:14:08.000Z</time>
      </trkpt>
      <trkpt lat="49.22037" lon="6.58483">
        <ele>321</ele>
        <time>2019-09-01T07:14:18.000Z</time>
      </trkpt>
      <trkpt lat="49.22051" lon="6.58474">
        <ele>320</ele>
        <time>2019-09-01T07:14:28.000Z</time>
      </trkpt>
      <trkpt lat="49.22065" lon="6.58465">
        <ele>320</ele>
        <time>2019-09-01T07:14:38.000Z</time>
      </trkpt>
      <trkpt lat="49.22079" lon="6.58457">
        <ele>320</ele>
        <time>2019-09-01T07:14:48.000Z</time>
      </trkpt>
      <trkpt lat="49.22092" lon="6.58448">
        <ele>317</ele>
        <time>2019-09-01T07:14:58.000Z</time>
      </trkpt>
      <trkpt lat="49.22105" lon="6.58435">
        <ele>317</ele>
        <time>2019-09-01T07:15:08.000Z</time>
      </trkpt>
      <trkpt lat="49.22117" lon="6.58422">
        <ele>317</ele>
        <time>2019-09-01T07:15:18.000Z</time>
      </trkpt>
      <trkpt lat="49.22132" lon="6.58411">
        <ele>317</ele>
        <time>2019-09-01T07:15:28.000Z</time>
      </trkpt>
      <trkpt lat="49.22147" lon="6.58404">
        <ele>317</ele>
        <time>2019-09-01T07:15:38.000Z</time>
      </trkpt>
      <trkpt lat="49.22161" lon="6.58416">
        <ele>316</ele>
        <time>2019-09-01T07:15:48.000Z</time>
      </trkpt>
      <trkpt lat="49.22173" lon="6.5843">
        <ele>315</ele>
        <time>2019-09-01T07:15:58.000Z</time>
      </trkpt>
      <trkpt lat="49.22185" lon="6.58444">
        <ele>315</ele>
        <time>2019-09-01T07:16:08.000Z</time>
      </trkpt>
      <trkpt lat="49.22197" lon="6.5846">
        <ele>315</ele>
        <time>2019-09-01T07:16:18.000Z</time>
      </trkpt>
      <trkpt lat="49.22209" lon="6.58474">
        <ele>314</ele>
        <time>2019-09-01T07:16:28.000Z</time>
      </trkpt>
      <trkpt lat="49.2222" lon="6.58488">
        <ele>314</ele>
        <time>2019-09-01T07:16:38.000Z</time>
      </trkpt>
      <trkpt lat="49.22233" lon="6.58499">
        <ele>313</ele>
        <time>2019-09-01T07:16:48.000Z</time>
      </trkpt>
      <trkpt lat="49.22246" lon="6.58512">
        <ele>313</ele>
        <time>2019-09-01T07:16:58.000Z</time>
      </trkpt>
      <trkpt lat="49.22258" lon="6.58529">
        <ele>313</ele>
        <time>2019-09-01T07:17:08.000Z</time>
      </trkpt>
      <trkpt lat="49.22269" lon="6.58543">
        <ele>313</ele>
        <time>2019-09-01T07:17:18.000Z</time>
      </trkpt>
      <trkpt lat="49.2228" lon="6.58555">
        <ele>313</ele>
        <time>2019-09-01T07:17:28.000Z</time>
      </trkpt>
      <trkpt lat="49.22293" lon="6.58574">
        <ele>313</ele>
        <time>2019-09-01T07:17:38.000Z</time>
      </trkpt>
      <trkpt lat="49.22307" lon="6.58589">
        <ele>312</ele>
        <time>2019-09-01T07:17:48.000Z</time>
      </trkpt>
      <trkpt lat="49.22318" lon="6.58609">
        <ele>312</ele>
        <time>2019-09-01T07:17:58.000Z</time>
      </trkpt>
      <trkpt lat="49.22327" lon="6.58627">
        <ele>311</ele>
        <time>2019-09-01T07:18:08.000Z</time>
      </trkpt>
      <trkpt lat="49.22338" lon="6.58639">
        <ele>309</ele>
        <time>2019-09-01T07:18:18.000Z</time>
      </trkpt>
      <trkpt lat="49.2235" lon="6.58652">
        <ele>308</ele>
        <time>2019-09-01T07:18:28.000Z</time>
      </trkpt>
      <trkpt lat="49.22363" lon="6.58666">
        <ele>308</ele>
        <time>2019-09-01T07:18:38.000Z</time>
      </trkpt>
      <trkpt lat="49.22377" lon="6.58679">
        <ele>305</ele>
        <time>2019-09-01T07:18:48.000Z</time>
      </trkpt>
      <trkpt lat="49.22389" lon="6.58693">
        <ele>304</ele>
        <time>2019-09-01T07:18:58.000Z</time>
      </trkpt>
      <trkpt lat="49.22406" lon="6.58702">
        <ele>303</ele>
        <time>2019-09-01T07:19:08.000Z</time>
      </trkpt>
      <trkpt lat="49.22422" lon="6.58708">
        <ele>300</ele>
        <time>2019-09-01T07:19:18.000Z</time>
      </trkpt>
      <trkpt lat="49.22437" lon="6.58715">
        <ele>299</ele>
        <time>2019-09-01T07:19:28.000Z</time>
      </trkpt>
      <trkpt lat="49.22451" lon="6.5872">
        <ele>298</ele>
        <time>2019-09-01T07:19:38.000Z</time>
      </trkpt>
      <trkpt lat="49.22466" lon="6.58722">
        <ele>298</ele>
        <time>2019-09-01T07:19:48.000Z</time>
      </trkpt>
      <trkpt lat="49.22482" lon="6.58725">
        <ele>297</ele>
        <time>2019-09-01T07:19:58.000Z</time>
      </trkpt>
      <trkpt lat="49.22497" lon="6.58727">
        <ele>296</ele>
        <time>2019-09-01T07:20:08.000Z</time>
      </trkpt>
      <trkpt lat="49.2251" lon="6.5873">
        <ele>295</ele>
        <time>2019-09-01T07:20:18.000Z</time>
      </trkpt>
      <trkpt lat="49.22522" lon="6.58731">
        <ele>295</ele>
        <time>2019-09-01T07:20:28.000Z</time>
      </trkpt>
      <trkpt lat="49.22536" lon="6.58737">
        <ele>295</ele>
        <time>2019-09-01T07:20:38.000Z</time>
      </trkpt>
      <trkpt lat="49.2255" lon="6.58738">
        <ele>295</ele>
        <time>2019-09-01T07:20:48.000Z</time>
      </trkpt>
      <trkpt lat="49.22563" lon="6.58748">
        <ele>295</ele>
        <time>2019-09-01T07:20:58.000Z</time>
      </trkpt>
      <trkpt lat="49.22575" lon="6.58755">
        <ele>294</ele>
        <time>2019-09-01T07:21:08.000Z</time>
      </trkpt>
      <trkpt lat="49.22588" lon="6.58763">
        <ele>297</ele>
        <time>2019-09-01T07:21:18.000Z</time>
      </trkpt>
      <trkpt lat="49.22601" lon="6.58772">
        <ele>299</ele>
        <time>2019-09-01T07:21:28.000Z</time>
      </trkpt>
      <trkpt lat="49.22611" lon="6.58787">
        <ele>300</ele>
        <time>2019-09-01T07:21:38.000Z</time>
      </trkpt>
      <trkpt lat="49.22619" lon="6.588">
        <ele>300</ele>
        <time>2019-09-01T07:21:48.000Z</time>
      </trkpt>
      <trkpt lat="49.22623" lon="6.58807">
        <ele>301</ele>
        <time>2019-09-01T07:21:58.000Z</time>
      </trkpt>
      <trkpt lat="49.22637" lon="6.58822">
        <ele>302</ele>
        <time>2019-09-01T07:22:08.000Z</time>
      </trkpt>
      <trkpt lat="49.22647" lon="6.58837">
        <ele>305</ele>
        <time>2019-09-01T07:22:18.000Z</time>
      </trkpt>
      <trkpt lat="49.22656" lon="6.58855">
        <ele>305</ele>
        <time>2019-09-01T07:22:28.000Z</time>
      </trkpt>
      <trkpt lat="49.22663" lon="6.5888">
        <ele>306</ele>
        <time>2019-09-01T07:22:38.000Z</time>
      </trkpt>
      <trkpt lat="49.22667" lon="6.58902">
        <ele>311</ele>
        <time>2019-09-01T07:22:48.000Z</time>
      </trkpt>
      <trkpt lat="49.2267" lon="6.5892">
        <ele>312</ele>
        <time>2019-09-01T07:22:58.000Z</time>
      </trkpt>
      <trkpt lat="49.22672" lon="6.58942">
        <ele>312</ele>
        <time>2019-09-01T07:23:08.000Z</time>
      </trkpt>
      <trkpt lat="49.22675" lon="6.5896">
        <ele>313</ele>
        <time>2019-09-01T07:23:18.000Z</time>
      </trkpt>
      <trkpt lat="49.22677" lon="6.58979">
        <ele>314</ele>
        <time>2019-09-01T07:23:28.000Z</time>
      </trkpt>
      <trkpt lat="49.22674" lon="6.58993">
        <ele>315</ele>
        <time>2019-09-01T07:23:38.000Z</time>
      </trkpt>
      <trkpt lat="49.22661" lon="6.59007">
        <ele>316</ele>
        <time>2019-09-01T07:23:48.000Z</time>
      </trkpt>
      <trkpt lat="49.22658" lon="6.59022">
        <ele>316</ele>
        <time>2019-09-01T07:23:58.000Z</time>
      </trkpt>
      <trkpt lat="49.22656" lon="6.59043">
        <ele>316</ele>
        <time>2019-09-01T07:24:08.000Z</time>
      </trkpt>
      <trkpt lat="49.22659" lon="6.5906">
        <ele>317</ele>
        <time>2019-09-01T07:24:18.000Z</time>
      </trkpt>
      <trkpt lat="49.22666" lon="6.59072">
        <ele>318</ele>
        <time>2019-09-01T07:24:28.000Z</time>
      </trkpt>
      <trkpt lat="49.2267" lon="6.59097">
        <ele>319</ele>
        <time>2019-09-01T07:24:38.000Z</time>
      </trkpt>
      <trkpt lat="49.2268" lon="6.59115">
        <ele>319</ele>
        <time>2019-09-01T07:24:48.000Z</time>
      </trkpt>
      <trkpt lat="49.22687" lon="6.59136">
        <ele>319</ele>
        <time>2019-09-01T07:24:58.000Z</time>
      </trkpt>
      <trkpt lat="49.22685" lon="6.59156">
        <ele>320</ele>
        <time>2019-09-01T07:25:08.000Z</time>
      </trkpt>
      <trkpt lat="49.22685" lon="6.59184">
        <ele>322</ele>
        <time>2019-09-01T07:25:18.000Z</time>
      </trkpt>
      <trkpt lat="49.22686" lon="6.59212">
        <ele>322</ele>
        <time>2019-09-01T07:25:28.000Z</time>
      </trkpt>
      <trkpt lat="49.22687" lon="6.59234">
        <ele>323</ele>
        <time>2019-09-01T07:25:38.000Z</time>
      </trkpt>
      <trkpt lat="49.22691" lon="6.59249">
        <ele>323</ele>
        <time>2019-09-01T07:25:48.000Z</time>
      </trkpt>
      <trkpt lat="49.22687" lon="6.59261">
        <ele>322</ele>
        <time>2019-09-01T07:25:58.000Z</time>
      </trkpt>
      <trkpt lat="49.22697" lon="6.59278">
        <ele>321</ele>
        <time>2019-09-01T07:26:08.000Z</time>
      </trkpt>
      <trkpt lat="49.22713" lon="6.59278">
        <ele>321</ele>
        <time>2019-09-01T07:26:18.000Z</time>
      </trkpt>
      <trkpt lat="49.22725" lon="6.59265">
        <ele>321</ele>
        <time>2019-09-01T07:26:28.000Z</time>
      </trkpt>
      <trkpt lat="49.22736" lon="6.59254">
        <ele>321</ele>
        <time>2019-09-01T07:26:38.000Z</time>
      </trkpt>
      <trkpt lat="49.22746" lon="6.5924">
        <ele>321</ele>
        <time>2019-09-01T07:26:48.000Z</time>
      </trkpt>
      <trkpt lat="49.22755" lon="6.59216">
        <ele>319</ele>
        <time>2019-09-01T07:26:58.000Z</time>
      </trkpt>
      <trkpt lat="49.22763" lon="6.59203">
        <ele>319</ele>
        <time>2019-09-01T07:27:08.000Z</time>
      </trkpt>
      <trkpt lat="49.22772" lon="6.5919">
        <ele>319</ele>
        <time>2019-09-01T07:27:18.000Z</time>
      </trkpt>
      <trkpt lat="49.22784" lon="6.59175">
        <ele>318</ele>
        <time>2019-09-01T07:27:28.000Z</time>
      </trkpt>
      <trkpt lat="49.22796" lon="6.59159">
        <ele>317</ele>
        <time>2019-09-01T07:27:38.000Z</time>
      </trkpt>
      <trkpt lat="49.22809" lon="6.59148">
        <ele>317</ele>
        <time>2019-09-01T07:27:48.000Z</time>
      </trkpt>
      <trkpt lat="49.2282" lon="6.59129">
        <ele>317</ele>
        <time>2019-09-01T07:27:58.000Z</time>
      </trkpt>
      <trkpt lat="49.22832" lon="6.59115">
        <ele>316</ele>
        <time>2019-09-01T07:28:08.000Z</time>
      </trkpt>
      <trkpt lat="49.22844" lon="6.59105">
        <ele>318</ele>
        <time>2019-09-01T07:28:18.000Z</time>
      </trkpt>
      <trkpt lat="49.22856" lon="6.59092">
        <ele>318</ele>
        <time>2019-09-01T07:28:28.000Z</time>
      </trkpt>
      <trkpt lat="49.22864" lon="6.5908">
        <ele>318</ele>
        <time>2019-09-01T07:28:38.000Z</time>
      </trkpt>
      <trkpt lat="49.22875" lon="6.59066">
        <ele>318</ele>
        <time>2019-09-01T07:28:48.000Z</time>
      </trkpt>
      <trkpt lat="49.22885" lon="6.59056">
        <ele>318</ele>
        <time>2019-09-01T07:28:58.000Z</time>
      </trkpt>
      <trkpt lat="49.22893" lon="6.59049">
        <ele>318</ele>
        <time>2019-09-01T07:29:31.000Z</time>
      </trkpt>
      <trkpt lat="49.22897" lon="6.59044">
        <ele>318</ele>
        <time>2019-09-01T07:31:54.000Z</time>
      </trkpt>
      <trkpt lat="49.22898" lon="6.59047">
        <ele>318</ele>
        <time>2019-09-01T07:32:04.000Z</time>
      </trkpt>
      <trkpt lat="49.22899" lon="6.59047">
        <ele>318</ele>
        <time>2019-09-01T07:32:34.000Z</time>
      </trkpt>
      <trkpt lat="49.22901" lon="6.59051">
        <ele>318</ele>
        <time>2019-09-01T07:32:44.000Z</time>
      </trkpt>
      <trkpt lat="49.22894" lon="6.59047">
        <ele>318</ele>
        <time>2019-09-01T07:33:48.000Z</time>
      </trkpt>
      <trkpt lat="49.22888" lon="6.5904">
        <ele>318</ele>
        <time>2019-09-01T07:33:58.000Z</time>
      </trkpt>
      <trkpt lat="49.22881" lon="6.59029">
        <ele>318</ele>
        <time>2019-09-01T07:34:08.000Z</time>
      </trkpt>
      <trkpt lat="49.22871" lon="6.59013">
        <ele>318</ele>
        <time>2019-09-01T07:34:18.000Z</time>
      </trkpt>
      <trkpt lat="49.22863" lon="6.58992">
        <ele>318</ele>
        <time>2019-09-01T07:34:28.000Z</time>
      </trkpt>
      <trkpt lat="49.22855" lon="6.58967">
        <ele>318</ele>
        <time>2019-09-01T07:34:38.000Z</time>
      </trkpt>
      <trkpt lat="49.22847" lon="6.58945">
        <ele>318</ele>
        <time>2019-09-01T07:34:48.000Z</time>
      </trkpt>
      <trkpt lat="49.22842" lon="6.58927">
        <ele>317</ele>
        <time>2019-09-01T07:34:58.000Z</time>
      </trkpt>
      <trkpt lat="49.22838" lon="6.58908">
        <ele>318</ele>
        <time>2019-09-01T07:35:08.000Z</time>
      </trkpt>
      <trkpt lat="49.22835" lon="6.58885">
        <ele>319</ele>
        <time>2019-09-01T07:35:18.000Z</time>
      </trkpt>
      <trkpt lat="49.22832" lon="6.58866">
        <ele>316</ele>
        <time>2019-09-01T07:35:28.000Z</time>
      </trkpt>
      <trkpt lat="49.2283" lon="6.58842">
        <ele>318</ele>
        <time>2019-09-01T07:35:38.000Z</time>
      </trkpt>
      <trkpt lat="49.22825" lon="6.58821">
        <ele>318</ele>
        <time>2019-09-01T07:35:48.000Z</time>
      </trkpt>
      <trkpt lat="49.2282" lon="6.58799">
        <ele>317</ele>
        <time>2019-09-01T07:35:58.000Z</time>
      </trkpt>
      <trkpt lat="49.22819" lon="6.58775">
        <ele>317</ele>
        <time>2019-09-01T07:36:08.000Z</time>
      </trkpt>
      <trkpt lat="49.22813" lon="6.58753">
        <ele>318</ele>
        <time>2019-09-01T07:36:18.000Z</time>
      </trkpt>
      <trkpt lat="49.22807" lon="6.58728">
        <ele>317</ele>
        <time>2019-09-01T07:36:28.000Z</time>
      </trkpt>
      <trkpt lat="49.22805" lon="6.58706">
        <ele>316</ele>
        <time>2019-09-01T07:36:38.000Z</time>
      </trkpt>
      <trkpt lat="49.22802" lon="6.58679">
        <ele>316</ele>
        <time>2019-09-01T07:36:48.000Z</time>
      </trkpt>
      <trkpt lat="49.22799" lon="6.58654">
        <ele>316</ele>
        <time>2019-09-01T07:36:58.000Z</time>
      </trkpt>
      <trkpt lat="49.22797" lon="6.58631">
        <ele>316</ele>
        <time>2019-09-01T07:37:08.000Z</time>
      </trkpt>
      <trkpt lat="49.22798" lon="6.58607">
        <ele>316</ele>
        <time>2019-09-01T07:37:18.000Z</time>
      </trkpt>
      <trkpt lat="49.228" lon="6.58585">
        <ele>317</ele>
        <time>2019-09-01T07:37:28.000Z</time>
      </trkpt>
      <trkpt lat="49.22804" lon="6.58563">
        <ele>317</ele>
        <time>2019-09-01T07:37:38.000Z</time>
      </trkpt>
      <trkpt lat="49.22804" lon="6.58543">
        <ele>316</ele>
        <time>2019-09-01T07:37:48.000Z</time>
      </trkpt>
      <trkpt lat="49.22803" lon="6.58521">
        <ele>316</ele>
        <time>2019-09-01T07:37:58.000Z</time>
      </trkpt>
      <trkpt lat="49.22799" lon="6.58498">
        <ele>317</ele>
        <time>2019-09-01T07:38:08.000Z</time>
      </trkpt>
      <trkpt lat="49.22796" lon="6.58473">
        <ele>317</ele>
        <time>2019-09-01T07:38:18.000Z</time>
      </trkpt>
      <trkpt lat="49.22796" lon="6.58454">
        <ele>317</ele>
        <time>2019-09-01T07:38:28.000Z</time>
      </trkpt>
      <trkpt lat="49.22794" lon="6.58433">
        <ele>317</ele>
        <time>2019-09-01T07:38:38.000Z</time>
      </trkpt>
      <trkpt lat="49.22793" lon="6.5841">
        <ele>319</ele>
        <time>2019-09-01T07:38:48.000Z</time>
      </trkpt>
      <trkpt lat="49.22791" lon="6.58385">
        <ele>319</ele>
        <time>2019-09-01T07:38:58.000Z</time>
      </trkpt>
      <trkpt lat="49.22794" lon="6.58369">
        <ele>319</ele>
        <time>2019-09-01T07:39:08.000Z</time>
      </trkpt>
      <trkpt lat="49.22801" lon="6.58364">
        <ele>320</ele>
        <time>2019-09-01T07:39:18.000Z</time>
      </trkpt>
      <trkpt lat="49.2281" lon="6.58359">
        <ele>320</ele>
        <time>2019-09-01T07:39:28.000Z</time>
      </trkpt>
      <trkpt lat="49.22817" lon="6.58353">
        <ele>321</ele>
        <time>2019-09-01T07:39:38.000Z</time>
      </trkpt>
      <trkpt lat="49.22836" lon="6.58348">
        <ele>325</ele>
        <time>2019-09-01T07:39:48.000Z</time>
      </trkpt>
      <trkpt lat="49.22848" lon="6.5834">
        <ele>325</ele>
        <time>2019-09-01T07:39:58.000Z</time>
      </trkpt>
      <trkpt lat="49.22867" lon="6.58326">
        <ele>325</ele>
        <time>2019-09-01T07:40:08.000Z</time>
      </trkpt>
      <trkpt lat="49.22876" lon="6.58307">
        <ele>325</ele>
        <time>2019-09-01T07:40:18.000Z</time>
      </trkpt>
      <trkpt lat="49.22885" lon="6.58294">
        <ele>325</ele>
        <time>2019-09-01T07:40:28.000Z</time>
      </trkpt>
      <trkpt lat="49.22887" lon="6.58274">
        <ele>324</ele>
        <time>2019-09-01T07:40:38.000Z</time>
      </trkpt>
      <trkpt lat="49.22896" lon="6.58249">
        <ele>322</ele>
        <time>2019-09-01T07:40:48.000Z</time>
      </trkpt>
      <trkpt lat="49.22903" lon="6.58234">
        <ele>322</ele>
        <time>2019-09-01T07:40:58.000Z</time>
      </trkpt>
      <trkpt lat="49.22912" lon="6.58219">
        <ele>321</ele>
        <time>2019-09-01T07:41:08.000Z</time>
      </trkpt>
      <trkpt lat="49.22917" lon="6.58202">
        <ele>325</ele>
        <time>2019-09-01T07:41:18.000Z</time>
      </trkpt>
      <trkpt lat="49.22928" lon="6.58187">
        <ele>325</ele>
        <time>2019-09-01T07:41:28.000Z</time>
      </trkpt>
      <trkpt lat="49.22932" lon="6.58173">
        <ele>324</ele>
        <time>2019-09-01T07:41:38.000Z</time>
      </trkpt>
      <trkpt lat="49.22939" lon="6.58159">
        <ele>320</ele>
        <time>2019-09-01T07:41:48.000Z</time>
      </trkpt>
      <trkpt lat="49.22953" lon="6.58146">
        <ele>320</ele>
        <time>2019-09-01T07:41:58.000Z</time>
      </trkpt>
      <trkpt lat="49.22974" lon="6.58134">
        <ele>320</ele>
        <time>2019-09-01T07:42:08.000Z</time>
      </trkpt>
      <trkpt lat="49.22983" lon="6.58124">
        <ele>320</ele>
        <time>2019-09-01T07:42:18.000Z</time>
      </trkpt>
      <trkpt lat="49.22998" lon="6.58111">
        <ele>319</ele>
        <time>2019-09-01T07:42:28.000Z</time>
      </trkpt>
      <trkpt lat="49.23007" lon="6.581">
        <ele>322</ele>
        <time>2019-09-01T07:42:38.000Z</time>
      </trkpt>
      <trkpt lat="49.23017" lon="6.58087">
        <ele>322</ele>
        <time>2019-09-01T07:42:48.000Z</time>
      </trkpt>
      <trkpt lat="49.23021" lon="6.58069">
        <ele>319</ele>
        <time>2019-09-01T07:42:58.000Z</time>
      </trkpt>
      <trkpt lat="49.2303" lon="6.58058">
        <ele>319</ele>
        <time>2019-09-01T07:43:08.000Z</time>
      </trkpt>
      <trkpt lat="49.23049" lon="6.58044">
        <ele>319</ele>
        <time>2019-09-01T07:43:18.000Z</time>
      </trkpt>
      <trkpt lat="49.23054" lon="6.58022">
        <ele>319</ele>
        <time>2019-09-01T07:43:28.000Z</time>
      </trkpt>
      <trkpt lat="49.23063" lon="6.58006">
        <ele>319</ele>
        <time>2019-09-01T07:43:38.000Z</time>
      </trkpt>
      <trkpt lat="49.23073" lon="6.57992">
        <ele>316</ele>
        <time>2019-09-01T07:43:48.000Z</time>
      </trkpt>
      <trkpt lat="49.23079" lon="6.57978">
        <ele>315</ele>
        <time>2019-09-01T07:43:58.000Z</time>
      </trkpt>
      <trkpt lat="49.23088" lon="6.57966">
        <ele>318</ele>
        <time>2019-09-01T07:44:08.000Z</time>
      </trkpt>
      <trkpt lat="49.23099" lon="6.57955">
        <ele>317</ele>
        <time>2019-09-01T07:44:18.000Z</time>
      </trkpt>
      <trkpt lat="49.23118" lon="6.57947">
        <ele>317</ele>
        <time>2019-09-01T07:44:28.000Z</time>
      </trkpt>
      <trkpt lat="49.23132" lon="6.57942">
        <ele>317</ele>
        <time>2019-09-01T07:44:38.000Z</time>
      </trkpt>
      <trkpt lat="49.23135" lon="6.57929">
        <ele>317</ele>
        <time>2019-09-01T07:44:48.000Z</time>
      </trkpt>
      <trkpt lat="49.23159" lon="6.57921">
        <ele>317</ele>
        <time>2019-09-01T07:44:58.000Z</time>
      </trkpt>
      <trkpt lat="49.2317" lon="6.57914">
        <ele>317</ele>
        <time>2019-09-01T07:45:08.000Z</time>
      </trkpt>
      <trkpt lat="49.23182" lon="6.57902">
        <ele>316</ele>
        <time>2019-09-01T07:45:18.000Z</time>
      </trkpt>
      <trkpt lat="49.23195" lon="6.57887">
        <ele>316</ele>
        <time>2019-09-01T07:45:28.000Z</time>
      </trkpt>
      <trkpt lat="49.23203" lon="6.57876">
        <ele>316</ele>
        <time>2019-09-01T07:45:38.000Z</time>
      </trkpt>
      <trkpt lat="49.23213" lon="6.57861">
        <ele>315</ele>
        <time>2019-09-01T07:45:48.000Z</time>
      </trkpt>
      <trkpt lat="49.23232" lon="6.5785">
        <ele>315</ele>
        <time>2019-09-01T07:45:58.000Z</time>
      </trkpt>
      <trkpt lat="49.23245" lon="6.5784">
        <ele>314</ele>
        <time>2019-09-01T07:46:08.000Z</time>
      </trkpt>
      <trkpt lat="49.23263" lon="6.57831">
        <ele>313</ele>
        <time>2019-09-01T07:46:18.000Z</time>
      </trkpt>
      <trkpt lat="49.23276" lon="6.57842">
        <ele>314</ele>
        <time>2019-09-01T07:46:28.000Z</time>
      </trkpt>
      <trkpt lat="49.23287" lon="6.57853">
        <ele>314</ele>
        <time>2019-09-01T07:46:38.000Z</time>
      </trkpt>
      <trkpt lat="49.23295" lon="6.57866">
        <ele>314</ele>
        <time>2019-09-01T07:46:48.000Z</time>
      </trkpt>
      <trkpt lat="49.23307" lon="6.57883">
        <ele>314</ele>
        <time>2019-09-01T07:46:58.000Z</time>
      </trkpt>
      <trkpt lat="49.23317" lon="6.57895">
        <ele>314</ele>
        <time>2019-09-01T07:47:08.000Z</time>
      </trkpt>
      <trkpt lat="49.23325" lon="6.5791">
        <ele>314</ele>
        <time>2019-09-01T07:47:18.000Z</time>
      </trkpt>
      <trkpt lat="49.23337" lon="6.5792">
        <ele>314</ele>
        <time>2019-09-01T07:47:28.000Z</time>
      </trkpt>
      <trkpt lat="49.2335" lon="6.57928">
        <ele>314</ele>
        <time>2019-09-01T07:47:38.000Z</time>
      </trkpt>
      <trkpt lat="49.23362" lon="6.57938">
        <ele>313</ele>
        <time>2019-09-01T07:47:48.000Z</time>
      </trkpt>
      <trkpt lat="49.23372" lon="6.57938">
        <ele>313</ele>
        <time>2019-09-01T07:47:58.000Z</time>
      </trkpt>
      <trkpt lat="49.2338" lon="6.57933">
        <ele>313</ele>
        <time>2019-09-01T07:48:08.000Z</time>
      </trkpt>
      <trkpt lat="49.23388" lon="6.57917">
        <ele>312</ele>
        <time>2019-09-01T07:48:18.000Z</time>
      </trkpt>
      <trkpt lat="49.23402" lon="6.579">
        <ele>311</ele>
        <time>2019-09-01T07:48:28.000Z</time>
      </trkpt>
      <trkpt lat="49.23407" lon="6.57877">
        <ele>312</ele>
        <time>2019-09-01T07:48:38.000Z</time>
      </trkpt>
      <trkpt lat="49.23412" lon="6.57858">
        <ele>312</ele>
        <time>2019-09-01T07:48:48.000Z</time>
      </trkpt>
      <trkpt lat="49.23412" lon="6.57836">
        <ele>314</ele>
        <time>2019-09-01T07:48:58.000Z</time>
      </trkpt>
      <trkpt lat="49.23418" lon="6.57817">
        <ele>316</ele>
        <time>2019-09-01T07:49:08.000Z</time>
      </trkpt>
      <trkpt lat="49.23429" lon="6.57804">
        <ele>316</ele>
        <time>2019-09-01T07:49:18.000Z</time>
      </trkpt>
      <trkpt lat="49.23438" lon="6.5779">
        <ele>317</ele>
        <time>2019-09-01T07:49:28.000Z</time>
      </trkpt>
      <trkpt lat="49.23448" lon="6.57775">
        <ele>318</ele>
        <time>2019-09-01T07:49:38.000Z</time>
      </trkpt>
      <trkpt lat="49.23461" lon="6.57758">
        <ele>318</ele>
        <time>2019-09-01T07:49:48.000Z</time>
      </trkpt>
      <trkpt lat="49.23474" lon="6.57744">
        <ele>321</ele>
        <time>2019-09-01T07:49:58.000Z</time>
      </trkpt>
      <trkpt lat="49.23484" lon="6.5773">
        <ele>322</ele>
        <time>2019-09-01T07:50:08.000Z</time>
      </trkpt>
      <trkpt lat="49.23491" lon="6.57719">
        <ele>322</ele>
        <time>2019-09-01T07:50:18.000Z</time>
      </trkpt>
      <trkpt lat="49.23503" lon="6.5771">
        <ele>325</ele>
        <time>2019-09-01T07:50:28.000Z</time>
      </trkpt>
      <trkpt lat="49.23514" lon="6.57701">
        <ele>326</ele>
        <time>2019-09-01T07:50:38.000Z</time>
      </trkpt>
      <trkpt lat="49.23525" lon="6.5769">
        <ele>327</ele>
        <time>2019-09-01T07:50:48.000Z</time>
      </trkpt>
      <trkpt lat="49.23535" lon="6.57677">
        <ele>327</ele>
        <time>2019-09-01T07:50:58.000Z</time>
      </trkpt>
      <trkpt lat="49.23545" lon="6.57663">
        <ele>333</ele>
        <time>2019-09-01T07:51:08.000Z</time>
      </trkpt>
      <trkpt lat="49.23552" lon="6.57644">
        <ele>334</ele>
        <time>2019-09-01T07:51:18.000Z</time>
      </trkpt>
      <trkpt lat="49.23559" lon="6.57634">
        <ele>335</ele>
        <time>2019-09-01T07:51:28.000Z</time>
      </trkpt>
      <trkpt lat="49.23567" lon="6.5762">
        <ele>336</ele>
        <time>2019-09-01T07:51:38.000Z</time>
      </trkpt>
      <trkpt lat="49.23577" lon="6.57608">
        <ele>337</ele>
        <time>2019-09-01T07:51:48.000Z</time>
      </trkpt>
      <trkpt lat="49.23588" lon="6.576">
        <ele>340</ele>
        <time>2019-09-01T07:51:58.000Z</time>
      </trkpt>
      <trkpt lat="49.23607" lon="6.57595">
        <ele>340</ele>
        <time>2019-09-01T07:52:08.000Z</time>
      </trkpt>
      <trkpt lat="49.23619" lon="6.576">
        <ele>340</ele>
        <time>2019-09-01T07:52:18.000Z</time>
      </trkpt>
      <trkpt lat="49.23635" lon="6.57616">
        <ele>340</ele>
        <time>2019-09-01T07:52:28.000Z</time>
      </trkpt>
      <trkpt lat="49.23646" lon="6.57625">
        <ele>341</ele>
        <time>2019-09-01T07:52:38.000Z</time>
      </trkpt>
      <trkpt lat="49.23663" lon="6.57635">
        <ele>341</ele>
        <time>2019-09-01T07:52:48.000Z</time>
      </trkpt>
      <trkpt lat="49.23676" lon="6.57647">
        <ele>345</ele>
        <time>2019-09-01T07:52:58.000Z</time>
      </trkpt>
      <trkpt lat="49.23688" lon="6.5767">
        <ele>345</ele>
        <time>2019-09-01T07:53:08.000Z</time>
      </trkpt>
      <trkpt lat="49.23691" lon="6.57694">
        <ele>346</ele>
        <time>2019-09-01T07:53:18.000Z</time>
      </trkpt>
      <trkpt lat="49.23693" lon="6.57714">
        <ele>347</ele>
        <time>2019-09-01T07:53:28.000Z</time>
      </trkpt>
      <trkpt lat="49.23698" lon="6.57735">
        <ele>347</ele>
        <time>2019-09-01T07:53:38.000Z</time>
      </trkpt>
      <trkpt lat="49.23701" lon="6.57755">
        <ele>348</ele>
        <time>2019-09-01T07:53:48.000Z</time>
      </trkpt>
      <trkpt lat="49.23702" lon="6.57779">
        <ele>348</ele>
        <time>2019-09-01T07:53:58.000Z</time>
      </trkpt>
      <trkpt lat="49.23702" lon="6.57803">
        <ele>348</ele>
        <time>2019-09-01T07:54:08.000Z</time>
      </trkpt>
      <trkpt lat="49.237" lon="6.57827">
        <ele>348</ele>
        <time>2019-09-01T07:54:18.000Z</time>
      </trkpt>
      <trkpt lat="49.23698" lon="6.57848">
        <ele>348</ele>
        <time>2019-09-01T07:54:28.000Z</time>
      </trkpt>
      <trkpt lat="49.23698" lon="6.57867">
        <ele>348</ele>
        <time>2019-09-01T07:54:38.000Z</time>
      </trkpt>
      <trkpt lat="49.237" lon="6.5789">
        <ele>348</ele>
        <time>2019-09-01T07:54:48.000Z</time>
      </trkpt>
      <trkpt lat="49.23702" lon="6.57912">
        <ele>348</ele>
        <time>2019-09-01T07:54:58.000Z</time>
      </trkpt>
      <trkpt lat="49.23706" lon="6.5793">
        <ele>347</ele>
        <time>2019-09-01T07:55:08.000Z</time>
      </trkpt>
      <trkpt lat="49.23711" lon="6.57947">
        <ele>348</ele>
        <time>2019-09-01T07:55:18.000Z</time>
      </trkpt>
      <trkpt lat="49.23713" lon="6.57963">
        <ele>347</ele>
        <time>2019-09-01T07:55:28.000Z</time>
      </trkpt>
      <trkpt lat="49.23714" lon="6.57971">
        <ele>347</ele>
        <time>2019-09-01T07:55:45.000Z</time>
      </trkpt>
      <trkpt lat="49.23712" lon="6.57967">
        <ele>347</ele>
        <time>2019-09-01T07:56:04.000Z</time>
      </trkpt>
      <trkpt lat="49.23719" lon="6.5798">
        <ele>348</ele>
        <time>2019-09-01T07:56:14.000Z</time>
      </trkpt>
      <trkpt lat="49.23728" lon="6.57997">
        <ele>350</ele>
        <time>2019-09-01T07:56:24.000Z</time>
      </trkpt>
      <trkpt lat="49.23734" lon="6.58015">
        <ele>347</ele>
        <time>2019-09-01T07:56:34.000Z</time>
      </trkpt>
      <trkpt lat="49.2374" lon="6.58036">
        <ele>344</ele>
        <time>2019-09-01T07:56:44.000Z</time>
      </trkpt>
      <trkpt lat="49.23745" lon="6.58054">
        <ele>344</ele>
        <time>2019-09-01T07:56:54.000Z</time>
      </trkpt>
      <trkpt lat="49.23752" lon="6.58075">
        <ele>350</ele>
        <time>2019-09-01T07:57:04.000Z</time>
      </trkpt>
      <trkpt lat="49.2376" lon="6.58099">
        <ele>349</ele>
        <time>2019-09-01T07:57:14.000Z</time>
      </trkpt>
      <trkpt lat="49.23768" lon="6.58118">
        <ele>350</ele>
        <time>2019-09-01T07:57:24.000Z</time>
      </trkpt>
      <trkpt lat="49.23779" lon="6.58137">
        <ele>350</ele>
        <time>2019-09-01T07:57:34.000Z</time>
      </trkpt>
      <trkpt lat="49.23785" lon="6.5815">
        <ele>350</ele>
        <time>2019-09-01T07:57:44.000Z</time>
      </trkpt>
      <trkpt lat="49.23795" lon="6.58171">
        <ele>348</ele>
        <time>2019-09-01T07:57:54.000Z</time>
      </trkpt>
      <trkpt lat="49.23805" lon="6.58192">
        <ele>349</ele>
        <time>2019-09-01T07:58:04.000Z</time>
      </trkpt>
      <trkpt lat="49.23813" lon="6.5821">
        <ele>348</ele>
        <time>2019-09-01T07:58:14.000Z</time>
      </trkpt>
      <trkpt lat="49.23817" lon="6.58233">
        <ele>348</ele>
        <time>2019-09-01T07:58:24.000Z</time>
      </trkpt>
      <trkpt lat="49.23828" lon="6.58258">
        <ele>346</ele>
        <time>2019-09-01T07:58:34.000Z</time>
      </trkpt>
      <trkpt lat="49.2384" lon="6.58273">
        <ele>348</ele>
        <time>2019-09-01T07:58:44.000Z</time>
      </trkpt>
      <trkpt lat="49.23854" lon="6.58281">
        <ele>348</ele>
        <time>2019-09-01T07:58:54.000Z</time>
      </trkpt>
      <trkpt lat="49.23866" lon="6.5829">
        <ele>347</ele>
        <time>2019-09-01T07:59:04.000Z</time>
      </trkpt>
      <trkpt lat="49.23878" lon="6.58296">
        <ele>348</ele>
        <time>2019-09-01T07:59:14.000Z</time>
      </trkpt>
      <trkpt lat="49.23892" lon="6.5831">
        <ele>347</ele>
        <time>2019-09-01T07:59:24.000Z</time>
      </trkpt>
      <trkpt lat="49.23905" lon="6.58313">
        <ele>348</ele>
        <time>2019-09-01T07:59:34.000Z</time>
      </trkpt>
      <trkpt lat="49.23916" lon="6.58312">
        <ele>348</ele>
        <time>2019-09-01T07:59:44.000Z</time>
      </trkpt>
      <trkpt lat="49.23927" lon="6.58301">
        <ele>348</ele>
        <time>2019-09-01T07:59:54.000Z</time>
      </trkpt>
      <trkpt lat="49.23939" lon="6.58293">
        <ele>349</ele>
        <time>2019-09-01T08:00:04.000Z</time>
      </trkpt>
      <trkpt lat="49.23955" lon="6.58281">
        <ele>349</ele>
        <time>2019-09-01T08:00:14.000Z</time>
      </trkpt>
      <trkpt lat="49.23971" lon="6.58274">
        <ele>349</ele>
        <time>2019-09-01T08:00:24.000Z</time>
      </trkpt>
      <trkpt lat="49.23988" lon="6.58271">
        <ele>350</ele>
        <time>2019-09-01T08:00:34.000Z</time>
      </trkpt>
      <trkpt lat="49.24008" lon="6.58274">
        <ele>347</ele>
        <time>2019-09-01T08:00:44.000Z</time>
      </trkpt>
      <trkpt lat="49.24021" lon="6.58271">
        <ele>346</ele>
        <time>2019-09-01T08:00:54.000Z</time>
      </trkpt>
      <trkpt lat="49.24036" lon="6.58267">
        <ele>345</ele>
        <time>2019-09-01T08:01:04.000Z</time>
      </trkpt>
      <trkpt lat="49.24052" lon="6.58268">
        <ele>345</ele>
        <time>2019-09-01T08:01:14.000Z</time>
      </trkpt>
      <trkpt lat="49.24068" lon="6.58267">
        <ele>345</ele>
        <time>2019-09-01T08:01:24.000Z</time>
      </trkpt>
      <trkpt lat="49.24082" lon="6.58265">
        <ele>346</ele>
        <time>2019-09-01T08:01:34.000Z</time>
      </trkpt>
      <trkpt lat="49.24094" lon="6.58258">
        <ele>346</ele>
        <time>2019-09-01T08:01:44.000Z</time>
      </trkpt>
      <trkpt lat="49.24107" lon="6.58245">
        <ele>351</ele>
        <time>2019-09-01T08:01:54.000Z</time>
      </trkpt>
      <trkpt lat="49.24119" lon="6.58237">
        <ele>352</ele>
        <time>2019-09-01T08:02:04.000Z</time>
      </trkpt>
      <trkpt lat="49.24132" lon="6.58228">
        <ele>351</ele>
        <time>2019-09-01T08:02:14.000Z</time>
      </trkpt>
      <trkpt lat="49.24144" lon="6.58218">
        <ele>351</ele>
        <time>2019-09-01T08:02:24.000Z</time>
      </trkpt>
      <trkpt lat="49.24154" lon="6.582">
        <ele>352</ele>
        <time>2019-09-01T08:02:34.000Z</time>
      </trkpt>
      <trkpt lat="49.24164" lon="6.58187">
        <ele>353</ele>
        <time>2019-09-01T08:02:44.000Z</time>
      </trkpt>
      <trkpt lat="49.24171" lon="6.58171">
        <ele>352</ele>
        <time>2019-09-01T08:02:54.000Z</time>
      </trkpt>
      <trkpt lat="49.2418" lon="6.58155">
        <ele>352</ele>
        <time>2019-09-01T08:03:04.000Z</time>
      </trkpt>
      <trkpt lat="49.24193" lon="6.58138">
        <ele>352</ele>
        <time>2019-09-01T08:03:14.000Z</time>
      </trkpt>
      <trkpt lat="49.24209" lon="6.58132">
        <ele>351</ele>
        <time>2019-09-01T08:03:24.000Z</time>
      </trkpt>
      <trkpt lat="49.24221" lon="6.58131">
        <ele>351</ele>
        <time>2019-09-01T08:03:34.000Z</time>
      </trkpt>
      <trkpt lat="49.24233" lon="6.58134">
        <ele>351</ele>
        <time>2019-09-01T08:03:44.000Z</time>
      </trkpt>
      <trkpt lat="49.24247" lon="6.5814">
        <ele>350</ele>
        <time>2019-09-01T08:03:54.000Z</time>
      </trkpt>
      <trkpt lat="49.24258" lon="6.5815">
        <ele>349</ele>
        <time>2019-09-01T08:04:04.000Z</time>
      </trkpt>
      <trkpt lat="49.24267" lon="6.5816">
        <ele>349</ele>
        <time>2019-09-01T08:04:14.000Z</time>
      </trkpt>
      <trkpt lat="49.24274" lon="6.58178">
        <ele>348</ele>
        <time>2019-09-01T08:04:24.000Z</time>
      </trkpt>
      <trkpt lat="49.24278" lon="6.58198">
        <ele>349</ele>
        <time>2019-09-01T08:04:34.000Z</time>
      </trkpt>
      <trkpt lat="49.24284" lon="6.58219">
        <ele>349</ele>
        <time>2019-09-01T08:04:44.000Z</time>
      </trkpt>
      <trkpt lat="49.2429" lon="6.58238">
        <ele>349</ele>
        <time>2019-09-01T08:04:54.000Z</time>
      </trkpt>
      <trkpt lat="49.24294" lon="6.58258">
        <ele>349</ele>
        <time>2019-09-01T08:05:04.000Z</time>
      </trkpt>
      <trkpt lat="49.24296" lon="6.58284">
        <ele>349</ele>
        <time>2019-09-01T08:05:14.000Z</time>
      </trkpt>
      <trkpt lat="49.24298" lon="6.58305">
        <ele>349</ele>
        <time>2019-09-01T08:05:24.000Z</time>
      </trkpt>
      <trkpt lat="49.24298" lon="6.58321">
        <ele>349</ele>
        <time>2019-09-01T08:05:34.000Z</time>
      </trkpt>
      <trkpt lat="49.24299" lon="6.58345">
        <ele>350</ele>
        <time>2019-09-01T08:05:44.000Z</time>
      </trkpt>
      <trkpt lat="49.24301" lon="6.58368">
        <ele>349</ele>
        <time>2019-09-01T08:05:54.000Z</time>
      </trkpt>
      <trkpt lat="49.24301" lon="6.58392">
        <ele>349</ele>
        <time>2019-09-01T08:06:04.000Z</time>
      </trkpt>
      <trkpt lat="49.24304" lon="6.58409">
        <ele>350</ele>
        <time>2019-09-01T08:06:14.000Z</time>
      </trkpt>
      <trkpt lat="49.24306" lon="6.58431">
        <ele>349</ele>
        <time>2019-09-01T08:06:24.000Z</time>
      </trkpt>
      <trkpt lat="49.24308" lon="6.58448">
        <ele>349</ele>
        <time>2019-09-01T08:06:34.000Z</time>
      </trkpt>
      <trkpt lat="49.24312" lon="6.58471">
        <ele>349</ele>
        <time>2019-09-01T08:06:44.000Z</time>
      </trkpt>
      <trkpt lat="49.24316" lon="6.58499">
        <ele>351</ele>
        <time>2019-09-01T08:06:54.000Z</time>
      </trkpt>
      <trkpt lat="49.24325" lon="6.58519">
        <ele>350</ele>
        <time>2019-09-01T08:07:04.000Z</time>
      </trkpt>
      <trkpt lat="49.2433" lon="6.5854">
        <ele>349</ele>
        <time>2019-09-01T08:07:14.000Z</time>
      </trkpt>
      <trkpt lat="49.24336" lon="6.58562">
        <ele>354</ele>
        <time>2019-09-01T08:07:24.000Z</time>
      </trkpt>
      <trkpt lat="49.24341" lon="6.58583">
        <ele>354</ele>
        <time>2019-09-01T08:07:34.000Z</time>
      </trkpt>
      <trkpt lat="49.24343" lon="6.5861">
        <ele>354</ele>
        <time>2019-09-01T08:07:44.000Z</time>
      </trkpt>
      <trkpt lat="49.24354" lon="6.58624">
        <ele>354</ele>
        <time>2019-09-01T08:07:54.000Z</time>
      </trkpt>
      <trkpt lat="49.24361" lon="6.58646">
        <ele>354</ele>
        <time>2019-09-01T08:08:04.000Z</time>
      </trkpt>
      <trkpt lat="49.24367" lon="6.58669">
        <ele>352</ele>
        <time>2019-09-01T08:08:14.000Z</time>
      </trkpt>
      <trkpt lat="49.24377" lon="6.58684">
        <ele>353</ele>
        <time>2019-09-01T08:08:24.000Z</time>
      </trkpt>
      <trkpt lat="49.24388" lon="6.58689">
        <ele>354</ele>
        <time>2019-09-01T08:08:34.000Z</time>
      </trkpt>
      <trkpt lat="49.24401" lon="6.58692">
        <ele>355</ele>
        <time>2019-09-01T08:08:44.000Z</time>
      </trkpt>
      <trkpt lat="49.24411" lon="6.58692">
        <ele>356</ele>
        <time>2019-09-01T08:08:54.000Z</time>
      </trkpt>
      <trkpt lat="49.24425" lon="6.58695">
        <ele>361</ele>
        <time>2019-09-01T08:09:04.000Z</time>
      </trkpt>
      <trkpt lat="49.24438" lon="6.58705">
        <ele>360</ele>
        <time>2019-09-01T08:09:14.000Z</time>
      </trkpt>
      <trkpt lat="49.24455" lon="6.58714">
        <ele>360</ele>
        <time>2019-09-01T08:09:24.000Z</time>
      </trkpt>
      <trkpt lat="49.24466" lon="6.5872">
        <ele>360</ele>
        <time>2019-09-01T08:09:34.000Z</time>
      </trkpt>
      <trkpt lat="49.2448" lon="6.58726">
        <ele>360</ele>
        <time>2019-09-01T08:09:44.000Z</time>
      </trkpt>
      <trkpt lat="49.24492" lon="6.58734">
        <ele>360</ele>
        <time>2019-09-01T08:09:54.000Z</time>
      </trkpt>
      <trkpt lat="49.24503" lon="6.58739">
        <ele>361</ele>
        <time>2019-09-01T08:10:04.000Z</time>
      </trkpt>
      <trkpt lat="49.24514" lon="6.58732">
        <ele>361</ele>
        <time>2019-09-01T08:10:14.000Z</time>
      </trkpt>
      <trkpt lat="49.24524" lon="6.58724">
        <ele>361</ele>
        <time>2019-09-01T08:10:24.000Z</time>
      </trkpt>
      <trkpt lat="49.24528" lon="6.58709">
        <ele>361</ele>
        <time>2019-09-01T08:10:34.000Z</time>
      </trkpt>
      <trkpt lat="49.24536" lon="6.58697">
        <ele>361</ele>
        <time>2019-09-01T08:10:44.000Z</time>
      </trkpt>
      <trkpt lat="49.24551" lon="6.58701">
        <ele>361</ele>
        <time>2019-09-01T08:10:54.000Z</time>
      </trkpt>
      <trkpt lat="49.24568" lon="6.58705">
        <ele>361</ele>
        <time>2019-09-01T08:11:04.000Z</time>
      </trkpt>
      <trkpt lat="49.24585" lon="6.58712">
        <ele>357</ele>
        <time>2019-09-01T08:11:14.000Z</time>
      </trkpt>
      <trkpt lat="49.24599" lon="6.58726">
        <ele>356</ele>
        <time>2019-09-01T08:11:24.000Z</time>
      </trkpt>
      <trkpt lat="49.24615" lon="6.58732">
        <ele>355</ele>
        <time>2019-09-01T08:11:34.000Z</time>
      </trkpt>
      <trkpt lat="49.24632" lon="6.58744">
        <ele>353</ele>
        <time>2019-09-01T08:11:44.000Z</time>
      </trkpt>
      <trkpt lat="49.24648" lon="6.58748">
        <ele>351</ele>
        <time>2019-09-01T08:11:54.000Z</time>
      </trkpt>
      <trkpt lat="49.24662" lon="6.58747">
        <ele>349</ele>
        <time>2019-09-01T08:12:04.000Z</time>
      </trkpt>
      <trkpt lat="49.24674" lon="6.5874">
        <ele>347</ele>
        <time>2019-09-01T08:12:14.000Z</time>
      </trkpt>
      <trkpt lat="49.24687" lon="6.5875">
        <ele>347</ele>
        <time>2019-09-01T08:12:24.000Z</time>
      </trkpt>
      <trkpt lat="49.24686" lon="6.58772">
        <ele>346</ele>
        <time>2019-09-01T08:12:34.000Z</time>
      </trkpt>
      <trkpt lat="49.24693" lon="6.58793">
        <ele>346</ele>
        <time>2019-09-01T08:12:44.000Z</time>
      </trkpt>
      <trkpt lat="49.24694" lon="6.58809">
        <ele>346</ele>
        <time>2019-09-01T08:12:54.000Z</time>
      </trkpt>
      <trkpt lat="49.24699" lon="6.58831">
        <ele>346</ele>
        <time>2019-09-01T08:13:04.000Z</time>
      </trkpt>
      <trkpt lat="49.24704" lon="6.58848">
        <ele>346</ele>
        <time>2019-09-01T08:13:14.000Z</time>
      </trkpt>
      <trkpt lat="49.24708" lon="6.58873">
        <ele>346</ele>
        <time>2019-09-01T08:13:24.000Z</time>
      </trkpt>
      <trkpt lat="49.24711" lon="6.5889">
        <ele>346</ele>
        <time>2019-09-01T08:13:34.000Z</time>
      </trkpt>
      <trkpt lat="49.24717" lon="6.58912">
        <ele>347</ele>
        <time>2019-09-01T08:13:44.000Z</time>
      </trkpt>
      <trkpt lat="49.24721" lon="6.58934">
        <ele>347</ele>
        <time>2019-09-01T08:13:54.000Z</time>
      </trkpt>
      <trkpt lat="49.2473" lon="6.58948">
        <ele>347</ele>
        <time>2019-09-01T08:14:04.000Z</time>
      </trkpt>
      <trkpt lat="49.24735" lon="6.58972">
        <ele>348</ele>
        <time>2019-09-01T08:14:14.000Z</time>
      </trkpt>
      <trkpt lat="49.24743" lon="6.58994">
        <ele>349</ele>
        <time>2019-09-01T08:14:24.000Z</time>
      </trkpt>
      <trkpt lat="49.24749" lon="6.59016">
        <ele>348</ele>
        <time>2019-09-01T08:14:34.000Z</time>
      </trkpt>
      <trkpt lat="49.24753" lon="6.59036">
        <ele>352</ele>
        <time>2019-09-01T08:14:44.000Z</time>
      </trkpt>
      <trkpt lat="49.24758" lon="6.59059">
        <ele>352</ele>
        <time>2019-09-01T08:14:54.000Z</time>
      </trkpt>
      <trkpt lat="49.24761" lon="6.59082">
        <ele>352</ele>
        <time>2019-09-01T08:15:04.000Z</time>
      </trkpt>
      <trkpt lat="49.24763" lon="6.59103">
        <ele>354</ele>
        <time>2019-09-01T08:15:14.000Z</time>
      </trkpt>
      <trkpt lat="49.24769" lon="6.59124">
        <ele>355</ele>
        <time>2019-09-01T08:15:24.000Z</time>
      </trkpt>
      <trkpt lat="49.24775" lon="6.59145">
        <ele>355</ele>
        <time>2019-09-01T08:15:34.000Z</time>
      </trkpt>
      <trkpt lat="49.2478" lon="6.59167">
        <ele>355</ele>
        <time>2019-09-01T08:15:44.000Z</time>
      </trkpt>
      <trkpt lat="49.24787" lon="6.59186">
        <ele>355</ele>
        <time>2019-09-01T08:15:54.000Z</time>
      </trkpt>
      <trkpt lat="49.24797" lon="6.59207">
        <ele>355</ele>
        <time>2019-09-01T08:16:04.000Z</time>
      </trkpt>
      <trkpt lat="49.24803" lon="6.59225">
        <ele>355</ele>
        <time>2019-09-01T08:16:14.000Z</time>
      </trkpt>
      <trkpt lat="49.2481" lon="6.59245">
        <ele>355</ele>
        <time>2019-09-01T08:16:24.000Z</time>
      </trkpt>
      <trkpt lat="49.24818" lon="6.59262">
        <ele>353</ele>
        <time>2019-09-01T08:16:34.000Z</time>
      </trkpt>
      <trkpt lat="49.24829" lon="6.59284">
        <ele>353</ele>
        <time>2019-09-01T08:16:44.000Z</time>
      </trkpt>
      <trkpt lat="49.24836" lon="6.59304">
        <ele>353</ele>
        <time>2019-09-01T08:16:54.000Z</time>
      </trkpt>
      <trkpt lat="49.24844" lon="6.5933">
        <ele>353</ele>
        <time>2019-09-01T08:17:04.000Z</time>
      </trkpt>
      <trkpt lat="49.24856" lon="6.5934">
        <ele>351</ele>
        <time>2019-09-01T08:17:14.000Z</time>
      </trkpt>
      <trkpt lat="49.2487" lon="6.59349">
        <ele>350</ele>
        <time>2019-09-01T08:17:24.000Z</time>
      </trkpt>
      <trkpt lat="49.24884" lon="6.59358">
        <ele>350</ele>
        <time>2019-09-01T08:17:34.000Z</time>
      </trkpt>
      <trkpt lat="49.249" lon="6.59361">
        <ele>350</ele>
        <time>2019-09-01T08:17:44.000Z</time>
      </trkpt>
      <trkpt lat="49.24914" lon="6.59365">
        <ele>350</ele>
        <time>2019-09-01T08:17:54.000Z</time>
      </trkpt>
      <trkpt lat="49.24928" lon="6.5936">
        <ele>349</ele>
        <time>2019-09-01T08:18:04.000Z</time>
      </trkpt>
      <trkpt lat="49.24944" lon="6.59362">
        <ele>349</ele>
        <time>2019-09-01T08:18:14.000Z</time>
      </trkpt>
      <trkpt lat="49.24962" lon="6.59365">
        <ele>348</ele>
        <time>2019-09-01T08:18:24.000Z</time>
      </trkpt>
      <trkpt lat="49.24976" lon="6.5937">
        <ele>348</ele>
        <time>2019-09-01T08:18:34.000Z</time>
      </trkpt>
      <trkpt lat="49.24991" lon="6.59373">
        <ele>348</ele>
        <time>2019-09-01T08:18:44.000Z</time>
      </trkpt>
      <trkpt lat="49.25004" lon="6.59372">
        <ele>346</ele>
        <time>2019-09-01T08:18:54.000Z</time>
      </trkpt>
      <trkpt lat="49.2502" lon="6.5937">
        <ele>345</ele>
        <time>2019-09-01T08:19:04.000Z</time>
      </trkpt>
      <trkpt lat="49.25033" lon="6.59367">
        <ele>345</ele>
        <time>2019-09-01T08:19:14.000Z</time>
      </trkpt>
      <trkpt lat="49.25044" lon="6.59363">
        <ele>345</ele>
        <time>2019-09-01T08:19:24.000Z</time>
      </trkpt>
      <trkpt lat="49.25062" lon="6.59362">
        <ele>345</ele>
        <time>2019-09-01T08:19:34.000Z</time>
      </trkpt>
      <trkpt lat="49.25077" lon="6.59359">
        <ele>344</ele>
        <time>2019-09-01T08:19:44.000Z</time>
      </trkpt>
      <trkpt lat="49.25094" lon="6.59362">
        <ele>343</ele>
        <time>2019-09-01T08:19:54.000Z</time>
      </trkpt>
      <trkpt lat="49.25111" lon="6.59364">
        <ele>342</ele>
        <time>2019-09-01T08:20:04.000Z</time>
      </trkpt>
      <trkpt lat="49.25124" lon="6.59358">
        <ele>342</ele>
        <time>2019-09-01T08:20:14.000Z</time>
      </trkpt>
      <trkpt lat="49.25138" lon="6.5935">
        <ele>342</ele>
        <time>2019-09-01T08:20:24.000Z</time>
      </trkpt>
      <trkpt lat="49.25154" lon="6.59353">
        <ele>342</ele>
        <time>2019-09-01T08:20:34.000Z</time>
      </trkpt>
      <trkpt lat="49.25167" lon="6.5936">
        <ele>342</ele>
        <time>2019-09-01T08:20:44.000Z</time>
      </trkpt>
      <trkpt lat="49.2518" lon="6.59352">
        <ele>342</ele>
        <time>2019-09-01T08:20:54.000Z</time>
      </trkpt>
      <trkpt lat="49.25193" lon="6.59338">
        <ele>342</ele>
        <time>2019-09-01T08:21:04.000Z</time>
      </trkpt>
      <trkpt lat="49.25206" lon="6.59324">
        <ele>343</ele>
        <time>2019-09-01T08:21:14.000Z</time>
      </trkpt>
      <trkpt lat="49.25217" lon="6.5931">
        <ele>343</ele>
        <time>2019-09-01T08:21:24.000Z</time>
      </trkpt>
      <trkpt lat="49.25227" lon="6.59294">
        <ele>344</ele>
        <time>2019-09-01T08:21:34.000Z</time>
      </trkpt>
      <trkpt lat="49.25238" lon="6.59276">
        <ele>344</ele>
        <time>2019-09-01T08:21:44.000Z</time>
      </trkpt>
      <trkpt lat="49.25247" lon="6.59261">
        <ele>345</ele>
        <time>2019-09-01T08:21:54.000Z</time>
      </trkpt>
      <trkpt lat="49.25258" lon="6.59245">
        <ele>347</ele>
        <time>2019-09-01T08:22:04.000Z</time>
      </trkpt>
      <trkpt lat="49.25266" lon="6.59229">
        <ele>349</ele>
        <time>2019-09-01T08:22:14.000Z</time>
      </trkpt>
      <trkpt lat="49.25277" lon="6.59214">
        <ele>349</ele>
        <time>2019-09-01T08:22:24.000Z</time>
      </trkpt>
      <trkpt lat="49.2529" lon="6.59203">
        <ele>350</ele>
        <time>2019-09-01T08:22:34.000Z</time>
      </trkpt>
      <trkpt lat="49.25302" lon="6.59191">
        <ele>350</ele>
        <time>2019-09-01T08:22:44.000Z</time>
      </trkpt>
      <trkpt lat="49.25312" lon="6.59178">
        <ele>351</ele>
        <time>2019-09-01T08:22:54.000Z</time>
      </trkpt>
      <trkpt lat="49.25322" lon="6.59166">
        <ele>352</ele>
        <time>2019-09-01T08:23:04.000Z</time>
      </trkpt>
      <trkpt lat="49.25334" lon="6.59156">
        <ele>354</ele>
        <time>2019-09-01T08:23:14.000Z</time>
      </trkpt>
      <trkpt lat="49.25347" lon="6.59147">
        <ele>355</ele>
        <time>2019-09-01T08:23:24.000Z</time>
      </trkpt>
      <trkpt lat="49.25358" lon="6.59138">
        <ele>356</ele>
        <time>2019-09-01T08:23:34.000Z</time>
      </trkpt>
      <trkpt lat="49.2537" lon="6.5913">
        <ele>356</ele>
        <time>2019-09-01T08:23:44.000Z</time>
      </trkpt>
      <trkpt lat="49.25385" lon="6.59119">
        <ele>357</ele>
        <time>2019-09-01T08:23:54.000Z</time>
      </trkpt>
      <trkpt lat="49.25398" lon="6.59109">
        <ele>357</ele>
        <time>2019-09-01T08:24:04.000Z</time>
      </trkpt>
      <trkpt lat="49.25409" lon="6.59099">
        <ele>358</ele>
        <time>2019-09-01T08:24:14.000Z</time>
      </trkpt>
      <trkpt lat="49.25419" lon="6.59091">
        <ele>360</ele>
        <time>2019-09-01T08:24:24.000Z</time>
      </trkpt>
      <trkpt lat="49.25429" lon="6.59081">
        <ele>361</ele>
        <time>2019-09-01T08:24:34.000Z</time>
      </trkpt>
      <trkpt lat="49.25442" lon="6.5907">
        <ele>362</ele>
        <time>2019-09-01T08:24:44.000Z</time>
      </trkpt>
      <trkpt lat="49.25456" lon="6.5906">
        <ele>363</ele>
        <time>2019-09-01T08:24:54.000Z</time>
      </trkpt>
      <trkpt lat="49.25469" lon="6.59051">
        <ele>363</ele>
        <time>2019-09-01T08:25:04.000Z</time>
      </trkpt>
      <trkpt lat="49.25481" lon="6.59041">
        <ele>364</ele>
        <time>2019-09-01T08:25:14.000Z</time>
      </trkpt>
      <trkpt lat="49.25495" lon="6.5903">
        <ele>364</ele>
        <time>2019-09-01T08:25:24.000Z</time>
      </trkpt>
      <trkpt lat="49.25507" lon="6.5902">
        <ele>367</ele>
        <time>2019-09-01T08:25:34.000Z</time>
      </trkpt>
      <trkpt lat="49.2552" lon="6.5901">
        <ele>367</ele>
        <time>2019-09-01T08:25:44.000Z</time>
      </trkpt>
      <trkpt lat="49.25532" lon="6.59">
        <ele>367</ele>
        <time>2019-09-01T08:25:54.000Z</time>
      </trkpt>
      <trkpt lat="49.25545" lon="6.5899">
        <ele>369</ele>
        <time>2019-09-01T08:26:04.000Z</time>
      </trkpt>
      <trkpt lat="49.25556" lon="6.58979">
        <ele>369</ele>
        <time>2019-09-01T08:26:14.000Z</time>
      </trkpt>
      <trkpt lat="49.2557" lon="6.5897">
        <ele>369</ele>
        <time>2019-09-01T08:26:24.000Z</time>
      </trkpt>
      <trkpt lat="49.2558" lon="6.58959">
        <ele>370</ele>
        <time>2019-09-01T08:26:34.000Z</time>
      </trkpt>
      <trkpt lat="49.25592" lon="6.58947">
        <ele>372</ele>
        <time>2019-09-01T08:26:44.000Z</time>
      </trkpt>
      <trkpt lat="49.25603" lon="6.58936">
        <ele>372</ele>
        <time>2019-09-01T08:26:54.000Z</time>
      </trkpt>
      <trkpt lat="49.25614" lon="6.58924">
        <ele>372</ele>
        <time>2019-09-01T08:27:04.000Z</time>
      </trkpt>
      <trkpt lat="49.25627" lon="6.58914">
        <ele>372</ele>
        <time>2019-09-01T08:27:14.000Z</time>
      </trkpt>
      <trkpt lat="49.25638" lon="6.58901">
        <ele>372</ele>
        <time>2019-09-01T08:27:24.000Z</time>
      </trkpt>
      <trkpt lat="49.2565" lon="6.58889">
        <ele>372</ele>
        <time>2019-09-01T08:27:34.000Z</time>
      </trkpt>
      <trkpt lat="49.2566" lon="6.58876">
        <ele>371</ele>
        <time>2019-09-01T08:27:44.000Z</time>
      </trkpt>
      <trkpt lat="49.25673" lon="6.58863">
        <ele>370</ele>
        <time>2019-09-01T08:27:54.000Z</time>
      </trkpt>
      <trkpt lat="49.25685" lon="6.58851">
        <ele>370</ele>
        <time>2019-09-01T08:28:04.000Z</time>
      </trkpt>
      <trkpt lat="49.25696" lon="6.58842">
        <ele>370</ele>
        <time>2019-09-01T08:28:14.000Z</time>
      </trkpt>
      <trkpt lat="49.25713" lon="6.58833">
        <ele>368</ele>
        <time>2019-09-01T08:28:24.000Z</time>
      </trkpt>
      <trkpt lat="49.25726" lon="6.58822">
        <ele>368</ele>
        <time>2019-09-01T08:28:34.000Z</time>
      </trkpt>
      <trkpt lat="49.2574" lon="6.58814">
        <ele>367</ele>
        <time>2019-09-01T08:28:44.000Z</time>
      </trkpt>
      <trkpt lat="49.25751" lon="6.58804">
        <ele>365</ele>
        <time>2019-09-01T08:28:54.000Z</time>
      </trkpt>
      <trkpt lat="49.25763" lon="6.58793">
        <ele>364</ele>
        <time>2019-09-01T08:29:04.000Z</time>
      </trkpt>
      <trkpt lat="49.25775" lon="6.58803">
        <ele>364</ele>
        <time>2019-09-01T08:29:14.000Z</time>
      </trkpt>
      <trkpt lat="49.25784" lon="6.58818">
        <ele>364</ele>
        <time>2019-09-01T08:29:24.000Z</time>
      </trkpt>
      <trkpt lat="49.25793" lon="6.5883">
        <ele>364</ele>
        <time>2019-09-01T08:29:34.000Z</time>
      </trkpt>
      <trkpt lat="49.25801" lon="6.58847">
        <ele>365</ele>
        <time>2019-09-01T08:29:44.000Z</time>
      </trkpt>
      <trkpt lat="49.2581" lon="6.58864">
        <ele>365</ele>
        <time>2019-09-01T08:29:54.000Z</time>
      </trkpt>
      <trkpt lat="49.25819" lon="6.58878">
        <ele>365</ele>
        <time>2019-09-01T08:30:04.000Z</time>
      </trkpt>
      <trkpt lat="49.25828" lon="6.58893">
        <ele>365</ele>
        <time>2019-09-01T08:30:14.000Z</time>
      </trkpt>
      <trkpt lat="49.25837" lon="6.58907">
        <ele>364</ele>
        <time>2019-09-01T08:30:24.000Z</time>
      </trkpt>
      <trkpt lat="49.25848" lon="6.58915">
        <ele>364</ele>
        <time>2019-09-01T08:30:34.000Z</time>
      </trkpt>
      <trkpt lat="49.25858" lon="6.58933">
        <ele>365</ele>
        <time>2019-09-01T08:30:44.000Z</time>
      </trkpt>
      <trkpt lat="49.25862" lon="6.58953">
        <ele>365</ele>
        <time>2019-09-01T08:30:54.000Z</time>
      </trkpt>
      <trkpt lat="49.25868" lon="6.58971">
        <ele>365</ele>
        <time>2019-09-01T08:31:04.000Z</time>
      </trkpt>
      <trkpt lat="49.25877" lon="6.58989">
        <ele>365</ele>
        <time>2019-09-01T08:31:14.000Z</time>
      </trkpt>
      <trkpt lat="49.25882" lon="6.59011">
        <ele>367</ele>
        <time>2019-09-01T08:31:24.000Z</time>
      </trkpt>
      <trkpt lat="49.25887" lon="6.59032">
        <ele>367</ele>
        <time>2019-09-01T08:31:34.000Z</time>
      </trkpt>
      <trkpt lat="49.2589" lon="6.59053">
        <ele>368</ele>
        <time>2019-09-01T08:31:44.000Z</time>
      </trkpt>
      <trkpt lat="49.25893" lon="6.59076">
        <ele>368</ele>
        <time>2019-09-01T08:31:54.000Z</time>
      </trkpt>
      <trkpt lat="49.25896" lon="6.59094">
        <ele>369</ele>
        <time>2019-09-01T08:32:04.000Z</time>
      </trkpt>
      <trkpt lat="49.25899" lon="6.59115">
        <ele>370</ele>
        <time>2019-09-01T08:32:14.000Z</time>
      </trkpt>
      <trkpt lat="49.259" lon="6.59135">
        <ele>370</ele>
        <time>2019-09-01T08:32:24.000Z</time>
      </trkpt>
      <trkpt lat="49.25903" lon="6.59159">
        <ele>370</ele>
        <time>2019-09-01T08:32:34.000Z</time>
      </trkpt>
      <trkpt lat="49.25904" lon="6.5918">
        <ele>371</ele>
        <time>2019-09-01T08:32:44.000Z</time>
      </trkpt>
      <trkpt lat="49.25908" lon="6.59202">
        <ele>372</ele>
        <time>2019-09-01T08:32:54.000Z</time>
      </trkpt>
      <trkpt lat="49.2591" lon="6.59223">
        <ele>372</ele>
        <time>2019-09-01T08:33:04.000Z</time>
      </trkpt>
      <trkpt lat="49.25913" lon="6.59243">
        <ele>373</ele>
        <time>2019-09-01T08:33:14.000Z</time>
      </trkpt>
      <trkpt lat="49.25914" lon="6.59266">
        <ele>374</ele>
        <time>2019-09-01T08:33:24.000Z</time>
      </trkpt>
      <trkpt lat="49.25916" lon="6.59287">
        <ele>374</ele>
        <time>2019-09-01T08:33:34.000Z</time>
      </trkpt>
      <trkpt lat="49.25919" lon="6.5931">
        <ele>373</ele>
        <time>2019-09-01T08:33:44.000Z</time>
      </trkpt>
      <trkpt lat="49.25922" lon="6.59334">
        <ele>374</ele>
        <time>2019-09-01T08:33:54.000Z</time>
      </trkpt>
      <trkpt lat="49.25925" lon="6.59354">
        <ele>374</ele>
        <time>2019-09-01T08:34:04.000Z</time>
      </trkpt>
      <trkpt lat="49.25928" lon="6.59375">
        <ele>374</ele>
        <time>2019-09-01T08:34:14.000Z</time>
      </trkpt>
      <trkpt lat="49.25931" lon="6.59395">
        <ele>375</ele>
        <time>2019-09-01T08:34:24.000Z</time>
      </trkpt>
      <trkpt lat="49.25934" lon="6.59419">
        <ele>375</ele>
        <time>2019-09-01T08:34:34.000Z</time>
      </trkpt>
      <trkpt lat="49.25936" lon="6.59438">
        <ele>375</ele>
        <time>2019-09-01T08:34:44.000Z</time>
      </trkpt>
      <trkpt lat="49.25939" lon="6.59458">
        <ele>375</ele>
        <time>2019-09-01T08:34:54.000Z</time>
      </trkpt>
      <trkpt lat="49.2594" lon="6.59474">
        <ele>375</ele>
        <time>2019-09-01T08:35:04.000Z</time>
      </trkpt>
      <trkpt lat="49.25941" lon="6.5948">
        <ele>375</ele>
        <time>2019-09-01T08:35:32.000Z</time>
      </trkpt>
      <trkpt lat="49.25943" lon="6.59501">
        <ele>376</ele>
        <time>2019-09-01T08:35:42.000Z</time>
      </trkpt>
      <trkpt lat="49.25945" lon="6.59526">
        <ele>376</ele>
        <time>2019-09-01T08:35:52.000Z</time>
      </trkpt>
      <trkpt lat="49.25947" lon="6.59553">
        <ele>376</ele>
        <time>2019-09-01T08:36:02.000Z</time>
      </trkpt>
      <trkpt lat="49.25948" lon="6.59577">
        <ele>376</ele>
        <time>2019-09-01T08:36:12.000Z</time>
      </trkpt>
      <trkpt lat="49.25951" lon="6.59604">
        <ele>377</ele>
        <time>2019-09-01T08:36:22.000Z</time>
      </trkpt>
      <trkpt lat="49.25953" lon="6.59626">
        <ele>377</ele>
        <time>2019-09-01T08:36:32.000Z</time>
      </trkpt>
      <trkpt lat="49.25956" lon="6.5965">
        <ele>377</ele>
        <time>2019-09-01T08:36:42.000Z</time>
      </trkpt>
      <trkpt lat="49.25957" lon="6.59674">
        <ele>377</ele>
        <time>2019-09-01T08:36:52.000Z</time>
      </trkpt>
      <trkpt lat="49.25959" lon="6.59698">
        <ele>377</ele>
        <time>2019-09-01T08:37:02.000Z</time>
      </trkpt>
      <trkpt lat="49.2596" lon="6.59721">
        <ele>377</ele>
        <time>2019-09-01T08:37:12.000Z</time>
      </trkpt>
      <trkpt lat="49.25959" lon="6.59743">
        <ele>377</ele>
        <time>2019-09-01T08:37:22.000Z</time>
      </trkpt>
      <trkpt lat="49.2596" lon="6.59765">
        <ele>377</ele>
        <time>2019-09-01T08:37:32.000Z</time>
      </trkpt>
      <trkpt lat="49.25955" lon="6.59788">
        <ele>377</ele>
        <time>2019-09-01T08:37:42.000Z</time>
      </trkpt>
      <trkpt lat="49.25952" lon="6.59801">
        <ele>377</ele>
        <time>2019-09-01T08:37:52.000Z</time>
      </trkpt>
      <trkpt lat="49.2595" lon="6.59812">
        <ele>378</ele>
        <time>2019-09-01T08:40:42.000Z</time>
      </trkpt>
      <trkpt lat="49.2595" lon="6.5982">
        <ele>378</ele>
        <time>2019-09-01T08:40:52.000Z</time>
      </trkpt>
      <trkpt lat="49.25944" lon="6.59837">
        <ele>378</ele>
        <time>2019-09-01T08:41:02.000Z</time>
      </trkpt>
      <trkpt lat="49.25933" lon="6.59854">
        <ele>378</ele>
        <time>2019-09-01T08:41:12.000Z</time>
      </trkpt>
      <trkpt lat="49.25922" lon="6.5987">
        <ele>378</ele>
        <time>2019-09-01T08:41:22.000Z</time>
      </trkpt>
      <trkpt lat="49.25909" lon="6.59882">
        <ele>378</ele>
        <time>2019-09-01T08:41:32.000Z</time>
      </trkpt>
      <trkpt lat="49.25896" lon="6.59892">
        <ele>378</ele>
        <time>2019-09-01T08:41:42.000Z</time>
      </trkpt>
      <trkpt lat="49.25884" lon="6.59904">
        <ele>377</ele>
        <time>2019-09-01T08:41:52.000Z</time>
      </trkpt>
      <trkpt lat="49.25871" lon="6.59916">
        <ele>377</ele>
        <time>2019-09-01T08:42:02.000Z</time>
      </trkpt>
      <trkpt lat="49.25858" lon="6.59926">
        <ele>376</ele>
        <time>2019-09-01T08:42:12.000Z</time>
      </trkpt>
      <trkpt lat="49.25845" lon="6.59938">
        <ele>376</ele>
        <time>2019-09-01T08:42:22.000Z</time>
      </trkpt>
      <trkpt lat="49.25831" lon="6.59949">
        <ele>375</ele>
        <time>2019-09-01T08:42:32.000Z</time>
      </trkpt>
      <trkpt lat="49.25818" lon="6.59958">
        <ele>375</ele>
        <time>2019-09-01T08:42:42.000Z</time>
      </trkpt>
      <trkpt lat="49.25805" lon="6.5997">
        <ele>374</ele>
        <time>2019-09-01T08:42:52.000Z</time>
      </trkpt>
      <trkpt lat="49.25793" lon="6.59984">
        <ele>374</ele>
        <time>2019-09-01T08:43:02.000Z</time>
      </trkpt>
      <trkpt lat="49.2578" lon="6.6">
        <ele>373</ele>
        <time>2019-09-01T08:43:12.000Z</time>
      </trkpt>
      <trkpt lat="49.25768" lon="6.60018">
        <ele>373</ele>
        <time>2019-09-01T08:43:22.000Z</time>
      </trkpt>
      <trkpt lat="49.25756" lon="6.60035">
        <ele>373</ele>
        <time>2019-09-01T08:43:32.000Z</time>
      </trkpt>
      <trkpt lat="49.25744" lon="6.60053">
        <ele>372</ele>
        <time>2019-09-01T08:43:42.000Z</time>
      </trkpt>
      <trkpt lat="49.25732" lon="6.6007">
        <ele>372</ele>
        <time>2019-09-01T08:43:52.000Z</time>
      </trkpt>
      <trkpt lat="49.2572" lon="6.60086">
        <ele>371</ele>
        <time>2019-09-01T08:44:02.000Z</time>
      </trkpt>
      <trkpt lat="49.25709" lon="6.60104">
        <ele>371</ele>
        <time>2019-09-01T08:44:12.000Z</time>
      </trkpt>
      <trkpt lat="49.25698" lon="6.60124">
        <ele>370</ele>
        <time>2019-09-01T08:44:22.000Z</time>
      </trkpt>
      <trkpt lat="49.25686" lon="6.60141">
        <ele>370</ele>
        <time>2019-09-01T08:44:32.000Z</time>
      </trkpt>
      <trkpt lat="49.25674" lon="6.60157">
        <ele>370</ele>
        <time>2019-09-01T08:44:42.000Z</time>
      </trkpt>
      <trkpt lat="49.25659" lon="6.60168">
        <ele>368</ele>
        <time>2019-09-01T08:44:52.000Z</time>
      </trkpt>
      <trkpt lat="49.25644" lon="6.60176">
        <ele>367</ele>
        <time>2019-09-01T08:45:02.000Z</time>
      </trkpt>
      <trkpt lat="49.25628" lon="6.60184">
        <ele>367</ele>
        <time>2019-09-01T08:45:12.000Z</time>
      </trkpt>
      <trkpt lat="49.25612" lon="6.60192">
        <ele>367</ele>
        <time>2019-09-01T08:45:22.000Z</time>
      </trkpt>
      <trkpt lat="49.25597" lon="6.60197">
        <ele>366</ele>
        <time>2019-09-01T08:45:32.000Z</time>
      </trkpt>
      <trkpt lat="49.2558" lon="6.60206">
        <ele>367</ele>
        <time>2019-09-01T08:45:42.000Z</time>
      </trkpt>
      <trkpt lat="49.25564" lon="6.60218">
        <ele>368</ele>
        <time>2019-09-01T08:45:52.000Z</time>
      </trkpt>
      <trkpt lat="49.2555" lon="6.60234">
        <ele>368</ele>
        <time>2019-09-01T08:46:02.000Z</time>
      </trkpt>
      <trkpt lat="49.25538" lon="6.60249">
        <ele>368</ele>
        <time>2019-09-01T08:46:12.000Z</time>
      </trkpt>
      <trkpt lat="49.25525" lon="6.60265">
        <ele>367</ele>
        <time>2019-09-01T08:46:22.000Z</time>
      </trkpt>
      <trkpt lat="49.25513" lon="6.60281">
        <ele>367</ele>
        <time>2019-09-01T08:46:32.000Z</time>
      </trkpt>
      <trkpt lat="49.25501" lon="6.60297">
        <ele>367</ele>
        <time>2019-09-01T08:46:42.000Z</time>
      </trkpt>
      <trkpt lat="49.25489" lon="6.60313">
        <ele>369</ele>
        <time>2019-09-01T08:46:52.000Z</time>
      </trkpt>
      <trkpt lat="49.25477" lon="6.60327">
        <ele>369</ele>
        <time>2019-09-01T08:47:02.000Z</time>
      </trkpt>
      <trkpt lat="49.25466" lon="6.60343">
        <ele>369</ele>
        <time>2019-09-01T08:47:12.000Z</time>
      </trkpt>
      <trkpt lat="49.25455" lon="6.60358">
        <ele>369</ele>
        <time>2019-09-01T08:47:22.000Z</time>
      </trkpt>
      <trkpt lat="49.25444" lon="6.60371">
        <ele>370</ele>
        <time>2019-09-01T08:47:32.000Z</time>
      </trkpt>
      <trkpt lat="49.25433" lon="6.60386">
        <ele>370</ele>
        <time>2019-09-01T08:47:42.000Z</time>
      </trkpt>
      <trkpt lat="49.2542" lon="6.60401">
        <ele>370</ele>
        <time>2019-09-01T08:47:52.000Z</time>
      </trkpt>
      <trkpt lat="49.25408" lon="6.60416">
        <ele>371</ele>
        <time>2019-09-01T08:48:02.000Z</time>
      </trkpt>
      <trkpt lat="49.25397" lon="6.60433">
        <ele>370</ele>
        <time>2019-09-01T08:48:12.000Z</time>
      </trkpt>
      <trkpt lat="49.25385" lon="6.60447">
        <ele>370</ele>
        <time>2019-09-01T08:48:22.000Z</time>
      </trkpt>
      <trkpt lat="49.25369" lon="6.60455">
        <ele>370</ele>
        <time>2019-09-01T08:48:32.000Z</time>
      </trkpt>
      <trkpt lat="49.25355" lon="6.60466">
        <ele>370</ele>
        <time>2019-09-01T08:48:42.000Z</time>
      </trkpt>
      <trkpt lat="49.25341" lon="6.60477">
        <ele>370</ele>
        <time>2019-09-01T08:48:52.000Z</time>
      </trkpt>
      <trkpt lat="49.25328" lon="6.60487">
        <ele>369</ele>
        <time>2019-09-01T08:49:02.000Z</time>
      </trkpt>
      <trkpt lat="49.25313" lon="6.60496">
        <ele>369</ele>
        <time>2019-09-01T08:49:12.000Z</time>
      </trkpt>
      <trkpt lat="49.25299" lon="6.60506">
        <ele>367</ele>
        <time>2019-09-01T08:49:22.000Z</time>
      </trkpt>
      <trkpt lat="49.25284" lon="6.60514">
        <ele>367</ele>
        <time>2019-09-01T08:49:32.000Z</time>
      </trkpt>
      <trkpt lat="49.2527" lon="6.60523">
        <ele>367</ele>
        <time>2019-09-01T08:49:42.000Z</time>
      </trkpt>
      <trkpt lat="49.25257" lon="6.60532">
        <ele>367</ele>
        <time>2019-09-01T08:49:52.000Z</time>
      </trkpt>
      <trkpt lat="49.25242" lon="6.60542">
        <ele>364</ele>
        <time>2019-09-01T08:50:02.000Z</time>
      </trkpt>
      <trkpt lat="49.25228" lon="6.60552">
        <ele>364</ele>
        <time>2019-09-01T08:50:12.000Z</time>
      </trkpt>
      <trkpt lat="49.25215" lon="6.60563">
        <ele>363</ele>
        <time>2019-09-01T08:50:22.000Z</time>
      </trkpt>
      <trkpt lat="49.25205" lon="6.60582">
        <ele>363</ele>
        <time>2019-09-01T08:50:32.000Z</time>
      </trkpt>
      <trkpt lat="49.25197" lon="6.60602">
        <ele>360</ele>
        <time>2019-09-01T08:50:42.000Z</time>
      </trkpt>
      <trkpt lat="49.2519" lon="6.60624">
        <ele>360</ele>
        <time>2019-09-01T08:50:52.000Z</time>
      </trkpt>
      <trkpt lat="49.25183" lon="6.60643">
        <ele>359</ele>
        <time>2019-09-01T08:51:02.000Z</time>
      </trkpt>
      <trkpt lat="49.25177" lon="6.60656">
        <ele>358</ele>
        <time>2019-09-01T08:51:12.000Z</time>
      </trkpt>
      <trkpt lat="49.25168" lon="6.6067">
        <ele>357</ele>
        <time>2019-09-01T08:51:22.000Z</time>
      </trkpt>
      <trkpt lat="49.25171" lon="6.60683">
        <ele>358</ele>
        <time>2019-09-01T08:51:32.000Z</time>
      </trkpt>
      <trkpt lat="49.25164" lon="6.60684">
        <ele>356</ele>
        <time>2019-09-01T08:51:59.000Z</time>
      </trkpt>
      <trkpt lat="49.25147" lon="6.60673">
        <ele>356</ele>
        <time>2019-09-01T08:52:09.000Z</time>
      </trkpt>
      <trkpt lat="49.25132" lon="6.60669">
        <ele>356</ele>
        <time>2019-09-01T08:52:19.000Z</time>
      </trkpt>
      <trkpt lat="49.25119" lon="6.60667">
        <ele>355</ele>
        <time>2019-09-01T08:52:29.000Z</time>
      </trkpt>
      <trkpt lat="49.25104" lon="6.60665">
        <ele>356</ele>
        <time>2019-09-01T08:52:39.000Z</time>
      </trkpt>
      <trkpt lat="49.25088" lon="6.60659">
        <ele>356</ele>
        <time>2019-09-01T08:52:49.000Z</time>
      </trkpt>
      <trkpt lat="49.25076" lon="6.60653">
        <ele>357</ele>
        <time>2019-09-01T08:52:59.000Z</time>
      </trkpt>
      <trkpt lat="49.25062" lon="6.60649">
        <ele>358</ele>
        <time>2019-09-01T08:53:09.000Z</time>
      </trkpt>
      <trkpt lat="49.25044" lon="6.60648">
        <ele>359</ele>
        <time>2019-09-01T08:53:19.000Z</time>
      </trkpt>
      <trkpt lat="49.25029" lon="6.60648">
        <ele>359</ele>
        <time>2019-09-01T08:53:29.000Z</time>
      </trkpt>
      <trkpt lat="49.25015" lon="6.60643">
        <ele>360</ele>
        <time>2019-09-01T08:53:39.000Z</time>
      </trkpt>
      <trkpt lat="49.24997" lon="6.60636">
        <ele>362</ele>
        <time>2019-09-01T08:53:49.000Z</time>
      </trkpt>
      <trkpt lat="49.24981" lon="6.60638">
        <ele>362</ele>
        <time>2019-09-01T08:53:59.000Z</time>
      </trkpt>
      <trkpt lat="49.24966" lon="6.6064">
        <ele>362</ele>
        <time>2019-09-01T08:54:09.000Z</time>
      </trkpt>
      <trkpt lat="49.24954" lon="6.60651">
        <ele>362</ele>
        <time>2019-09-01T08:54:19.000Z</time>
      </trkpt>
      <trkpt lat="49.24939" lon="6.60665">
        <ele>362</ele>
        <time>2019-09-01T08:54:29.000Z</time>
      </trkpt>
      <trkpt lat="49.24923" lon="6.60681">
        <ele>360</ele>
        <time>2019-09-01T08:54:39.000Z</time>
      </trkpt>
      <trkpt lat="49.24906" lon="6.60695">
        <ele>356</ele>
        <time>2019-09-01T08:54:49.000Z</time>
      </trkpt>
      <trkpt lat="49.2489" lon="6.60702">
        <ele>355</ele>
        <time>2019-09-01T08:54:59.000Z</time>
      </trkpt>
      <trkpt lat="49.24877" lon="6.60709">
        <ele>354</ele>
        <time>2019-09-01T08:55:09.000Z</time>
      </trkpt>
      <trkpt lat="49.24864" lon="6.60712">
        <ele>353</ele>
        <time>2019-09-01T08:55:19.000Z</time>
      </trkpt>
      <trkpt lat="49.24848" lon="6.60715">
        <ele>352</ele>
        <time>2019-09-01T08:55:29.000Z</time>
      </trkpt>
      <trkpt lat="49.24833" lon="6.60713">
        <ele>343</ele>
        <time>2019-09-01T08:55:39.000Z</time>
      </trkpt>
      <trkpt lat="49.24818" lon="6.60709">
        <ele>343</ele>
        <time>2019-09-01T08:55:49.000Z</time>
      </trkpt>
      <trkpt lat="49.24803" lon="6.60706">
        <ele>341</ele>
        <time>2019-09-01T08:55:59.000Z</time>
      </trkpt>
      <trkpt lat="49.2479" lon="6.60716">
        <ele>339</ele>
        <time>2019-09-01T08:56:09.000Z</time>
      </trkpt>
      <trkpt lat="49.24778" lon="6.60723">
        <ele>337</ele>
        <time>2019-09-01T08:56:19.000Z</time>
      </trkpt>
      <trkpt lat="49.24767" lon="6.60735">
        <ele>335</ele>
        <time>2019-09-01T08:56:29.000Z</time>
      </trkpt>
      <trkpt lat="49.24756" lon="6.60744">
        <ele>331</ele>
        <time>2019-09-01T08:56:39.000Z</time>
      </trkpt>
      <trkpt lat="49.24743" lon="6.60752">
        <ele>324</ele>
        <time>2019-09-01T08:56:49.000Z</time>
      </trkpt>
      <trkpt lat="49.24732" lon="6.60762">
        <ele>321</ele>
        <time>2019-09-01T08:56:59.000Z</time>
      </trkpt>
      <trkpt lat="49.24721" lon="6.60774">
        <ele>319</ele>
        <time>2019-09-01T08:57:09.000Z</time>
      </trkpt>
      <trkpt lat="49.24708" lon="6.60783">
        <ele>317</ele>
        <time>2019-09-01T08:57:19.000Z</time>
      </trkpt>
      <trkpt lat="49.24697" lon="6.60794">
        <ele>316</ele>
        <time>2019-09-01T08:57:29.000Z</time>
      </trkpt>
      <trkpt lat="49.24686" lon="6.60804">
        <ele>315</ele>
        <time>2019-09-01T08:57:39.000Z</time>
      </trkpt>
      <trkpt lat="49.24677" lon="6.6082">
        <ele>313</ele>
        <time>2019-09-01T08:57:49.000Z</time>
      </trkpt>
      <trkpt lat="49.24669" lon="6.60834">
        <ele>310</ele>
        <time>2019-09-01T08:57:59.000Z</time>
      </trkpt>
      <trkpt lat="49.24659" lon="6.60851">
        <ele>306</ele>
        <time>2019-09-01T08:58:09.000Z</time>
      </trkpt>
      <trkpt lat="49.24649" lon="6.6087">
        <ele>304</ele>
        <time>2019-09-01T08:58:19.000Z</time>
      </trkpt>
      <trkpt lat="49.24643" lon="6.60887">
        <ele>303</ele>
        <time>2019-09-01T08:58:29.000Z</time>
      </trkpt>
      <trkpt lat="49.24634" lon="6.60903">
        <ele>303</ele>
        <time>2019-09-01T08:58:39.000Z</time>
      </trkpt>
      <trkpt lat="49.24627" lon="6.60921">
        <ele>299</ele>
        <time>2019-09-01T08:58:49.000Z</time>
      </trkpt>
      <trkpt lat="49.24617" lon="6.60939">
        <ele>299</ele>
        <time>2019-09-01T08:58:59.000Z</time>
      </trkpt>
      <trkpt lat="49.24606" lon="6.60956">
        <ele>298</ele>
        <time>2019-09-01T08:59:09.000Z</time>
      </trkpt>
      <trkpt lat="49.24597" lon="6.60969">
        <ele>298</ele>
        <time>2019-09-01T08:59:19.000Z</time>
      </trkpt>
      <trkpt lat="49.24587" lon="6.60991">
        <ele>297</ele>
        <time>2019-09-01T08:59:29.000Z</time>
      </trkpt>
      <trkpt lat="49.24582" lon="6.61009">
        <ele>295</ele>
        <time>2019-09-01T08:59:39.000Z</time>
      </trkpt>
      <trkpt lat="49.2459" lon="6.61025">
        <ele>294</ele>
        <time>2019-09-01T08:59:49.000Z</time>
      </trkpt>
      <trkpt lat="49.24603" lon="6.61041">
        <ele>294</ele>
        <time>2019-09-01T08:59:59.000Z</time>
      </trkpt>
      <trkpt lat="49.24615" lon="6.61055">
        <ele>293</ele>
        <time>2019-09-01T09:00:09.000Z</time>
      </trkpt>
      <trkpt lat="49.24627" lon="6.61068">
        <ele>293</ele>
        <time>2019-09-01T09:00:19.000Z</time>
      </trkpt>
      <trkpt lat="49.2464" lon="6.61075">
        <ele>293</ele>
        <time>2019-09-01T09:00:29.000Z</time>
      </trkpt>
      <trkpt lat="49.24654" lon="6.6108">
        <ele>292</ele>
        <time>2019-09-01T09:00:39.000Z</time>
      </trkpt>
      <trkpt lat="49.24669" lon="6.61085">
        <ele>291</ele>
        <time>2019-09-01T09:00:49.000Z</time>
      </trkpt>
      <trkpt lat="49.24683" lon="6.61093">
        <ele>290</ele>
        <time>2019-09-01T09:00:59.000Z</time>
      </trkpt>
      <trkpt lat="49.24696" lon="6.61103">
        <ele>290</ele>
        <time>2019-09-01T09:01:09.000Z</time>
      </trkpt>
      <trkpt lat="49.2471" lon="6.61116">
        <ele>289</ele>
        <time>2019-09-01T09:01:19.000Z</time>
      </trkpt>
      <trkpt lat="49.24722" lon="6.61127">
        <ele>289</ele>
        <time>2019-09-01T09:01:29.000Z</time>
      </trkpt>
      <trkpt lat="49.24732" lon="6.61139">
        <ele>288</ele>
        <time>2019-09-01T09:01:39.000Z</time>
      </trkpt>
      <trkpt lat="49.24746" lon="6.61153">
        <ele>287</ele>
        <time>2019-09-01T09:01:49.000Z</time>
      </trkpt>
      <trkpt lat="49.24759" lon="6.61165">
        <ele>287</ele>
        <time>2019-09-01T09:01:59.000Z</time>
      </trkpt>
      <trkpt lat="49.24771" lon="6.61176">
        <ele>286</ele>
        <time>2019-09-01T09:02:09.000Z</time>
      </trkpt>
      <trkpt lat="49.24783" lon="6.61191">
        <ele>286</ele>
        <time>2019-09-01T09:02:19.000Z</time>
      </trkpt>
      <trkpt lat="49.24796" lon="6.61205">
        <ele>286</ele>
        <time>2019-09-01T09:02:29.000Z</time>
      </trkpt>
      <trkpt lat="49.24807" lon="6.61219">
        <ele>286</ele>
        <time>2019-09-01T09:02:39.000Z</time>
      </trkpt>
      <trkpt lat="49.24819" lon="6.6123">
        <ele>286</ele>
        <time>2019-09-01T09:02:49.000Z</time>
      </trkpt>
      <trkpt lat="49.24832" lon="6.61244">
        <ele>286</ele>
        <time>2019-09-01T09:02:59.000Z</time>
      </trkpt>
      <trkpt lat="49.24843" lon="6.61257">
        <ele>287</ele>
        <time>2019-09-01T09:03:09.000Z</time>
      </trkpt>
      <trkpt lat="49.24851" lon="6.61272">
        <ele>288</ele>
        <time>2019-09-01T09:03:19.000Z</time>
      </trkpt>
      <trkpt lat="49.24856" lon="6.61293">
        <ele>288</ele>
        <time>2019-09-01T09:03:29.000Z</time>
      </trkpt>
      <trkpt lat="49.24856" lon="6.61314">
        <ele>287</ele>
        <time>2019-09-01T09:03:39.000Z</time>
      </trkpt>
      <trkpt lat="49.24853" lon="6.61335">
        <ele>286</ele>
        <time>2019-09-01T09:03:49.000Z</time>
      </trkpt>
      <trkpt lat="49.24845" lon="6.61351">
        <ele>286</ele>
        <time>2019-09-01T09:03:59.000Z</time>
      </trkpt>
      <trkpt lat="49.24832" lon="6.61363">
        <ele>283</ele>
        <time>2019-09-01T09:04:09.000Z</time>
      </trkpt>
      <trkpt lat="49.24819" lon="6.61371">
        <ele>282</ele>
        <time>2019-09-01T09:04:19.000Z</time>
      </trkpt>
      <trkpt lat="49.24808" lon="6.61371">
        <ele>282</ele>
        <time>2019-09-01T09:04:29.000Z</time>
      </trkpt>
      <trkpt lat="49.24795" lon="6.61366">
        <ele>282</ele>
        <time>2019-09-01T09:04:39.000Z</time>
      </trkpt>
      <trkpt lat="49.24781" lon="6.61359">
        <ele>282</ele>
        <time>2019-09-01T09:04:49.000Z</time>
      </trkpt>
      <trkpt lat="49.24768" lon="6.61365">
        <ele>281</ele>
        <time>2019-09-01T09:04:59.000Z</time>
      </trkpt>
      <trkpt lat="49.24758" lon="6.61366">
        <ele>281</ele>
        <time>2019-09-01T09:05:09.000Z</time>
      </trkpt>
      <trkpt lat="49.24751" lon="6.61375">
        <ele>281</ele>
        <time>2019-09-01T09:05:19.000Z</time>
      </trkpt>
      <trkpt lat="49.24741" lon="6.61388">
        <ele>279</ele>
        <time>2019-09-01T09:05:29.000Z</time>
      </trkpt>
      <trkpt lat="49.24733" lon="6.61407">
        <ele>278</ele>
        <time>2019-09-01T09:05:39.000Z</time>
      </trkpt>
      <trkpt lat="49.24724" lon="6.61427">
        <ele>275</ele>
        <time>2019-09-01T09:05:49.000Z</time>
      </trkpt>
      <trkpt lat="49.24717" lon="6.61438">
        <ele>274</ele>
        <time>2019-09-01T09:05:59.000Z</time>
      </trkpt>
      <trkpt lat="49.24708" lon="6.61458">
        <ele>273</ele>
        <time>2019-09-01T09:06:09.000Z</time>
      </trkpt>
      <trkpt lat="49.24699" lon="6.61483">
        <ele>272</ele>
        <time>2019-09-01T09:06:19.000Z</time>
      </trkpt>
      <trkpt lat="49.24692" lon="6.61498">
        <ele>271</ele>
        <time>2019-09-01T09:06:29.000Z</time>
      </trkpt>
      <trkpt lat="49.24686" lon="6.61514">
        <ele>270</ele>
        <time>2019-09-01T09:06:39.000Z</time>
      </trkpt>
      <trkpt lat="49.24679" lon="6.61531">
        <ele>271</ele>
        <time>2019-09-01T09:06:49.000Z</time>
      </trkpt>
      <trkpt lat="49.2467" lon="6.61545">
        <ele>271</ele>
        <time>2019-09-01T09:06:59.000Z</time>
      </trkpt>
      <trkpt lat="49.24661" lon="6.61541">
        <ele>266</ele>
        <time>2019-09-01T09:07:09.000Z</time>
      </trkpt>
      <trkpt lat="49.24652" lon="6.61527">
        <ele>266</ele>
        <time>2019-09-01T09:07:19.000Z</time>
      </trkpt>
      <trkpt lat="49.24641" lon="6.61515">
        <ele>266</ele>
        <time>2019-09-01T09:07:29.000Z</time>
      </trkpt>
      <trkpt lat="49.24626" lon="6.61511">
        <ele>267</ele>
        <time>2019-09-01T09:07:39.000Z</time>
      </trkpt>
      <trkpt lat="49.24613" lon="6.61521">
        <ele>267</ele>
        <time>2019-09-01T09:07:49.000Z</time>
      </trkpt>
      <trkpt lat="49.24603" lon="6.61534">
        <ele>266</ele>
        <time>2019-09-01T09:07:59.000Z</time>
      </trkpt>
      <trkpt lat="49.24592" lon="6.61545">
        <ele>265</ele>
        <time>2019-09-01T09:08:09.000Z</time>
      </trkpt>
      <trkpt lat="49.2458" lon="6.61559">
        <ele>265</ele>
        <time>2019-09-01T09:08:19.000Z</time>
      </trkpt>
      <trkpt lat="49.24567" lon="6.61572">
        <ele>264</ele>
        <time>2019-09-01T09:08:29.000Z</time>
      </trkpt>
      <trkpt lat="49.24555" lon="6.61576">
        <ele>266</ele>
        <time>2019-09-01T09:08:39.000Z</time>
      </trkpt>
      <trkpt lat="49.24543" lon="6.6158">
        <ele>267</ele>
        <time>2019-09-01T09:08:49.000Z</time>
      </trkpt>
      <trkpt lat="49.24534" lon="6.61581">
        <ele>268</ele>
        <time>2019-09-01T09:08:59.000Z</time>
      </trkpt>
      <trkpt lat="49.24526" lon="6.61592">
        <ele>259</ele>
        <time>2019-09-01T09:09:09.000Z</time>
      </trkpt>
      <trkpt lat="49.24516" lon="6.61599">
        <ele>260</ele>
        <time>2019-09-01T09:09:19.000Z</time>
      </trkpt>
      <trkpt lat="49.24504" lon="6.61613">
        <ele>259</ele>
        <time>2019-09-01T09:09:29.000Z</time>
      </trkpt>
      <trkpt lat="49.245" lon="6.6163">
        <ele>264</ele>
        <time>2019-09-01T09:09:39.000Z</time>
      </trkpt>
      <trkpt lat="49.24497" lon="6.61651">
        <ele>259</ele>
        <time>2019-09-01T09:09:49.000Z</time>
      </trkpt>
      <trkpt lat="49.2449" lon="6.61674">
        <ele>253</ele>
        <time>2019-09-01T09:09:59.000Z</time>
      </trkpt>
      <trkpt lat="49.24482" lon="6.61688">
        <ele>254</ele>
        <time>2019-09-01T09:10:09.000Z</time>
      </trkpt>
      <trkpt lat="49.24472" lon="6.61694">
        <ele>255</ele>
        <time>2019-09-01T09:10:19.000Z</time>
      </trkpt>
      <trkpt lat="49.24459" lon="6.61708">
        <ele>256</ele>
        <time>2019-09-01T09:10:29.000Z</time>
      </trkpt>
      <trkpt lat="49.24447" lon="6.61732">
        <ele>257</ele>
        <time>2019-09-01T09:10:39.000Z</time>
      </trkpt>
      <trkpt lat="49.24438" lon="6.6175">
        <ele>254</ele>
        <time>2019-09-01T09:10:49.000Z</time>
      </trkpt>
      <trkpt lat="49.24431" lon="6.61769">
        <ele>254</ele>
        <time>2019-09-01T09:10:59.000Z</time>
      </trkpt>
      <trkpt lat="49.24424" lon="6.6179">
        <ele>252</ele>
        <time>2019-09-01T09:11:09.000Z</time>
      </trkpt>
      <trkpt lat="49.24412" lon="6.61803">
        <ele>261</ele>
        <time>2019-09-01T09:11:19.000Z</time>
      </trkpt>
      <trkpt lat="49.24399" lon="6.61811">
        <ele>260</ele>
        <time>2019-09-01T09:11:29.000Z</time>
      </trkpt>
      <trkpt lat="49.24387" lon="6.61813">
        <ele>261</ele>
        <time>2019-09-01T09:11:39.000Z</time>
      </trkpt>
      <trkpt lat="49.24372" lon="6.61811">
        <ele>262</ele>
        <time>2019-09-01T09:11:49.000Z</time>
      </trkpt>
      <trkpt lat="49.24363" lon="6.61814">
        <ele>262</ele>
        <time>2019-09-01T09:11:59.000Z</time>
      </trkpt>
      <trkpt lat="49.24354" lon="6.61819">
        <ele>262</ele>
        <time>2019-09-01T09:12:09.000Z</time>
      </trkpt>
      <trkpt lat="49.24344" lon="6.61821">
        <ele>262</ele>
        <time>2019-09-01T09:12:19.000Z</time>
      </trkpt>
      <trkpt lat="49.2433" lon="6.61828">
        <ele>259</ele>
        <time>2019-09-01T09:12:29.000Z</time>
      </trkpt>
      <trkpt lat="49.24315" lon="6.61834">
        <ele>251</ele>
        <time>2019-09-01T09:12:39.000Z</time>
      </trkpt>
      <trkpt lat="49.24307" lon="6.61826">
        <ele>255</ele>
        <time>2019-09-01T09:12:49.000Z</time>
      </trkpt>
      <trkpt lat="49.24302" lon="6.61807">
        <ele>255</ele>
        <time>2019-09-01T09:12:59.000Z</time>
      </trkpt>
      <trkpt lat="49.24292" lon="6.61785">
        <ele>254</ele>
        <time>2019-09-01T09:13:09.000Z</time>
      </trkpt>
      <trkpt lat="49.24288" lon="6.61763">
        <ele>254</ele>
        <time>2019-09-01T09:13:19.000Z</time>
      </trkpt>
      <trkpt lat="49.24284" lon="6.6174">
        <ele>257</ele>
        <time>2019-09-01T09:13:29.000Z</time>
      </trkpt>
      <trkpt lat="49.24284" lon="6.61727">
        <ele>257</ele>
        <time>2019-09-01T09:13:39.000Z</time>
      </trkpt>
      <trkpt lat="49.24282" lon="6.61708">
        <ele>258</ele>
        <time>2019-09-01T09:13:49.000Z</time>
      </trkpt>
      <trkpt lat="49.24279" lon="6.61678">
        <ele>256</ele>
        <time>2019-09-01T09:13:59.000Z</time>
      </trkpt>
      <trkpt lat="49.24276" lon="6.61658">
        <ele>258</ele>
        <time>2019-09-01T09:14:09.000Z</time>
      </trkpt>
      <trkpt lat="49.24271" lon="6.61636">
        <ele>259</ele>
        <time>2019-09-01T09:14:19.000Z</time>
      </trkpt>
      <trkpt lat="49.24268" lon="6.61614">
        <ele>260</ele>
        <time>2019-09-01T09:14:29.000Z</time>
      </trkpt>
      <trkpt lat="49.24265" lon="6.61588">
        <ele>258</ele>
        <time>2019-09-01T09:14:39.000Z</time>
      </trkpt>
      <trkpt lat="49.24261" lon="6.61571">
        <ele>260</ele>
        <time>2019-09-01T09:14:49.000Z</time>
      </trkpt>
      <trkpt lat="49.24258" lon="6.61557">
        <ele>262</ele>
        <time>2019-09-01T09:14:59.000Z</time>
      </trkpt>
      <trkpt lat="49.2425" lon="6.61535">
        <ele>247</ele>
        <time>2019-09-01T09:15:09.000Z</time>
      </trkpt>
      <trkpt lat="49.24243" lon="6.61522">
        <ele>248</ele>
        <time>2019-09-01T09:15:19.000Z</time>
      </trkpt>
      <trkpt lat="49.24237" lon="6.615">
        <ele>253</ele>
        <time>2019-09-01T09:15:29.000Z</time>
      </trkpt>
      <trkpt lat="49.24233" lon="6.6148">
        <ele>250</ele>
        <time>2019-09-01T09:15:39.000Z</time>
      </trkpt>
      <trkpt lat="49.24223" lon="6.61455">
        <ele>247</ele>
        <time>2019-09-01T09:15:49.000Z</time>
      </trkpt>
      <trkpt lat="49.24219" lon="6.61438">
        <ele>248</ele>
        <time>2019-09-01T09:15:59.000Z</time>
      </trkpt>
      <trkpt lat="49.24218" lon="6.6142">
        <ele>248</ele>
        <time>2019-09-01T09:16:09.000Z</time>
      </trkpt>
      <trkpt lat="49.24219" lon="6.61399">
        <ele>250</ele>
        <time>2019-09-01T09:16:19.000Z</time>
      </trkpt>
      <trkpt lat="49.24216" lon="6.61376">
        <ele>249</ele>
        <time>2019-09-01T09:16:29.000Z</time>
      </trkpt>
      <trkpt lat="49.24208" lon="6.61357">
        <ele>247</ele>
        <time>2019-09-01T09:16:39.000Z</time>
      </trkpt>
      <trkpt lat="49.24206" lon="6.61353">
        <ele>247</ele>
        <time>2019-09-01T09:16:49.000Z</time>
      </trkpt>
      <trkpt lat="49.24188" lon="6.6133">
        <ele>240</ele>
        <time>2019-09-01T09:16:59.000Z</time>
      </trkpt>
      <trkpt lat="49.24171" lon="6.61312">
        <ele>238</ele>
        <time>2019-09-01T09:17:09.000Z</time>
      </trkpt>
      <trkpt lat="49.24158" lon="6.61306">
        <ele>227</ele>
        <time>2019-09-01T09:17:19.000Z</time>
      </trkpt>
      <trkpt lat="49.24145" lon="6.61301">
        <ele>227</ele>
        <time>2019-09-01T09:17:29.000Z</time>
      </trkpt>
      <trkpt lat="49.2414" lon="6.61289">
        <ele>226</ele>
        <time>2019-09-01T09:17:39.000Z</time>
      </trkpt>
      <trkpt lat="49.24138" lon="6.61267">
        <ele>226</ele>
        <time>2019-09-01T09:17:49.000Z</time>
      </trkpt>
      <trkpt lat="49.24141" lon="6.61246">
        <ele>226</ele>
        <time>2019-09-01T09:17:59.000Z</time>
      </trkpt>
      <trkpt lat="49.24143" lon="6.61225">
        <ele>226</ele>
        <time>2019-09-01T09:18:09.000Z</time>
      </trkpt>
      <trkpt lat="49.24142" lon="6.61201">
        <ele>226</ele>
        <time>2019-09-01T09:18:19.000Z</time>
      </trkpt>
      <trkpt lat="49.24142" lon="6.6118">
        <ele>226</ele>
        <time>2019-09-01T09:18:29.000Z</time>
      </trkpt>
      <trkpt lat="49.24139" lon="6.61155">
        <ele>226</ele>
        <time>2019-09-01T09:18:39.000Z</time>
      </trkpt>
      <trkpt lat="49.24141" lon="6.61134">
        <ele>226</ele>
        <time>2019-09-01T09:18:49.000Z</time>
      </trkpt>
      <trkpt lat="49.24138" lon="6.61114">
        <ele>225</ele>
        <time>2019-09-01T09:18:59.000Z</time>
      </trkpt>
      <trkpt lat="49.24129" lon="6.61096">
        <ele>225</ele>
        <time>2019-09-01T09:19:09.000Z</time>
      </trkpt>
      <trkpt lat="49.24118" lon="6.61078">
        <ele>225</ele>
        <time>2019-09-01T09:19:19.000Z</time>
      </trkpt>
      <trkpt lat="49.24109" lon="6.61065">
        <ele>224</ele>
        <time>2019-09-01T09:19:29.000Z</time>
      </trkpt>
      <trkpt lat="49.24099" lon="6.61047">
        <ele>224</ele>
        <time>2019-09-01T09:19:39.000Z</time>
      </trkpt>
      <trkpt lat="49.24089" lon="6.6103">
        <ele>224</ele>
        <time>2019-09-01T09:19:49.000Z</time>
      </trkpt>
      <trkpt lat="49.24074" lon="6.61025">
        <ele>223</ele>
        <time>2019-09-01T09:19:59.000Z</time>
      </trkpt>
      <trkpt lat="49.24059" lon="6.61025">
        <ele>223</ele>
        <time>2019-09-01T09:20:09.000Z</time>
      </trkpt>
      <trkpt lat="49.24044" lon="6.61023">
        <ele>223</ele>
        <time>2019-09-01T09:20:19.000Z</time>
      </trkpt>
      <trkpt lat="49.24038" lon="6.61013">
        <ele>223</ele>
        <time>2019-09-01T09:20:29.000Z</time>
      </trkpt>
      <trkpt lat="49.24032" lon="6.60994">
        <ele>224</ele>
        <time>2019-09-01T09:20:39.000Z</time>
      </trkpt>
      <trkpt lat="49.24028" lon="6.60978">
        <ele>224</ele>
        <time>2019-09-01T09:20:49.000Z</time>
      </trkpt>
      <trkpt lat="49.24019" lon="6.60974">
        <ele>224</ele>
        <time>2019-09-01T09:20:59.000Z</time>
      </trkpt>
      <trkpt lat="49.24007" lon="6.60966">
        <ele>224</ele>
        <time>2019-09-01T09:21:09.000Z</time>
      </trkpt>
      <trkpt lat="49.23997" lon="6.60954">
        <ele>228</ele>
        <time>2019-09-01T09:21:19.000Z</time>
      </trkpt>
      <trkpt lat="49.23984" lon="6.6095">
        <ele>228</ele>
        <time>2019-09-01T09:21:29.000Z</time>
      </trkpt>
      <trkpt lat="49.23974" lon="6.60943">
        <ele>229</ele>
        <time>2019-09-01T09:21:39.000Z</time>
      </trkpt>
      <trkpt lat="49.23966" lon="6.60942">
        <ele>229</ele>
        <time>2019-09-01T09:21:49.000Z</time>
      </trkpt>
      <trkpt lat="49.23959" lon="6.60921">
        <ele>230</ele>
        <time>2019-09-01T09:21:59.000Z</time>
      </trkpt>
      <trkpt lat="49.23957" lon="6.60898">
        <ele>236</ele>
        <time>2019-09-01T09:22:09.000Z</time>
      </trkpt>
      <trkpt lat="49.2396" lon="6.6088">
        <ele>237</ele>
        <time>2019-09-01T09:22:19.000Z</time>
      </trkpt>
      <trkpt lat="49.23958" lon="6.60859">
        <ele>238</ele>
        <time>2019-09-01T09:22:29.000Z</time>
      </trkpt>
      <trkpt lat="49.2396" lon="6.60838">
        <ele>239</ele>
        <time>2019-09-01T09:22:39.000Z</time>
      </trkpt>
      <trkpt lat="49.23965" lon="6.60819">
        <ele>245</ele>
        <time>2019-09-01T09:22:49.000Z</time>
      </trkpt>
      <trkpt lat="49.23976" lon="6.608">
        <ele>244</ele>
        <time>2019-09-01T09:22:59.000Z</time>
      </trkpt>
      <trkpt lat="49.23977" lon="6.60777">
        <ele>245</ele>
        <time>2019-09-01T09:23:09.000Z</time>
      </trkpt>
      <trkpt lat="49.23978" lon="6.60756">
        <ele>243</ele>
        <time>2019-09-01T09:23:19.000Z</time>
      </trkpt>
      <trkpt lat="49.23983" lon="6.60739">
        <ele>247</ele>
        <time>2019-09-01T09:23:29.000Z</time>
      </trkpt>
      <trkpt lat="49.23989" lon="6.60721">
        <ele>250</ele>
        <time>2019-09-01T09:23:39.000Z</time>
      </trkpt>
      <trkpt lat="49.23993" lon="6.607">
        <ele>251</ele>
        <time>2019-09-01T09:23:49.000Z</time>
      </trkpt>
      <trkpt lat="49.23994" lon="6.60677">
        <ele>249</ele>
        <time>2019-09-01T09:23:59.000Z</time>
      </trkpt>
      <trkpt lat="49.23994" lon="6.60654">
        <ele>252</ele>
        <time>2019-09-01T09:24:09.000Z</time>
      </trkpt>
      <trkpt lat="49.23995" lon="6.60637">
        <ele>256</ele>
        <time>2019-09-01T09:24:19.000Z</time>
      </trkpt>
      <trkpt lat="49.23994" lon="6.60615">
        <ele>257</ele>
        <time>2019-09-01T09:24:29.000Z</time>
      </trkpt>
      <trkpt lat="49.23995" lon="6.60594">
        <ele>253</ele>
        <time>2019-09-01T09:24:39.000Z</time>
      </trkpt>
      <trkpt lat="49.23995" lon="6.60572">
        <ele>255</ele>
        <time>2019-09-01T09:24:49.000Z</time>
      </trkpt>
      <trkpt lat="49.23993" lon="6.60554">
        <ele>259</ele>
        <time>2019-09-01T09:24:59.000Z</time>
      </trkpt>
      <trkpt lat="49.23989" lon="6.60536">
        <ele>260</ele>
        <time>2019-09-01T09:25:09.000Z</time>
      </trkpt>
      <trkpt lat="49.23986" lon="6.60528">
        <ele>260</ele>
        <time>2019-09-01T09:25:19.000Z</time>
      </trkpt>
      <trkpt lat="49.23982" lon="6.60515">
        <ele>260</ele>
        <time>2019-09-01T09:25:29.000Z</time>
      </trkpt>
      <trkpt lat="49.23972" lon="6.60497">
        <ele>262</ele>
        <time>2019-09-01T09:25:39.000Z</time>
      </trkpt>
      <trkpt lat="49.23966" lon="6.60482">
        <ele>263</ele>
        <time>2019-09-01T09:25:49.000Z</time>
      </trkpt>
      <trkpt lat="49.23959" lon="6.60465">
        <ele>265</ele>
        <time>2019-09-01T09:25:59.000Z</time>
      </trkpt>
      <trkpt lat="49.23951" lon="6.60447">
        <ele>266</ele>
        <time>2019-09-01T09:26:09.000Z</time>
      </trkpt>
      <trkpt lat="49.23943" lon="6.60435">
        <ele>267</ele>
        <time>2019-09-01T09:26:19.000Z</time>
      </trkpt>
      <trkpt lat="49.23938" lon="6.60428">
        <ele>268</ele>
        <time>2019-09-01T09:26:29.000Z</time>
      </trkpt>
      <trkpt lat="49.23927" lon="6.60435">
        <ele>270</ele>
        <time>2019-09-01T09:26:39.000Z</time>
      </trkpt>
      <trkpt lat="49.2392" lon="6.60453">
        <ele>270</ele>
        <time>2019-09-01T09:26:49.000Z</time>
      </trkpt>
      <trkpt lat="49.23921" lon="6.60472">
        <ele>271</ele>
        <time>2019-09-01T09:26:59.000Z</time>
      </trkpt>
      <trkpt lat="49.23923" lon="6.60493">
        <ele>276</ele>
        <time>2019-09-01T09:27:09.000Z</time>
      </trkpt>
      <trkpt lat="49.23928" lon="6.60509">
        <ele>275</ele>
        <time>2019-09-01T09:27:19.000Z</time>
      </trkpt>
      <trkpt lat="49.2393" lon="6.60523">
        <ele>272</ele>
        <time>2019-09-01T09:27:29.000Z</time>
      </trkpt>
      <trkpt lat="49.2393" lon="6.60542">
        <ele>270</ele>
        <time>2019-09-01T09:27:39.000Z</time>
      </trkpt>
      <trkpt lat="49.2393" lon="6.6056">
        <ele>271</ele>
        <time>2019-09-01T09:27:49.000Z</time>
      </trkpt>
      <trkpt lat="49.23928" lon="6.60584">
        <ele>274</ele>
        <time>2019-09-01T09:27:59.000Z</time>
      </trkpt>
      <trkpt lat="49.23925" lon="6.606">
        <ele>272</ele>
        <time>2019-09-01T09:28:09.000Z</time>
      </trkpt>
      <trkpt lat="49.23922" lon="6.60616">
        <ele>269</ele>
        <time>2019-09-01T09:28:19.000Z</time>
      </trkpt>
      <trkpt lat="49.23918" lon="6.60634">
        <ele>269</ele>
        <time>2019-09-01T09:28:29.000Z</time>
      </trkpt>
      <trkpt lat="49.23915" lon="6.60657">
        <ele>279</ele>
        <time>2019-09-01T09:28:39.000Z</time>
      </trkpt>
      <trkpt lat="49.23909" lon="6.60671">
        <ele>278</ele>
        <time>2019-09-01T09:28:49.000Z</time>
      </trkpt>
      <trkpt lat="49.23904" lon="6.60694">
        <ele>279</ele>
        <time>2019-09-01T09:28:59.000Z</time>
      </trkpt>
      <trkpt lat="49.23897" lon="6.60708">
        <ele>278</ele>
        <time>2019-09-01T09:29:09.000Z</time>
      </trkpt>
      <trkpt lat="49.23892" lon="6.60723">
        <ele>278</ele>
        <time>2019-09-01T09:29:19.000Z</time>
      </trkpt>
      <trkpt lat="49.23881" lon="6.60731">
        <ele>279</ele>
        <time>2019-09-01T09:29:29.000Z</time>
      </trkpt>
      <trkpt lat="49.23871" lon="6.60735">
        <ele>280</ele>
        <time>2019-09-01T09:29:39.000Z</time>
      </trkpt>
      <trkpt lat="49.23861" lon="6.6073">
        <ele>280</ele>
        <time>2019-09-01T09:29:49.000Z</time>
      </trkpt>
      <trkpt lat="49.2385" lon="6.60722">
        <ele>281</ele>
        <time>2019-09-01T09:29:59.000Z</time>
      </trkpt>
      <trkpt lat="49.23841" lon="6.60714">
        <ele>281</ele>
        <time>2019-09-01T09:30:09.000Z</time>
      </trkpt>
      <trkpt lat="49.23827" lon="6.60704">
        <ele>285</ele>
        <time>2019-09-01T09:30:19.000Z</time>
      </trkpt>
      <trkpt lat="49.23819" lon="6.60692">
        <ele>285</ele>
        <time>2019-09-01T09:30:29.000Z</time>
      </trkpt>
      <trkpt lat="49.2381" lon="6.60676">
        <ele>285</ele>
        <time>2019-09-01T09:30:39.000Z</time>
      </trkpt>
      <trkpt lat="49.23801" lon="6.60655">
        <ele>287</ele>
        <time>2019-09-01T09:30:49.000Z</time>
      </trkpt>
      <trkpt lat="49.23795" lon="6.60635">
        <ele>287</ele>
        <time>2019-09-01T09:30:59.000Z</time>
      </trkpt>
      <trkpt lat="49.23791" lon="6.60614">
        <ele>288</ele>
        <time>2019-09-01T09:31:09.000Z</time>
      </trkpt>
      <trkpt lat="49.23787" lon="6.60597">
        <ele>288</ele>
        <time>2019-09-01T09:31:19.000Z</time>
      </trkpt>
      <trkpt lat="49.23784" lon="6.60579">
        <ele>290</ele>
        <time>2019-09-01T09:31:29.000Z</time>
      </trkpt>
      <trkpt lat="49.23777" lon="6.60559">
        <ele>290</ele>
        <time>2019-09-01T09:31:39.000Z</time>
      </trkpt>
      <trkpt lat="49.23773" lon="6.60539">
        <ele>291</ele>
        <time>2019-09-01T09:31:49.000Z</time>
      </trkpt>
      <trkpt lat="49.23769" lon="6.60521">
        <ele>291</ele>
        <time>2019-09-01T09:31:59.000Z</time>
      </trkpt>
      <trkpt lat="49.23764" lon="6.60505">
        <ele>292</ele>
        <time>2019-09-01T09:32:09.000Z</time>
      </trkpt>
      <trkpt lat="49.23762" lon="6.60488">
        <ele>293</ele>
        <time>2019-09-01T09:32:19.000Z</time>
      </trkpt>
      <trkpt lat="49.23757" lon="6.60471">
        <ele>293</ele>
        <time>2019-09-01T09:32:29.000Z</time>
      </trkpt>
      <trkpt lat="49.23748" lon="6.60458">
        <ele>297</ele>
        <time>2019-09-01T09:32:39.000Z</time>
      </trkpt>
      <trkpt lat="49.23734" lon="6.60451">
        <ele>297</ele>
        <time>2019-09-01T09:32:49.000Z</time>
      </trkpt>
      <trkpt lat="49.2372" lon="6.60449">
        <ele>297</ele>
        <time>2019-09-01T09:32:59.000Z</time>
      </trkpt>
      <trkpt lat="49.23705" lon="6.60454">
        <ele>297</ele>
        <time>2019-09-01T09:33:09.000Z</time>
      </trkpt>
      <trkpt lat="49.23695" lon="6.60468">
        <ele>297</ele>
        <time>2019-09-01T09:33:19.000Z</time>
      </trkpt>
      <trkpt lat="49.23685" lon="6.60481">
        <ele>298</ele>
        <time>2019-09-01T09:33:29.000Z</time>
      </trkpt>
      <trkpt lat="49.23674" lon="6.60493">
        <ele>298</ele>
        <time>2019-09-01T09:33:39.000Z</time>
      </trkpt>
      <trkpt lat="49.23664" lon="6.60506">
        <ele>299</ele>
        <time>2019-09-01T09:33:49.000Z</time>
      </trkpt>
      <trkpt lat="49.23653" lon="6.60519">
        <ele>299</ele>
        <time>2019-09-01T09:33:59.000Z</time>
      </trkpt>
      <trkpt lat="49.23643" lon="6.60533">
        <ele>299</ele>
        <time>2019-09-01T09:34:09.000Z</time>
      </trkpt>
      <trkpt lat="49.23633" lon="6.60546">
        <ele>299</ele>
        <time>2019-09-01T09:34:19.000Z</time>
      </trkpt>
      <trkpt lat="49.23624" lon="6.60559">
        <ele>299</ele>
        <time>2019-09-01T09:34:29.000Z</time>
      </trkpt>
      <trkpt lat="49.23615" lon="6.60573">
        <ele>299</ele>
        <time>2019-09-01T09:34:39.000Z</time>
      </trkpt>
      <trkpt lat="49.23605" lon="6.60584">
        <ele>299</ele>
        <time>2019-09-01T09:34:49.000Z</time>
      </trkpt>
      <trkpt lat="49.23595" lon="6.60597">
        <ele>299</ele>
        <time>2019-09-01T09:34:59.000Z</time>
      </trkpt>
      <trkpt lat="49.23585" lon="6.60607">
        <ele>299</ele>
        <time>2019-09-01T09:35:09.000Z</time>
      </trkpt>
      <trkpt lat="49.23573" lon="6.60617">
        <ele>302</ele>
        <time>2019-09-01T09:35:19.000Z</time>
      </trkpt>
      <trkpt lat="49.23562" lon="6.60631">
        <ele>302</ele>
        <time>2019-09-01T09:35:29.000Z</time>
      </trkpt>
      <trkpt lat="49.23552" lon="6.60645">
        <ele>302</ele>
        <time>2019-09-01T09:35:39.000Z</time>
      </trkpt>
      <trkpt lat="49.23541" lon="6.60658">
        <ele>303</ele>
        <time>2019-09-01T09:35:49.000Z</time>
      </trkpt>
      <trkpt lat="49.23532" lon="6.60668">
        <ele>303</ele>
        <time>2019-09-01T09:35:59.000Z</time>
      </trkpt>
      <trkpt lat="49.23521" lon="6.60679">
        <ele>303</ele>
        <time>2019-09-01T09:36:09.000Z</time>
      </trkpt>
      <trkpt lat="49.2351" lon="6.60689">
        <ele>303</ele>
        <time>2019-09-01T09:36:19.000Z</time>
      </trkpt>
      <trkpt lat="49.235" lon="6.60701">
        <ele>307</ele>
        <time>2019-09-01T09:36:29.000Z</time>
      </trkpt>
      <trkpt lat="49.23491" lon="6.60714">
        <ele>306</ele>
        <time>2019-09-01T09:36:39.000Z</time>
      </trkpt>
      <trkpt lat="49.23481" lon="6.60725">
        <ele>306</ele>
        <time>2019-09-01T09:36:49.000Z</time>
      </trkpt>
      <trkpt lat="49.23471" lon="6.60735">
        <ele>307</ele>
        <time>2019-09-01T09:36:59.000Z</time>
      </trkpt>
      <trkpt lat="49.2346" lon="6.60746">
        <ele>307</ele>
        <time>2019-09-01T09:37:09.000Z</time>
      </trkpt>
      <trkpt lat="49.23449" lon="6.60758">
        <ele>308</ele>
        <time>2019-09-01T09:37:19.000Z</time>
      </trkpt>
      <trkpt lat="49.23436" lon="6.60763">
        <ele>309</ele>
        <time>2019-09-01T09:37:29.000Z</time>
      </trkpt>
      <trkpt lat="49.23427" lon="6.60765">
        <ele>310</ele>
        <time>2019-09-01T09:37:39.000Z</time>
      </trkpt>
      <trkpt lat="49.23413" lon="6.6076">
        <ele>312</ele>
        <time>2019-09-01T09:37:49.000Z</time>
      </trkpt>
      <trkpt lat="49.23401" lon="6.60749">
        <ele>312</ele>
        <time>2019-09-01T09:37:59.000Z</time>
      </trkpt>
      <trkpt lat="49.23389" lon="6.60738">
        <ele>311</ele>
        <time>2019-09-01T09:38:09.000Z</time>
      </trkpt>
      <trkpt lat="49.23379" lon="6.60726">
        <ele>311</ele>
        <time>2019-09-01T09:38:19.000Z</time>
      </trkpt>
      <trkpt lat="49.23367" lon="6.60713">
        <ele>311</ele>
        <time>2019-09-01T09:38:29.000Z</time>
      </trkpt>
      <trkpt lat="49.23357" lon="6.60702">
        <ele>310</ele>
        <time>2019-09-01T09:38:39.000Z</time>
      </trkpt>
      <trkpt lat="49.23347" lon="6.60692">
        <ele>310</ele>
        <time>2019-09-01T09:38:49.000Z</time>
      </trkpt>
      <trkpt lat="49.23333" lon="6.60679">
        <ele>308</ele>
        <time>2019-09-01T09:38:59.000Z</time>
      </trkpt>
      <trkpt lat="49.23322" lon="6.60669">
        <ele>308</ele>
        <time>2019-09-01T09:39:09.000Z</time>
      </trkpt>
      <trkpt lat="49.23311" lon="6.60665">
        <ele>305</ele>
        <time>2019-09-01T09:39:19.000Z</time>
      </trkpt>
      <trkpt lat="49.23297" lon="6.60669">
        <ele>307</ele>
        <time>2019-09-01T09:39:29.000Z</time>
      </trkpt>
      <trkpt lat="49.23284" lon="6.60677">
        <ele>306</ele>
        <time>2019-09-01T09:39:39.000Z</time>
      </trkpt>
      <trkpt lat="49.23273" lon="6.60681">
        <ele>306</ele>
        <time>2019-09-01T09:39:49.000Z</time>
      </trkpt>
      <trkpt lat="49.23259" lon="6.60678">
        <ele>305</ele>
        <time>2019-09-01T09:39:59.000Z</time>
      </trkpt>
      <trkpt lat="49.23248" lon="6.60673">
        <ele>304</ele>
        <time>2019-09-01T09:40:09.000Z</time>
      </trkpt>
      <trkpt lat="49.23238" lon="6.60672">
        <ele>304</ele>
        <time>2019-09-01T09:40:19.000Z</time>
      </trkpt>
      <trkpt lat="49.23225" lon="6.60662">
        <ele>302</ele>
        <time>2019-09-01T09:40:29.000Z</time>
      </trkpt>
      <trkpt lat="49.2321" lon="6.60652">
        <ele>303</ele>
        <time>2019-09-01T09:40:39.000Z</time>
      </trkpt>
      <trkpt lat="49.23201" lon="6.60636">
        <ele>302</ele>
        <time>2019-09-01T09:40:49.000Z</time>
      </trkpt>
      <trkpt lat="49.23195" lon="6.60622">
        <ele>302</ele>
        <time>2019-09-01T09:40:59.000Z</time>
      </trkpt>
      <trkpt lat="49.23185" lon="6.60599">
        <ele>302</ele>
        <time>2019-09-01T09:41:09.000Z</time>
      </trkpt>
      <trkpt lat="49.23175" lon="6.60592">
        <ele>302</ele>
        <time>2019-09-01T09:41:19.000Z</time>
      </trkpt>
      <trkpt lat="49.23163" lon="6.6058">
        <ele>303</ele>
        <time>2019-09-01T09:41:29.000Z</time>
      </trkpt>
      <trkpt lat="49.23155" lon="6.60569">
        <ele>302</ele>
        <time>2019-09-01T09:41:39.000Z</time>
      </trkpt>
      <trkpt lat="49.23146" lon="6.6055">
        <ele>300</ele>
        <time>2019-09-01T09:41:49.000Z</time>
      </trkpt>
      <trkpt lat="49.23137" lon="6.60524">
        <ele>298</ele>
        <time>2019-09-01T09:41:59.000Z</time>
      </trkpt>
      <trkpt lat="49.23126" lon="6.60513">
        <ele>299</ele>
        <time>2019-09-01T09:42:09.000Z</time>
      </trkpt>
      <trkpt lat="49.23119" lon="6.60499">
        <ele>291</ele>
        <time>2019-09-01T09:42:19.000Z</time>
      </trkpt>
      <trkpt lat="49.23116" lon="6.60489">
        <ele>291</ele>
        <time>2019-09-01T09:42:29.000Z</time>
      </trkpt>
      <trkpt lat="49.2311" lon="6.60475">
        <ele>290</ele>
        <time>2019-09-01T09:42:39.000Z</time>
      </trkpt>
      <trkpt lat="49.23102" lon="6.60463">
        <ele>290</ele>
        <time>2019-09-01T09:42:49.000Z</time>
      </trkpt>
      <trkpt lat="49.23091" lon="6.60449">
        <ele>289</ele>
        <time>2019-09-01T09:42:59.000Z</time>
      </trkpt>
      <trkpt lat="49.23082" lon="6.60435">
        <ele>290</ele>
        <time>2019-09-01T09:43:09.000Z</time>
      </trkpt>
      <trkpt lat="49.23071" lon="6.60414">
        <ele>281</ele>
        <time>2019-09-01T09:43:19.000Z</time>
      </trkpt>
      <trkpt lat="49.23063" lon="6.604">
        <ele>277</ele>
        <time>2019-09-01T09:43:29.000Z</time>
      </trkpt>
      <trkpt lat="49.23056" lon="6.60386">
        <ele>274</ele>
        <time>2019-09-01T09:43:39.000Z</time>
      </trkpt>
      <trkpt lat="49.23047" lon="6.60374">
        <ele>271</ele>
        <time>2019-09-01T09:43:49.000Z</time>
      </trkpt>
      <trkpt lat="49.23036" lon="6.60368">
        <ele>271</ele>
        <time>2019-09-01T09:43:59.000Z</time>
      </trkpt>
      <trkpt lat="49.23022" lon="6.60357">
        <ele>269</ele>
        <time>2019-09-01T09:44:09.000Z</time>
      </trkpt>
      <trkpt lat="49.23007" lon="6.60349">
        <ele>267</ele>
        <time>2019-09-01T09:44:19.000Z</time>
      </trkpt>
      <trkpt lat="49.22998" lon="6.60353">
        <ele>260</ele>
        <time>2019-09-01T09:44:29.000Z</time>
      </trkpt>
      <trkpt lat="49.22989" lon="6.60355">
        <ele>259</ele>
        <time>2019-09-01T09:44:39.000Z</time>
      </trkpt>
      <trkpt lat="49.22978" lon="6.60364">
        <ele>258</ele>
        <time>2019-09-01T09:44:49.000Z</time>
      </trkpt>
      <trkpt lat="49.22971" lon="6.60375">
        <ele>258</ele>
        <time>2019-09-01T09:44:59.000Z</time>
      </trkpt>
      <trkpt lat="49.22965" lon="6.60385">
        <ele>258</ele>
        <time>2019-09-01T09:45:09.000Z</time>
      </trkpt>
      <trkpt lat="49.22958" lon="6.60398">
        <ele>257</ele>
        <time>2019-09-01T09:45:19.000Z</time>
      </trkpt>
      <trkpt lat="49.22949" lon="6.60413">
        <ele>256</ele>
        <time>2019-09-01T09:45:29.000Z</time>
      </trkpt>
      <trkpt lat="49.22942" lon="6.60423">
        <ele>261</ele>
        <time>2019-09-01T09:45:39.000Z</time>
      </trkpt>
      <trkpt lat="49.22932" lon="6.60435">
        <ele>260</ele>
        <time>2019-09-01T09:45:49.000Z</time>
      </trkpt>
      <trkpt lat="49.22925" lon="6.60449">
        <ele>262</ele>
        <time>2019-09-01T09:45:59.000Z</time>
      </trkpt>
      <trkpt lat="49.22915" lon="6.60469">
        <ele>247</ele>
        <time>2019-09-01T09:46:09.000Z</time>
      </trkpt>
      <trkpt lat="49.22904" lon="6.60483">
        <ele>249</ele>
        <time>2019-09-01T09:46:19.000Z</time>
      </trkpt>
      <trkpt lat="49.22891" lon="6.60498">
        <ele>247</ele>
        <time>2019-09-01T09:46:29.000Z</time>
      </trkpt>
      <trkpt lat="49.22886" lon="6.60506">
        <ele>249</ele>
        <time>2019-09-01T09:46:39.000Z</time>
      </trkpt>
      <trkpt lat="49.22878" lon="6.60517">
        <ele>247</ele>
        <time>2019-09-01T09:46:49.000Z</time>
      </trkpt>
      <trkpt lat="49.22867" lon="6.60523">
        <ele>245</ele>
        <time>2019-09-01T09:46:59.000Z</time>
      </trkpt>
      <trkpt lat="49.22849" lon="6.6053">
        <ele>242</ele>
        <time>2019-09-01T09:47:09.000Z</time>
      </trkpt>
      <trkpt lat="49.22832" lon="6.60538">
        <ele>228</ele>
        <time>2019-09-01T09:47:19.000Z</time>
      </trkpt>
      <trkpt lat="49.22818" lon="6.60543">
        <ele>228</ele>
        <time>2019-09-01T09:47:29.000Z</time>
      </trkpt>
      <trkpt lat="49.22807" lon="6.60553">
        <ele>227</ele>
        <time>2019-09-01T09:47:39.000Z</time>
      </trkpt>
      <trkpt lat="49.22803" lon="6.60567">
        <ele>227</ele>
        <time>2019-09-01T09:47:49.000Z</time>
      </trkpt>
      <trkpt lat="49.22803" lon="6.6057">
        <ele>228</ele>
        <time>2019-09-01T09:47:59.000Z</time>
      </trkpt>
      <trkpt lat="49.22801" lon="6.60575">
        <ele>227</ele>
        <time>2019-09-01T09:48:31.000Z</time>
      </trkpt>
      <trkpt lat="49.22799" lon="6.6058">
        <ele>227</ele>
        <time>2019-09-01T09:50:33.000Z</time>
      </trkpt>
      <trkpt lat="49.228" lon="6.60584">
        <ele>228</ele>
        <time>2019-09-01T09:50:48.000Z</time>
      </trkpt>
      <trkpt lat="49.22801" lon="6.60605">
        <ele>229</ele>
        <time>2019-09-01T09:50:58.000Z</time>
      </trkpt>
      <trkpt lat="49.22796" lon="6.6063">
        <ele>228</ele>
        <time>2019-09-01T09:51:08.000Z</time>
      </trkpt>
      <trkpt lat="49.22794" lon="6.60654">
        <ele>229</ele>
        <time>2019-09-01T09:51:18.000Z</time>
      </trkpt>
      <trkpt lat="49.22793" lon="6.60681">
        <ele>230</ele>
        <time>2019-09-01T09:51:28.000Z</time>
      </trkpt>
      <trkpt lat="49.22791" lon="6.60705">
        <ele>231</ele>
        <time>2019-09-01T09:51:38.000Z</time>
      </trkpt>
      <trkpt lat="49.2279" lon="6.60735">
        <ele>231</ele>
        <time>2019-09-01T09:51:48.000Z</time>
      </trkpt>
      <trkpt lat="49.22793" lon="6.60763">
        <ele>233</ele>
        <time>2019-09-01T09:51:58.000Z</time>
      </trkpt>
      <trkpt lat="49.22796" lon="6.60787">
        <ele>233</ele>
        <time>2019-09-01T09:52:08.000Z</time>
      </trkpt>
      <trkpt lat="49.228" lon="6.60811">
        <ele>233</ele>
        <time>2019-09-01T09:52:18.000Z</time>
      </trkpt>
      <trkpt lat="49.22802" lon="6.60837">
        <ele>232</ele>
        <time>2019-09-01T09:52:28.000Z</time>
      </trkpt>
      <trkpt lat="49.22804" lon="6.6086">
        <ele>232</ele>
        <time>2019-09-01T09:52:38.000Z</time>
      </trkpt>
      <trkpt lat="49.22805" lon="6.60882">
        <ele>231</ele>
        <time>2019-09-01T09:52:48.000Z</time>
      </trkpt>
      <trkpt lat="49.22806" lon="6.60908">
        <ele>231</ele>
        <time>2019-09-01T09:52:58.000Z</time>
      </trkpt>
      <trkpt lat="49.22809" lon="6.60932">
        <ele>228</ele>
        <time>2019-09-01T09:53:08.000Z</time>
      </trkpt>
      <trkpt lat="49.22809" lon="6.60955">
        <ele>227</ele>
        <time>2019-09-01T09:53:18.000Z</time>
      </trkpt>
      <trkpt lat="49.22813" lon="6.60983">
        <ele>227</ele>
        <time>2019-09-01T09:53:28.000Z</time>
      </trkpt>
      <trkpt lat="49.22815" lon="6.61009">
        <ele>226</ele>
        <time>2019-09-01T09:53:38.000Z</time>
      </trkpt>
      <trkpt lat="49.22819" lon="6.61027">
        <ele>225</ele>
        <time>2019-09-01T09:53:48.000Z</time>
      </trkpt>
      <trkpt lat="49.22826" lon="6.61046">
        <ele>225</ele>
        <time>2019-09-01T09:53:58.000Z</time>
      </trkpt>
      <trkpt lat="49.2284" lon="6.61047">
        <ele>235</ele>
        <time>2019-09-01T09:54:08.000Z</time>
      </trkpt>
      <trkpt lat="49.22852" lon="6.61046">
        <ele>236</ele>
        <time>2019-09-01T09:54:18.000Z</time>
      </trkpt>
      <trkpt lat="49.22862" lon="6.61046">
        <ele>237</ele>
        <time>2019-09-01T09:54:28.000Z</time>
      </trkpt>
      <trkpt lat="49.2287" lon="6.61046">
        <ele>238</ele>
        <time>2019-09-01T09:54:38.000Z</time>
      </trkpt>
      <trkpt lat="49.22883" lon="6.61048">
        <ele>240</ele>
        <time>2019-09-01T09:54:48.000Z</time>
      </trkpt>
      <trkpt lat="49.22887" lon="6.61063">
        <ele>240</ele>
        <time>2019-09-01T09:54:58.000Z</time>
      </trkpt>
      <trkpt lat="49.22891" lon="6.61081">
        <ele>240</ele>
        <time>2019-09-01T09:55:08.000Z</time>
      </trkpt>
      <trkpt lat="49.22894" lon="6.61099">
        <ele>237</ele>
        <time>2019-09-01T09:55:18.000Z</time>
      </trkpt>
      <trkpt lat="49.229" lon="6.61116">
        <ele>236</ele>
        <time>2019-09-01T09:55:28.000Z</time>
      </trkpt>
      <trkpt lat="49.22906" lon="6.61136">
        <ele>235</ele>
        <time>2019-09-01T09:55:38.000Z</time>
      </trkpt>
      <trkpt lat="49.22909" lon="6.61156">
        <ele>236</ele>
        <time>2019-09-01T09:55:48.000Z</time>
      </trkpt>
      <trkpt lat="49.22906" lon="6.61183">
        <ele>233</ele>
        <time>2019-09-01T09:55:58.000Z</time>
      </trkpt>
      <trkpt lat="49.22905" lon="6.61205">
        <ele>231</ele>
        <time>2019-09-01T09:56:08.000Z</time>
      </trkpt>
      <trkpt lat="49.22904" lon="6.61227">
        <ele>231</ele>
        <time>2019-09-01T09:56:18.000Z</time>
      </trkpt>
      <trkpt lat="49.22906" lon="6.61246">
        <ele>234</ele>
        <time>2019-09-01T09:56:28.000Z</time>
      </trkpt>
      <trkpt lat="49.2291" lon="6.61265">
        <ele>232</ele>
        <time>2019-09-01T09:56:38.000Z</time>
      </trkpt>
      <trkpt lat="49.22914" lon="6.61288">
        <ele>229</ele>
        <time>2019-09-01T09:56:48.000Z</time>
      </trkpt>
      <trkpt lat="49.22917" lon="6.61312">
        <ele>241</ele>
        <time>2019-09-01T09:56:58.000Z</time>
      </trkpt>
      <trkpt lat="49.22925" lon="6.61335">
        <ele>237</ele>
        <time>2019-09-01T09:57:08.000Z</time>
      </trkpt>
      <trkpt lat="49.22931" lon="6.61356">
        <ele>240</ele>
        <time>2019-09-01T09:57:18.000Z</time>
      </trkpt>
      <trkpt lat="49.22935" lon="6.61374">
        <ele>241</ele>
        <time>2019-09-01T09:57:28.000Z</time>
      </trkpt>
      <trkpt lat="49.22932" lon="6.61395">
        <ele>239</ele>
        <time>2019-09-01T09:57:38.000Z</time>
      </trkpt>
      <trkpt lat="49.22935" lon="6.61417">
        <ele>236</ele>
        <time>2019-09-01T09:57:48.000Z</time>
      </trkpt>
      <trkpt lat="49.22936" lon="6.61437">
        <ele>238</ele>
        <time>2019-09-01T09:57:58.000Z</time>
      </trkpt>
      <trkpt lat="49.2294" lon="6.61456">
        <ele>239</ele>
        <time>2019-09-01T09:58:08.000Z</time>
      </trkpt>
      <trkpt lat="49.22943" lon="6.61475">
        <ele>239</ele>
        <time>2019-09-01T09:58:18.000Z</time>
      </trkpt>
      <trkpt lat="49.22942" lon="6.61493">
        <ele>238</ele>
        <time>2019-09-01T09:58:28.000Z</time>
      </trkpt>
      <trkpt lat="49.2294" lon="6.61512">
        <ele>239</ele>
        <time>2019-09-01T09:58:38.000Z</time>
      </trkpt>
      <trkpt lat="49.22939" lon="6.6153">
        <ele>240</ele>
        <time>2019-09-01T09:58:48.000Z</time>
      </trkpt>
      <trkpt lat="49.22941" lon="6.61553">
        <ele>241</ele>
        <time>2019-09-01T09:58:58.000Z</time>
      </trkpt>
      <trkpt lat="49.22942" lon="6.61575">
        <ele>240</ele>
        <time>2019-09-01T09:59:08.000Z</time>
      </trkpt>
      <trkpt lat="49.22944" lon="6.61598">
        <ele>243</ele>
        <time>2019-09-01T09:59:18.000Z</time>
      </trkpt>
      <trkpt lat="49.22949" lon="6.61615">
        <ele>244</ele>
        <time>2019-09-01T09:59:28.000Z</time>
      </trkpt>
      <trkpt lat="49.2295" lon="6.61639">
        <ele>245</ele>
        <time>2019-09-01T09:59:38.000Z</time>
      </trkpt>
      <trkpt lat="49.22946" lon="6.61661">
        <ele>243</ele>
        <time>2019-09-01T09:59:48.000Z</time>
      </trkpt>
      <trkpt lat="49.22929" lon="6.61666">
        <ele>237</ele>
        <time>2019-09-01T09:59:58.000Z</time>
      </trkpt>
      <trkpt lat="49.22915" lon="6.61667">
        <ele>231</ele>
        <time>2019-09-01T10:00:08.000Z</time>
      </trkpt>
      <trkpt lat="49.22902" lon="6.61669">
        <ele>228</ele>
        <time>2019-09-01T10:00:18.000Z</time>
      </trkpt>
      <trkpt lat="49.22889" lon="6.61668">
        <ele>226</ele>
        <time>2019-09-01T10:00:28.000Z</time>
      </trkpt>
      <trkpt lat="49.22881" lon="6.61677">
        <ele>225</ele>
        <time>2019-09-01T10:00:38.000Z</time>
      </trkpt>
      <trkpt lat="49.22881" lon="6.61689">
        <ele>225</ele>
        <time>2019-09-01T10:00:48.000Z</time>
      </trkpt>
      <trkpt lat="49.22878" lon="6.61707">
        <ele>224</ele>
        <time>2019-09-01T10:00:58.000Z</time>
      </trkpt>
      <trkpt lat="49.22875" lon="6.6173">
        <ele>225</ele>
        <time>2019-09-01T10:01:08.000Z</time>
      </trkpt>
      <trkpt lat="49.22874" lon="6.61751">
        <ele>225</ele>
        <time>2019-09-01T10:01:18.000Z</time>
      </trkpt>
      <trkpt lat="49.22874" lon="6.61769">
        <ele>225</ele>
        <time>2019-09-01T10:01:28.000Z</time>
      </trkpt>
      <trkpt lat="49.22875" lon="6.61786">
        <ele>225</ele>
        <time>2019-09-01T10:01:38.000Z</time>
      </trkpt>
      <trkpt lat="49.22876" lon="6.61805">
        <ele>224</ele>
        <time>2019-09-01T10:01:48.000Z</time>
      </trkpt>
      <trkpt lat="49.22874" lon="6.61826">
        <ele>224</ele>
        <time>2019-09-01T10:01:58.000Z</time>
      </trkpt>
      <trkpt lat="49.22875" lon="6.61848">
        <ele>224</ele>
        <time>2019-09-01T10:02:08.000Z</time>
      </trkpt>
      <trkpt lat="49.22874" lon="6.61869">
        <ele>225</ele>
        <time>2019-09-01T10:02:18.000Z</time>
      </trkpt>
      <trkpt lat="49.22868" lon="6.61887">
        <ele>224</ele>
        <time>2019-09-01T10:02:28.000Z</time>
      </trkpt>
      <trkpt lat="49.22862" lon="6.61892">
        <ele>223</ele>
        <time>2019-09-01T10:02:38.000Z</time>
      </trkpt>
      <trkpt lat="49.22847" lon="6.61898">
        <ele>221</ele>
        <time>2019-09-01T10:02:48.000Z</time>
      </trkpt>
      <trkpt lat="49.22833" lon="6.61898">
        <ele>216</ele>
        <time>2019-09-01T10:02:58.000Z</time>
      </trkpt>
      <trkpt lat="49.22821" lon="6.61897">
        <ele>216</ele>
        <time>2019-09-01T10:03:08.000Z</time>
      </trkpt>
      <trkpt lat="49.2281" lon="6.61893">
        <ele>216</ele>
        <time>2019-09-01T10:03:18.000Z</time>
      </trkpt>
      <trkpt lat="49.22797" lon="6.61889">
        <ele>216</ele>
        <time>2019-09-01T10:03:28.000Z</time>
      </trkpt>
      <trkpt lat="49.22784" lon="6.61889">
        <ele>216</ele>
        <time>2019-09-01T10:03:38.000Z</time>
      </trkpt>
      <trkpt lat="49.22771" lon="6.61887">
        <ele>216</ele>
        <time>2019-09-01T10:03:48.000Z</time>
      </trkpt>
      <trkpt lat="49.22761" lon="6.61884">
        <ele>216</ele>
        <time>2019-09-01T10:03:58.000Z</time>
      </trkpt>
      <trkpt lat="49.2275" lon="6.61878">
        <ele>216</ele>
        <time>2019-09-01T10:04:08.000Z</time>
      </trkpt>
      <trkpt lat="49.22743" lon="6.61867">
        <ele>216</ele>
        <time>2019-09-01T10:04:18.000Z</time>
      </trkpt>
      <trkpt lat="49.22741" lon="6.61847">
        <ele>216</ele>
        <time>2019-09-01T10:04:28.000Z</time>
      </trkpt>
      <trkpt lat="49.22741" lon="6.61824">
        <ele>215</ele>
        <time>2019-09-01T10:04:38.000Z</time>
      </trkpt>
      <trkpt lat="49.22738" lon="6.61803">
        <ele>216</ele>
        <time>2019-09-01T10:04:48.000Z</time>
      </trkpt>
      <trkpt lat="49.22734" lon="6.61779">
        <ele>216</ele>
        <time>2019-09-01T10:04:58.000Z</time>
      </trkpt>
      <trkpt lat="49.22736" lon="6.61759">
        <ele>216</ele>
        <time>2019-09-01T10:05:08.000Z</time>
      </trkpt>
      <trkpt lat="49.22734" lon="6.61738">
        <ele>216</ele>
        <time>2019-09-01T10:05:18.000Z</time>
      </trkpt>
      <trkpt lat="49.22737" lon="6.61718">
        <ele>216</ele>
        <time>2019-09-01T10:05:28.000Z</time>
      </trkpt>
      <trkpt lat="49.22735" lon="6.61699">
        <ele>216</ele>
        <time>2019-09-01T10:05:38.000Z</time>
      </trkpt>
      <trkpt lat="49.22738" lon="6.6168">
        <ele>216</ele>
        <time>2019-09-01T10:05:48.000Z</time>
      </trkpt>
      <trkpt lat="49.22741" lon="6.61658">
        <ele>216</ele>
        <time>2019-09-01T10:05:58.000Z</time>
      </trkpt>
      <trkpt lat="49.2274" lon="6.61638">
        <ele>216</ele>
        <time>2019-09-01T10:06:08.000Z</time>
      </trkpt>
      <trkpt lat="49.2274" lon="6.61616">
        <ele>217</ele>
        <time>2019-09-01T10:06:18.000Z</time>
      </trkpt>
      <trkpt lat="49.22738" lon="6.61595">
        <ele>216</ele>
        <time>2019-09-01T10:06:28.000Z</time>
      </trkpt>
      <trkpt lat="49.22737" lon="6.61576">
        <ele>217</ele>
        <time>2019-09-01T10:06:38.000Z</time>
      </trkpt>
      <trkpt lat="49.22739" lon="6.61551">
        <ele>217</ele>
        <time>2019-09-01T10:06:48.000Z</time>
      </trkpt>
      <trkpt lat="49.22738" lon="6.6153">
        <ele>218</ele>
        <time>2019-09-01T10:06:58.000Z</time>
      </trkpt>
      <trkpt lat="49.22736" lon="6.61507">
        <ele>218</ele>
        <time>2019-09-01T10:07:08.000Z</time>
      </trkpt>
      <trkpt lat="49.22729" lon="6.61482">
        <ele>218</ele>
        <time>2019-09-01T10:07:18.000Z</time>
      </trkpt>
      <trkpt lat="49.22726" lon="6.61461">
        <ele>218</ele>
        <time>2019-09-01T10:07:28.000Z</time>
      </trkpt>
      <trkpt lat="49.22726" lon="6.61438">
        <ele>218</ele>
        <time>2019-09-01T10:07:38.000Z</time>
      </trkpt>
      <trkpt lat="49.22722" lon="6.61415">
        <ele>217</ele>
        <time>2019-09-01T10:07:48.000Z</time>
      </trkpt>
      <trkpt lat="49.22722" lon="6.61395">
        <ele>217</ele>
        <time>2019-09-01T10:07:58.000Z</time>
      </trkpt>
      <trkpt lat="49.22724" lon="6.61375">
        <ele>217</ele>
        <time>2019-09-01T10:08:08.000Z</time>
      </trkpt>
      <trkpt lat="49.22725" lon="6.61356">
        <ele>216</ele>
        <time>2019-09-01T10:08:18.000Z</time>
      </trkpt>
      <trkpt lat="49.22717" lon="6.61328">
        <ele>216</ele>
        <time>2019-09-01T10:08:28.000Z</time>
      </trkpt>
      <trkpt lat="49.22716" lon="6.61302">
        <ele>217</ele>
        <time>2019-09-01T10:08:38.000Z</time>
      </trkpt>
      <trkpt lat="49.22712" lon="6.6128">
        <ele>217</ele>
        <time>2019-09-01T10:08:48.000Z</time>
      </trkpt>
      <trkpt lat="49.22711" lon="6.61262">
        <ele>218</ele>
        <time>2019-09-01T10:08:58.000Z</time>
      </trkpt>
      <trkpt lat="49.22714" lon="6.61242">
        <ele>219</ele>
        <time>2019-09-01T10:09:08.000Z</time>
      </trkpt>
      <trkpt lat="49.22718" lon="6.61224">
        <ele>219</ele>
        <time>2019-09-01T10:09:18.000Z</time>
      </trkpt>
      <trkpt lat="49.22721" lon="6.61204">
        <ele>220</ele>
        <time>2019-09-01T10:09:28.000Z</time>
      </trkpt>
      <trkpt lat="49.2272" lon="6.61188">
        <ele>220</ele>
        <time>2019-09-01T10:09:38.000Z</time>
      </trkpt>
      <trkpt lat="49.2271" lon="6.61163">
        <ele>221</ele>
        <time>2019-09-01T10:09:48.000Z</time>
      </trkpt>
      <trkpt lat="49.22707" lon="6.61141">
        <ele>221</ele>
        <time>2019-09-01T10:09:58.000Z</time>
      </trkpt>
      <trkpt lat="49.22708" lon="6.61122">
        <ele>221</ele>
        <time>2019-09-01T10:10:08.000Z</time>
      </trkpt>
      <trkpt lat="49.22708" lon="6.61103">
        <ele>221</ele>
        <time>2019-09-01T10:10:18.000Z</time>
      </trkpt>
      <trkpt lat="49.22706" lon="6.61082">
        <ele>221</ele>
        <time>2019-09-01T10:10:28.000Z</time>
      </trkpt>
      <trkpt lat="49.22698" lon="6.61056">
        <ele>221</ele>
        <time>2019-09-01T10:10:38.000Z</time>
      </trkpt>
      <trkpt lat="49.22697" lon="6.61034">
        <ele>221</ele>
        <time>2019-09-01T10:10:48.000Z</time>
      </trkpt>
      <trkpt lat="49.22691" lon="6.61014">
        <ele>221</ele>
        <time>2019-09-01T10:10:58.000Z</time>
      </trkpt>
      <trkpt lat="49.22686" lon="6.60993">
        <ele>223</ele>
        <time>2019-09-01T10:11:08.000Z</time>
      </trkpt>
      <trkpt lat="49.22683" lon="6.60972">
        <ele>223</ele>
        <time>2019-09-01T10:11:18.000Z</time>
      </trkpt>
      <trkpt lat="49.22681" lon="6.60952">
        <ele>223</ele>
        <time>2019-09-01T10:11:28.000Z</time>
      </trkpt>
      <trkpt lat="49.22678" lon="6.60937">
        <ele>224</ele>
        <time>2019-09-01T10:11:38.000Z</time>
      </trkpt>
      <trkpt lat="49.22673" lon="6.60922">
        <ele>224</ele>
        <time>2019-09-01T10:11:48.000Z</time>
      </trkpt>
      <trkpt lat="49.22656" lon="6.60894">
        <ele>225</ele>
        <time>2019-09-01T10:11:58.000Z</time>
      </trkpt>
      <trkpt lat="49.22647" lon="6.60875">
        <ele>225</ele>
        <time>2019-09-01T10:12:08.000Z</time>
      </trkpt>
      <trkpt lat="49.22642" lon="6.60858">
        <ele>225</ele>
        <time>2019-09-01T10:12:18.000Z</time>
      </trkpt>
      <trkpt lat="49.22636" lon="6.60841">
        <ele>225</ele>
        <time>2019-09-01T10:12:28.000Z</time>
      </trkpt>
      <trkpt lat="49.2263" lon="6.60826">
        <ele>225</ele>
        <time>2019-09-01T10:12:38.000Z</time>
      </trkpt>
      <trkpt lat="49.22632" lon="6.6081">
        <ele>225</ele>
        <time>2019-09-01T10:12:48.000Z</time>
      </trkpt>
      <trkpt lat="49.22625" lon="6.60786">
        <ele>225</ele>
        <time>2019-09-01T10:12:58.000Z</time>
      </trkpt>
      <trkpt lat="49.22616" lon="6.60767">
        <ele>225</ele>
        <time>2019-09-01T10:13:08.000Z</time>
      </trkpt>
      <trkpt lat="49.22609" lon="6.60746">
        <ele>225</ele>
        <time>2019-09-01T10:13:18.000Z</time>
      </trkpt>
      <trkpt lat="49.22603" lon="6.60724">
        <ele>225</ele>
        <time>2019-09-01T10:13:28.000Z</time>
      </trkpt>
      <trkpt lat="49.226" lon="6.60705">
        <ele>225</ele>
        <time>2019-09-01T10:13:38.000Z</time>
      </trkpt>
      <trkpt lat="49.22598" lon="6.60685">
        <ele>225</ele>
        <time>2019-09-01T10:13:48.000Z</time>
      </trkpt>
      <trkpt lat="49.22593" lon="6.60666">
        <ele>225</ele>
        <time>2019-09-01T10:13:58.000Z</time>
      </trkpt>
      <trkpt lat="49.22585" lon="6.60653">
        <ele>225</ele>
        <time>2019-09-01T10:14:08.000Z</time>
      </trkpt>
      <trkpt lat="49.22574" lon="6.60635">
        <ele>226</ele>
        <time>2019-09-01T10:14:18.000Z</time>
      </trkpt>
      <trkpt lat="49.22568" lon="6.60612">
        <ele>226</ele>
        <time>2019-09-01T10:14:28.000Z</time>
      </trkpt>
      <trkpt lat="49.22577" lon="6.60604">
        <ele>226</ele>
        <time>2019-09-01T10:14:38.000Z</time>
      </trkpt>
      <trkpt lat="49.2259" lon="6.606">
        <ele>225</ele>
        <time>2019-09-01T10:14:48.000Z</time>
      </trkpt>
      <trkpt lat="49.22598" lon="6.60596">
        <ele>225</ele>
        <time>2019-09-01T10:14:58.000Z</time>
      </trkpt>
      <trkpt lat="49.22597" lon="6.60574">
        <ele>226</ele>
        <time>2019-09-01T10:15:08.000Z</time>
      </trkpt>
      <trkpt lat="49.22597" lon="6.60552">
        <ele>226</ele>
        <time>2019-09-01T10:15:18.000Z</time>
      </trkpt>
      <trkpt lat="49.22597" lon="6.60529">
        <ele>226</ele>
        <time>2019-09-01T10:15:28.000Z</time>
      </trkpt>
      <trkpt lat="49.22596" lon="6.6051">
        <ele>226</ele>
        <time>2019-09-01T10:15:38.000Z</time>
      </trkpt>
      <trkpt lat="49.22597" lon="6.60491">
        <ele>227</ele>
        <time>2019-09-01T10:15:48.000Z</time>
      </trkpt>
      <trkpt lat="49.22602" lon="6.60468">
        <ele>227</ele>
        <time>2019-09-01T10:15:58.000Z</time>
      </trkpt>
      <trkpt lat="49.22599" lon="6.60447">
        <ele>227</ele>
        <time>2019-09-01T10:16:08.000Z</time>
      </trkpt>
      <trkpt lat="49.22599" lon="6.60425">
        <ele>227</ele>
        <time>2019-09-01T10:16:18.000Z</time>
      </trkpt>
      <trkpt lat="49.22595" lon="6.604">
        <ele>227</ele>
        <time>2019-09-01T10:16:28.000Z</time>
      </trkpt>
      <trkpt lat="49.22589" lon="6.60383">
        <ele>228</ele>
        <time>2019-09-01T10:16:38.000Z</time>
      </trkpt>
      <trkpt lat="49.22579" lon="6.60384">
        <ele>228</ele>
        <time>2019-09-01T10:16:48.000Z</time>
      </trkpt>
      <trkpt lat="49.22565" lon="6.60393">
        <ele>228</ele>
        <time>2019-09-01T10:16:58.000Z</time>
      </trkpt>
      <trkpt lat="49.2255" lon="6.604">
        <ele>228</ele>
        <time>2019-09-01T10:17:08.000Z</time>
      </trkpt>
      <trkpt lat="49.22536" lon="6.60406">
        <ele>227</ele>
        <time>2019-09-01T10:17:18.000Z</time>
      </trkpt>
      <trkpt lat="49.22524" lon="6.60414">
        <ele>227</ele>
        <time>2019-09-01T10:17:28.000Z</time>
      </trkpt>
      <trkpt lat="49.22514" lon="6.60419">
        <ele>226</ele>
        <time>2019-09-01T10:17:38.000Z</time>
      </trkpt>
      <trkpt lat="49.22502" lon="6.60421">
        <ele>225</ele>
        <time>2019-09-01T10:17:48.000Z</time>
      </trkpt>
      <trkpt lat="49.22488" lon="6.60427">
        <ele>226</ele>
        <time>2019-09-01T10:17:58.000Z</time>
      </trkpt>
      <trkpt lat="49.22476" lon="6.60432">
        <ele>227</ele>
        <time>2019-09-01T10:18:08.000Z</time>
      </trkpt>
      <trkpt lat="49.22467" lon="6.60444">
        <ele>228</ele>
        <time>2019-09-01T10:18:18.000Z</time>
      </trkpt>
      <trkpt lat="49.22465" lon="6.60462">
        <ele>228</ele>
        <time>2019-09-01T10:18:28.000Z</time>
      </trkpt>
      <trkpt lat="49.22457" lon="6.60477">
        <ele>228</ele>
        <time>2019-09-01T10:18:38.000Z</time>
      </trkpt>
      <trkpt lat="49.2245" lon="6.60489">
        <ele>228</ele>
        <time>2019-09-01T10:18:48.000Z</time>
      </trkpt>
      <trkpt lat="49.22436" lon="6.60497">
        <ele>228</ele>
        <time>2019-09-01T10:18:58.000Z</time>
      </trkpt>
      <trkpt lat="49.22426" lon="6.60507">
        <ele>228</ele>
        <time>2019-09-01T10:19:08.000Z</time>
      </trkpt>
      <trkpt lat="49.22414" lon="6.6052">
        <ele>231</ele>
        <time>2019-09-01T10:19:18.000Z</time>
      </trkpt>
      <trkpt lat="49.22406" lon="6.60533">
        <ele>231</ele>
        <time>2019-09-01T10:19:28.000Z</time>
      </trkpt>
      <trkpt lat="49.22397" lon="6.6054">
        <ele>232</ele>
        <time>2019-09-01T10:19:38.000Z</time>
      </trkpt>
      <trkpt lat="49.22387" lon="6.60536">
        <ele>232</ele>
        <time>2019-09-01T10:19:48.000Z</time>
      </trkpt>
      <trkpt lat="49.22376" lon="6.60532">
        <ele>232</ele>
        <time>2019-09-01T10:19:58.000Z</time>
      </trkpt>
      <trkpt lat="49.22363" lon="6.60538">
        <ele>233</ele>
        <time>2019-09-01T10:20:08.000Z</time>
      </trkpt>
      <trkpt lat="49.22358" lon="6.60556">
        <ele>233</ele>
        <time>2019-09-01T10:20:19.000Z</time>
      </trkpt>
      <trkpt lat="49.2236" lon="6.60573">
        <ele>233</ele>
        <time>2019-09-01T10:20:29.000Z</time>
      </trkpt>
      <trkpt lat="49.22359" lon="6.60589">
        <ele>234</ele>
        <time>2019-09-01T10:20:39.000Z</time>
      </trkpt>
    </trkseg>
  </trk>
</gpx>